<?xml version="1.0" encoding="UTF-8" standalone="no" ?>
<gpx xmlns="http://www.topografix.com/GPX/1/1" xmlns:xsi="http://www.w3.org/2001/XMLSchema-instance" xsi:schemaLocation="http://www.topografix.com/GPX/1/1 http://www.topografix.com/GPX/1/1/gpx.xsd" version="1.1" creator="VisuGPX - https://www.visugpx.com">
  <metadata>
    <name>La Loire à vélo J3</name>
    <desc><![CDATA[Boucle - Les Ponts de Cé - Saint Rémy La Varenne - Brissac - Les Ponts de Cé]]></desc>
  </metadata>
  <trk>
    <name><![CDATA[49 Mercredi2]]></name>
    <cmt><![CDATA[À partir de la Piste Active]]></cmt>
    <trkseg>
      <trkpt lat="47.39771" lon="-0.31652">
        <ele>32.71875</ele>
        <time>2014-09-03T10:11:01.000Z</time>
      </trkpt>
      <trkpt lat="47.3977" lon="-0.31668">
        <ele>39.699219</ele>
        <time>2014-09-03T10:11:30.000Z</time>
      </trkpt>
      <trkpt lat="47.39771" lon="-0.31683">
        <ele>38.597656</ele>
        <time>2014-09-03T10:11:33.000Z</time>
      </trkpt>
      <trkpt lat="47.39773" lon="-0.31717">
        <ele>35.699219</ele>
        <time>2014-09-03T10:11:39.000Z</time>
      </trkpt>
      <trkpt lat="47.3977" lon="-0.31732">
        <ele>32.5</ele>
        <time>2014-09-03T10:11:43.000Z</time>
      </trkpt>
      <trkpt lat="47.3976" lon="-0.31736">
        <ele>27.296875</ele>
        <time>2014-09-03T10:11:47.000Z</time>
      </trkpt>
      <trkpt lat="47.39721" lon="-0.31753">
        <ele>9.398438</ele>
        <time>2014-09-03T10:11:59.000Z</time>
      </trkpt>
      <trkpt lat="47.39712" lon="-0.3176">
        <ele>7</ele>
        <time>2014-09-03T10:12:02.000Z</time>
      </trkpt>
      <trkpt lat="47.39702" lon="-0.31773">
        <ele>7.199219</ele>
        <time>2014-09-03T10:12:05.000Z</time>
      </trkpt>
      <trkpt lat="47.39687" lon="-0.31792">
        <ele>8.296875</ele>
        <time>2014-09-03T10:12:09.000Z</time>
      </trkpt>
      <trkpt lat="47.39679" lon="-0.31799">
        <ele>8.199219</ele>
        <time>2014-09-03T10:12:11.000Z</time>
      </trkpt>
      <trkpt lat="47.3967" lon="-0.31803">
        <ele>8.097656</ele>
        <time>2014-09-03T10:12:13.000Z</time>
      </trkpt>
      <trkpt lat="47.39659" lon="-0.31803">
        <ele>7.199219</ele>
        <time>2014-09-03T10:12:15.000Z</time>
      </trkpt>
      <trkpt lat="47.39647" lon="-0.31806">
        <ele>7.199219</ele>
        <time>2014-09-03T10:12:17.000Z</time>
      </trkpt>
      <trkpt lat="47.39635" lon="-0.31806">
        <ele>7.898438</ele>
        <time>2014-09-03T10:12:19.000Z</time>
      </trkpt>
      <trkpt lat="47.39622" lon="-0.31805">
        <ele>8.898438</ele>
        <time>2014-09-03T10:12:21.000Z</time>
      </trkpt>
      <trkpt lat="47.3961" lon="-0.31806">
        <ele>10.296875</ele>
        <time>2014-09-03T10:12:23.000Z</time>
      </trkpt>
      <trkpt lat="47.396" lon="-0.3181">
        <ele>11.898438</ele>
        <time>2014-09-03T10:12:25.000Z</time>
      </trkpt>
      <trkpt lat="47.39591" lon="-0.31823">
        <ele>13.398438</ele>
        <time>2014-09-03T10:12:28.000Z</time>
      </trkpt>
      <trkpt lat="47.39587" lon="-0.31837">
        <ele>14.597656</ele>
        <time>2014-09-03T10:12:31.000Z</time>
      </trkpt>
      <trkpt lat="47.39586" lon="-0.31851">
        <ele>15.796875</ele>
        <time>2014-09-03T10:12:34.000Z</time>
      </trkpt>
      <trkpt lat="47.39585" lon="-0.31866">
        <ele>16.898438</ele>
        <time>2014-09-03T10:12:37.000Z</time>
      </trkpt>
      <trkpt lat="47.39584" lon="-0.31881">
        <ele>17.898438</ele>
        <time>2014-09-03T10:12:40.000Z</time>
      </trkpt>
      <trkpt lat="47.39583" lon="-0.32021">
        <ele>24.5</ele>
        <time>2014-09-03T10:13:04.000Z</time>
      </trkpt>
      <trkpt lat="47.39584" lon="-0.3212">
        <ele>29.699219</ele>
        <time>2014-09-03T10:13:22.000Z</time>
      </trkpt>
      <trkpt lat="47.39586" lon="-0.32151">
        <ele>30.296875</ele>
        <time>2014-09-03T10:13:34.000Z</time>
      </trkpt>
      <trkpt lat="47.39588" lon="-0.32165">
        <ele>30.699219</ele>
        <time>2014-09-03T10:13:37.000Z</time>
      </trkpt>
      <trkpt lat="47.39636" lon="-0.32421">
        <ele>38</ele>
        <time>2014-09-03T10:14:28.000Z</time>
      </trkpt>
      <trkpt lat="47.39637" lon="-0.32434">
        <ele>40</ele>
        <time>2014-09-03T10:14:31.000Z</time>
      </trkpt>
      <trkpt lat="47.3964" lon="-0.32448">
        <ele>42.097656</ele>
        <time>2014-09-03T10:14:34.000Z</time>
      </trkpt>
      <trkpt lat="47.39646" lon="-0.32475">
        <ele>45.597656</ele>
        <time>2014-09-03T10:14:40.000Z</time>
      </trkpt>
      <trkpt lat="47.39656" lon="-0.3253">
        <ele>49.796875</ele>
        <time>2014-09-03T10:14:52.000Z</time>
      </trkpt>
      <trkpt lat="47.39662" lon="-0.32556">
        <ele>50.5</ele>
        <time>2014-09-03T10:14:58.000Z</time>
      </trkpt>
      <trkpt lat="47.39663" lon="-0.3257">
        <ele>50.597656</ele>
        <time>2014-09-03T10:15:01.000Z</time>
      </trkpt>
      <trkpt lat="47.3971" lon="-0.3285">
        <ele>55.699219</ele>
        <time>2014-09-03T10:15:57.000Z</time>
      </trkpt>
      <trkpt lat="47.39721" lon="-0.32918">
        <ele>54.199219</ele>
        <time>2014-09-03T10:16:05.000Z</time>
      </trkpt>
      <trkpt lat="47.39723" lon="-0.32937">
        <ele>53.699219</ele>
        <time>2014-09-03T10:16:07.000Z</time>
      </trkpt>
      <trkpt lat="47.39734" lon="-0.33094">
        <ele>53.097656</ele>
        <time>2014-09-03T10:16:23.000Z</time>
      </trkpt>
      <trkpt lat="47.39734" lon="-0.33112">
        <ele>53.097656</ele>
        <time>2014-09-03T10:16:25.000Z</time>
      </trkpt>
      <trkpt lat="47.39732" lon="-0.33128">
        <ele>53.296875</ele>
        <time>2014-09-03T10:16:27.000Z</time>
      </trkpt>
      <trkpt lat="47.39727" lon="-0.33142">
        <ele>53.597656</ele>
        <time>2014-09-03T10:16:29.000Z</time>
      </trkpt>
      <trkpt lat="47.39722" lon="-0.33155">
        <ele>54.199219</ele>
        <time>2014-09-03T10:16:31.000Z</time>
      </trkpt>
      <trkpt lat="47.39714" lon="-0.33169">
        <ele>54.699219</ele>
        <time>2014-09-03T10:16:34.000Z</time>
      </trkpt>
      <trkpt lat="47.39664" lon="-0.33263">
        <ele>59</ele>
        <time>2014-09-03T10:16:58.000Z</time>
      </trkpt>
      <trkpt lat="47.3966" lon="-0.33277">
        <ele>59.398438</ele>
        <time>2014-09-03T10:17:01.000Z</time>
      </trkpt>
      <trkpt lat="47.39656" lon="-0.33291">
        <ele>59.5</ele>
        <time>2014-09-03T10:17:04.000Z</time>
      </trkpt>
      <trkpt lat="47.39653" lon="-0.33306">
        <ele>59.5</ele>
        <time>2014-09-03T10:17:07.000Z</time>
      </trkpt>
      <trkpt lat="47.3963" lon="-0.33468">
        <ele>59.296875</ele>
        <time>2014-09-03T10:17:34.000Z</time>
      </trkpt>
      <trkpt lat="47.39626" lon="-0.33481">
        <ele>59.199219</ele>
        <time>2014-09-03T10:17:36.000Z</time>
      </trkpt>
      <trkpt lat="47.39621" lon="-0.33494">
        <ele>59.199219</ele>
        <time>2014-09-03T10:17:38.000Z</time>
      </trkpt>
      <trkpt lat="47.39614" lon="-0.33504">
        <ele>59.296875</ele>
        <time>2014-09-03T10:17:40.000Z</time>
      </trkpt>
      <trkpt lat="47.39606" lon="-0.33513">
        <ele>59.398438</ele>
        <time>2014-09-03T10:17:42.000Z</time>
      </trkpt>
      <trkpt lat="47.39598" lon="-0.33522">
        <ele>59.597656</ele>
        <time>2014-09-03T10:17:44.000Z</time>
      </trkpt>
      <trkpt lat="47.39471" lon="-0.33641">
        <ele>67.199219</ele>
        <time>2014-09-03T10:18:28.000Z</time>
      </trkpt>
      <trkpt lat="47.39464" lon="-0.33653">
        <ele>67.398438</ele>
        <time>2014-09-03T10:18:31.000Z</time>
      </trkpt>
      <trkpt lat="47.39457" lon="-0.33666">
        <ele>67.398438</ele>
        <time>2014-09-03T10:18:34.000Z</time>
      </trkpt>
      <trkpt lat="47.3945" lon="-0.3368">
        <ele>67.398438</ele>
        <time>2014-09-03T10:18:37.000Z</time>
      </trkpt>
      <trkpt lat="47.39447" lon="-0.33698">
        <ele>67.097656</ele>
        <time>2014-09-03T10:18:40.000Z</time>
      </trkpt>
      <trkpt lat="47.39448" lon="-0.33717">
        <ele>66.898438</ele>
        <time>2014-09-03T10:18:43.000Z</time>
      </trkpt>
      <trkpt lat="47.39452" lon="-0.3373">
        <ele>66.597656</ele>
        <time>2014-09-03T10:18:45.000Z</time>
      </trkpt>
      <trkpt lat="47.39456" lon="-0.33743">
        <ele>66.296875</ele>
        <time>2014-09-03T10:18:47.000Z</time>
      </trkpt>
      <trkpt lat="47.39461" lon="-0.33756">
        <ele>66</ele>
        <time>2014-09-03T10:18:49.000Z</time>
      </trkpt>
      <trkpt lat="47.3948" lon="-0.33794">
        <ele>65.5</ele>
        <time>2014-09-03T10:18:55.000Z</time>
      </trkpt>
      <trkpt lat="47.39534" lon="-0.33904">
        <ele>67.398438</ele>
        <time>2014-09-03T10:19:16.000Z</time>
      </trkpt>
      <trkpt lat="47.39538" lon="-0.33919">
        <ele>67.898438</ele>
        <time>2014-09-03T10:19:19.000Z</time>
      </trkpt>
      <trkpt lat="47.39542" lon="-0.33935">
        <ele>68.097656</ele>
        <time>2014-09-03T10:19:22.000Z</time>
      </trkpt>
      <trkpt lat="47.39545" lon="-0.33951">
        <ele>68.097656</ele>
        <time>2014-09-03T10:19:25.000Z</time>
      </trkpt>
      <trkpt lat="47.39548" lon="-0.33968">
        <ele>68.296875</ele>
        <time>2014-09-03T10:19:28.000Z</time>
      </trkpt>
      <trkpt lat="47.39555" lon="-0.34029">
        <ele>70.796875</ele>
        <time>2014-09-03T10:19:40.000Z</time>
      </trkpt>
      <trkpt lat="47.39556" lon="-0.34046">
        <ele>71.398438</ele>
        <time>2014-09-03T10:19:43.000Z</time>
      </trkpt>
      <trkpt lat="47.39559" lon="-0.34148">
        <ele>74.199219</ele>
        <time>2014-09-03T10:20:01.000Z</time>
      </trkpt>
      <trkpt lat="47.39553" lon="-0.34331">
        <ele>75.5</ele>
        <time>2014-09-03T10:20:34.000Z</time>
      </trkpt>
      <trkpt lat="47.39555" lon="-0.34349">
        <ele>75.398438</ele>
        <time>2014-09-03T10:20:37.000Z</time>
      </trkpt>
      <trkpt lat="47.39558" lon="-0.34366">
        <ele>75.296875</ele>
        <time>2014-09-03T10:20:40.000Z</time>
      </trkpt>
      <trkpt lat="47.39563" lon="-0.34382">
        <ele>75.199219</ele>
        <time>2014-09-03T10:20:43.000Z</time>
      </trkpt>
      <trkpt lat="47.3957" lon="-0.34398">
        <ele>75.199219</ele>
        <time>2014-09-03T10:20:46.000Z</time>
      </trkpt>
      <trkpt lat="47.39592" lon="-0.34443">
        <ele>75.699219</ele>
        <time>2014-09-03T10:20:55.000Z</time>
      </trkpt>
      <trkpt lat="47.39597" lon="-0.3446">
        <ele>75.597656</ele>
        <time>2014-09-03T10:20:58.000Z</time>
      </trkpt>
      <trkpt lat="47.39601" lon="-0.34478">
        <ele>75.597656</ele>
        <time>2014-09-03T10:21:01.000Z</time>
      </trkpt>
      <trkpt lat="47.39605" lon="-0.34495">
        <ele>75.699219</ele>
        <time>2014-09-03T10:21:04.000Z</time>
      </trkpt>
      <trkpt lat="47.39607" lon="-0.34513">
        <ele>75.898438</ele>
        <time>2014-09-03T10:21:07.000Z</time>
      </trkpt>
      <trkpt lat="47.39633" lon="-0.34763">
        <ele>80.699219</ele>
        <time>2014-09-03T10:21:52.000Z</time>
      </trkpt>
      <trkpt lat="47.39637" lon="-0.34779">
        <ele>80.796875</ele>
        <time>2014-09-03T10:21:55.000Z</time>
      </trkpt>
      <trkpt lat="47.39676" lon="-0.34949">
        <ele>75.296875</ele>
        <time>2014-09-03T10:22:18.000Z</time>
      </trkpt>
      <trkpt lat="47.39678" lon="-0.34971">
        <ele>74.699219</ele>
        <time>2014-09-03T10:22:20.000Z</time>
      </trkpt>
      <trkpt lat="47.39678" lon="-0.34992">
        <ele>74.796875</ele>
        <time>2014-09-03T10:22:22.000Z</time>
      </trkpt>
      <trkpt lat="47.39671" lon="-0.35164">
        <ele>74.796875</ele>
        <time>2014-09-03T10:22:40.000Z</time>
      </trkpt>
      <trkpt lat="47.39673" lon="-0.35178">
        <ele>74.199219</ele>
        <time>2014-09-03T10:22:42.000Z</time>
      </trkpt>
      <trkpt lat="47.39681" lon="-0.35185">
        <ele>73.199219</ele>
        <time>2014-09-03T10:22:44.000Z</time>
      </trkpt>
      <trkpt lat="47.39692" lon="-0.35185">
        <ele>72.296875</ele>
        <time>2014-09-03T10:22:46.000Z</time>
      </trkpt>
      <trkpt lat="47.39704" lon="-0.35182">
        <ele>71.5</ele>
        <time>2014-09-03T10:22:48.000Z</time>
      </trkpt>
      <trkpt lat="47.39767" lon="-0.35164">
        <ele>68.597656</ele>
        <time>2014-09-03T10:22:58.000Z</time>
      </trkpt>
      <trkpt lat="47.3978" lon="-0.35158">
        <ele>68</ele>
        <time>2014-09-03T10:23:00.000Z</time>
      </trkpt>
      <trkpt lat="47.39804" lon="-0.35143">
        <ele>66.898438</ele>
        <time>2014-09-03T10:23:04.000Z</time>
      </trkpt>
      <trkpt lat="47.39815" lon="-0.35134">
        <ele>66.398438</ele>
        <time>2014-09-03T10:23:06.000Z</time>
      </trkpt>
      <trkpt lat="47.39826" lon="-0.35125">
        <ele>65.796875</ele>
        <time>2014-09-03T10:23:08.000Z</time>
      </trkpt>
      <trkpt lat="47.39847" lon="-0.35104">
        <ele>64.898438</ele>
        <time>2014-09-03T10:23:12.000Z</time>
      </trkpt>
      <trkpt lat="47.39898" lon="-0.35053">
        <ele>61.898438</ele>
        <time>2014-09-03T10:23:22.000Z</time>
      </trkpt>
      <trkpt lat="47.39904" lon="-0.35039">
        <ele>61.199219</ele>
        <time>2014-09-03T10:23:24.000Z</time>
      </trkpt>
      <trkpt lat="47.39908" lon="-0.35023">
        <ele>60.5</ele>
        <time>2014-09-03T10:23:26.000Z</time>
      </trkpt>
      <trkpt lat="47.3991" lon="-0.35005">
        <ele>60.097656</ele>
        <time>2014-09-03T10:23:28.000Z</time>
      </trkpt>
      <trkpt lat="47.39914" lon="-0.34987">
        <ele>59.5</ele>
        <time>2014-09-03T10:23:30.000Z</time>
      </trkpt>
      <trkpt lat="47.3992" lon="-0.34969">
        <ele>58.898438</ele>
        <time>2014-09-03T10:23:32.000Z</time>
      </trkpt>
      <trkpt lat="47.3993" lon="-0.34955">
        <ele>58.398438</ele>
        <time>2014-09-03T10:23:34.000Z</time>
      </trkpt>
      <trkpt lat="47.39942" lon="-0.34945">
        <ele>58</ele>
        <time>2014-09-03T10:23:36.000Z</time>
      </trkpt>
      <trkpt lat="47.39954" lon="-0.34938">
        <ele>56.898438</ele>
        <time>2014-09-03T10:23:38.000Z</time>
      </trkpt>
      <trkpt lat="47.40022" lon="-0.34901">
        <ele>47.796875</ele>
        <time>2014-09-03T10:23:48.000Z</time>
      </trkpt>
      <trkpt lat="47.40053" lon="-0.3488">
        <ele>45.097656</ele>
        <time>2014-09-03T10:23:52.000Z</time>
      </trkpt>
      <trkpt lat="47.4016" lon="-0.34833">
        <ele>34.296875</ele>
        <time>2014-09-03T10:24:03.000Z</time>
      </trkpt>
      <trkpt lat="47.40169" lon="-0.34826">
        <ele>33.296875</ele>
        <time>2014-09-03T10:24:04.000Z</time>
      </trkpt>
      <trkpt lat="47.40176" lon="-0.34817">
        <ele>32.296875</ele>
        <time>2014-09-03T10:24:05.000Z</time>
      </trkpt>
      <trkpt lat="47.40183" lon="-0.34807">
        <ele>31.5</ele>
        <time>2014-09-03T10:24:06.000Z</time>
      </trkpt>
      <trkpt lat="47.40208" lon="-0.34759">
        <ele>28.5</ele>
        <time>2014-09-03T10:24:11.000Z</time>
      </trkpt>
      <trkpt lat="47.40221" lon="-0.3475">
        <ele>27.796875</ele>
        <time>2014-09-03T10:24:13.000Z</time>
      </trkpt>
      <trkpt lat="47.40234" lon="-0.34756">
        <ele>27.097656</ele>
        <time>2014-09-03T10:24:15.000Z</time>
      </trkpt>
      <trkpt lat="47.40245" lon="-0.34766">
        <ele>26.296875</ele>
        <time>2014-09-03T10:24:17.000Z</time>
      </trkpt>
      <trkpt lat="47.40256" lon="-0.34776">
        <ele>26</ele>
        <time>2014-09-03T10:24:19.000Z</time>
      </trkpt>
      <trkpt lat="47.4027" lon="-0.34783">
        <ele>25.199219</ele>
        <time>2014-09-03T10:24:21.000Z</time>
      </trkpt>
      <trkpt lat="47.40298" lon="-0.34793">
        <ele>22.796875</ele>
        <time>2014-09-03T10:24:25.000Z</time>
      </trkpt>
      <trkpt lat="47.4031" lon="-0.34802">
        <ele>22.699219</ele>
        <time>2014-09-03T10:24:27.000Z</time>
      </trkpt>
      <trkpt lat="47.40322" lon="-0.34814">
        <ele>22.699219</ele>
        <time>2014-09-03T10:24:29.000Z</time>
      </trkpt>
      <trkpt lat="47.40333" lon="-0.34829">
        <ele>22.898438</ele>
        <time>2014-09-03T10:24:31.000Z</time>
      </trkpt>
      <trkpt lat="47.40342" lon="-0.34844">
        <ele>23</ele>
        <time>2014-09-03T10:24:33.000Z</time>
      </trkpt>
      <trkpt lat="47.40351" lon="-0.3486">
        <ele>23.398438</ele>
        <time>2014-09-03T10:24:35.000Z</time>
      </trkpt>
      <trkpt lat="47.40388" lon="-0.34935">
        <ele>26</ele>
        <time>2014-09-03T10:24:45.000Z</time>
      </trkpt>
      <trkpt lat="47.40395" lon="-0.34947">
        <ele>26.199219</ele>
        <time>2014-09-03T10:24:47.000Z</time>
      </trkpt>
      <trkpt lat="47.40404" lon="-0.34957">
        <ele>25.398438</ele>
        <time>2014-09-03T10:24:49.000Z</time>
      </trkpt>
      <trkpt lat="47.40412" lon="-0.34966">
        <ele>23.296875</ele>
        <time>2014-09-03T10:24:51.000Z</time>
      </trkpt>
      <trkpt lat="47.4042" lon="-0.34973">
        <ele>21.898438</ele>
        <time>2014-09-03T10:24:53.000Z</time>
      </trkpt>
      <trkpt lat="47.40429" lon="-0.34981">
        <ele>20.898438</ele>
        <time>2014-09-03T10:24:55.000Z</time>
      </trkpt>
      <trkpt lat="47.40437" lon="-0.3499">
        <ele>20.398438</ele>
        <time>2014-09-03T10:24:57.000Z</time>
      </trkpt>
      <trkpt lat="47.40445" lon="-0.34999">
        <ele>20.097656</ele>
        <time>2014-09-03T10:24:59.000Z</time>
      </trkpt>
      <trkpt lat="47.40452" lon="-0.3501">
        <ele>20.597656</ele>
        <time>2014-09-03T10:25:01.000Z</time>
      </trkpt>
      <trkpt lat="47.40459" lon="-0.35022">
        <ele>21.296875</ele>
        <time>2014-09-03T10:25:03.000Z</time>
      </trkpt>
      <trkpt lat="47.40465" lon="-0.35035">
        <ele>21.898438</ele>
        <time>2014-09-03T10:25:05.000Z</time>
      </trkpt>
      <trkpt lat="47.40471" lon="-0.35048">
        <ele>22.796875</ele>
        <time>2014-09-03T10:25:07.000Z</time>
      </trkpt>
      <trkpt lat="47.40476" lon="-0.3506">
        <ele>23.398438</ele>
        <time>2014-09-03T10:25:09.000Z</time>
      </trkpt>
      <trkpt lat="47.4048" lon="-0.35074">
        <ele>24.296875</ele>
        <time>2014-09-03T10:25:11.000Z</time>
      </trkpt>
      <trkpt lat="47.40497" lon="-0.35126">
        <ele>29.296875</ele>
        <time>2014-09-03T10:25:19.000Z</time>
      </trkpt>
      <trkpt lat="47.40504" lon="-0.35141">
        <ele>30.398438</ele>
        <time>2014-09-03T10:25:22.000Z</time>
      </trkpt>
      <trkpt lat="47.40509" lon="-0.35158">
        <ele>31</ele>
        <time>2014-09-03T10:25:25.000Z</time>
      </trkpt>
      <trkpt lat="47.40512" lon="-0.3517">
        <ele>32.199219</ele>
        <time>2014-09-03T10:25:27.000Z</time>
      </trkpt>
      <trkpt lat="47.40532" lon="-0.35258">
        <ele>34.796875</ele>
        <time>2014-09-03T10:25:42.000Z</time>
      </trkpt>
      <trkpt lat="47.40538" lon="-0.35275">
        <ele>34.597656</ele>
        <time>2014-09-03T10:25:45.000Z</time>
      </trkpt>
      <trkpt lat="47.40567" lon="-0.35348">
        <ele>29.898438</ele>
        <time>2014-09-03T10:26:00.000Z</time>
      </trkpt>
      <trkpt lat="47.40587" lon="-0.3542">
        <ele>27.796875</ele>
        <time>2014-09-03T10:26:15.000Z</time>
      </trkpt>
      <trkpt lat="47.40593" lon="-0.35451">
        <ele>28.5</ele>
        <time>2014-09-03T10:26:21.000Z</time>
      </trkpt>
      <trkpt lat="47.40608" lon="-0.35538">
        <ele>25.597656</ele>
        <time>2014-09-03T10:26:36.000Z</time>
      </trkpt>
      <trkpt lat="47.40623" lon="-0.35645">
        <ele>27</ele>
        <time>2014-09-03T10:26:52.000Z</time>
      </trkpt>
      <trkpt lat="47.40628" lon="-0.35678">
        <ele>29.097656</ele>
        <time>2014-09-03T10:26:57.000Z</time>
      </trkpt>
      <trkpt lat="47.40633" lon="-0.35694">
        <ele>29.199219</ele>
        <time>2014-09-03T10:27:00.000Z</time>
      </trkpt>
      <trkpt lat="47.40663" lon="-0.35811">
        <ele>33.859375</ele>
        <time>2014-09-03T10:28:24.000Z</time>
      </trkpt>
      <trkpt lat="47.40658" lon="-0.35812">
        <ele>30.277344</ele>
        <time>2014-09-03T10:28:37.000Z</time>
      </trkpt>
      <trkpt lat="47.40649" lon="-0.358">
        <ele>29</ele>
        <time>2014-09-03T11:01:57.000Z</time>
      </trkpt>
      <trkpt lat="47.40644" lon="-0.35771">
        <ele>27.898438</ele>
        <time>2014-09-03T11:02:17.000Z</time>
      </trkpt>
      <trkpt lat="47.40639" lon="-0.35756">
        <ele>32</ele>
        <time>2014-09-03T11:02:21.000Z</time>
      </trkpt>
      <trkpt lat="47.40639" lon="-0.35739">
        <ele>32.597656</ele>
        <time>2014-09-03T11:02:25.000Z</time>
      </trkpt>
      <trkpt lat="47.40638" lon="-0.35725">
        <ele>32.5</ele>
        <time>2014-09-03T11:02:28.000Z</time>
      </trkpt>
      <trkpt lat="47.40636" lon="-0.35709">
        <ele>32.5</ele>
        <time>2014-09-03T11:02:32.000Z</time>
      </trkpt>
      <trkpt lat="47.40633" lon="-0.35726">
        <ele>32.296875</ele>
        <time>2014-09-03T11:02:42.000Z</time>
      </trkpt>
      <trkpt lat="47.40633" lon="-0.35742">
        <ele>32</ele>
        <time>2014-09-03T11:02:45.000Z</time>
      </trkpt>
      <trkpt lat="47.40637" lon="-0.35774">
        <ele>31.5</ele>
        <time>2014-09-03T11:02:51.000Z</time>
      </trkpt>
      <trkpt lat="47.40648" lon="-0.35856">
        <ele>28.699219</ele>
        <time>2014-09-03T11:03:06.000Z</time>
      </trkpt>
      <trkpt lat="47.40648" lon="-0.35875">
        <ele>28</ele>
        <time>2014-09-03T11:03:09.000Z</time>
      </trkpt>
      <trkpt lat="47.40647" lon="-0.35889">
        <ele>27.296875</ele>
        <time>2014-09-03T11:03:11.000Z</time>
      </trkpt>
      <trkpt lat="47.40636" lon="-0.36007">
        <ele>22</ele>
        <time>2014-09-03T11:03:27.000Z</time>
      </trkpt>
      <trkpt lat="47.40641" lon="-0.36023">
        <ele>21.699219</ele>
        <time>2014-09-03T11:03:30.000Z</time>
      </trkpt>
      <trkpt lat="47.40641" lon="-0.3604">
        <ele>22.097656</ele>
        <time>2014-09-03T11:03:33.000Z</time>
      </trkpt>
      <trkpt lat="47.40639" lon="-0.36056">
        <ele>22.296875</ele>
        <time>2014-09-03T11:03:36.000Z</time>
      </trkpt>
      <trkpt lat="47.40637" lon="-0.36085">
        <ele>21.398438</ele>
        <time>2014-09-03T11:03:42.000Z</time>
      </trkpt>
      <trkpt lat="47.40637" lon="-0.36101">
        <ele>21.199219</ele>
        <time>2014-09-03T11:03:45.000Z</time>
      </trkpt>
      <trkpt lat="47.40639" lon="-0.36137">
        <ele>20.898438</ele>
        <time>2014-09-03T11:03:51.000Z</time>
      </trkpt>
      <trkpt lat="47.40641" lon="-0.36155">
        <ele>20.898438</ele>
        <time>2014-09-03T11:03:54.000Z</time>
      </trkpt>
      <trkpt lat="47.4064" lon="-0.36174">
        <ele>20.898438</ele>
        <time>2014-09-03T11:03:57.000Z</time>
      </trkpt>
      <trkpt lat="47.4064" lon="-0.36193">
        <ele>20.796875</ele>
        <time>2014-09-03T11:04:00.000Z</time>
      </trkpt>
      <trkpt lat="47.40637" lon="-0.36213">
        <ele>20.597656</ele>
        <time>2014-09-03T11:04:03.000Z</time>
      </trkpt>
      <trkpt lat="47.40611" lon="-0.36427">
        <ele>16</ele>
        <time>2014-09-03T11:04:36.000Z</time>
      </trkpt>
      <trkpt lat="47.40611" lon="-0.36446">
        <ele>15.898438</ele>
        <time>2014-09-03T11:04:39.000Z</time>
      </trkpt>
      <trkpt lat="47.40604" lon="-0.36535">
        <ele>16.699219</ele>
        <time>2014-09-03T11:04:54.000Z</time>
      </trkpt>
      <trkpt lat="47.40599" lon="-0.36569">
        <ele>17.097656</ele>
        <time>2014-09-03T11:05:00.000Z</time>
      </trkpt>
      <trkpt lat="47.40594" lon="-0.36604">
        <ele>17.796875</ele>
        <time>2014-09-03T11:05:06.000Z</time>
      </trkpt>
      <trkpt lat="47.40586" lon="-0.36636">
        <ele>18.699219</ele>
        <time>2014-09-03T11:05:12.000Z</time>
      </trkpt>
      <trkpt lat="47.40571" lon="-0.36692">
        <ele>19.699219</ele>
        <time>2014-09-03T11:05:26.000Z</time>
      </trkpt>
      <trkpt lat="47.40566" lon="-0.36707">
        <ele>19.199219</ele>
        <time>2014-09-03T11:05:29.000Z</time>
      </trkpt>
      <trkpt lat="47.40564" lon="-0.36722">
        <ele>19.398438</ele>
        <time>2014-09-03T11:05:32.000Z</time>
      </trkpt>
      <trkpt lat="47.4056" lon="-0.36738">
        <ele>19.199219</ele>
        <time>2014-09-03T11:05:35.000Z</time>
      </trkpt>
      <trkpt lat="47.40556" lon="-0.36754">
        <ele>19.398438</ele>
        <time>2014-09-03T11:05:38.000Z</time>
      </trkpt>
      <trkpt lat="47.40546" lon="-0.36797">
        <ele>19.699219</ele>
        <time>2014-09-03T11:05:47.000Z</time>
      </trkpt>
      <trkpt lat="47.40517" lon="-0.36932">
        <ele>21</ele>
        <time>2014-09-03T11:06:14.000Z</time>
      </trkpt>
      <trkpt lat="47.4047" lon="-0.37128">
        <ele>21.398438</ele>
        <time>2014-09-03T11:06:50.000Z</time>
      </trkpt>
      <trkpt lat="47.40465" lon="-0.37143">
        <ele>21.398438</ele>
        <time>2014-09-03T11:06:53.000Z</time>
      </trkpt>
      <trkpt lat="47.40458" lon="-0.37156">
        <ele>21.699219</ele>
        <time>2014-09-03T11:06:56.000Z</time>
      </trkpt>
      <trkpt lat="47.40451" lon="-0.37167">
        <ele>22</ele>
        <time>2014-09-03T11:06:59.000Z</time>
      </trkpt>
      <trkpt lat="47.40442" lon="-0.37176">
        <ele>22.296875</ele>
        <time>2014-09-03T11:07:02.000Z</time>
      </trkpt>
      <trkpt lat="47.40434" lon="-0.37188">
        <ele>22.296875</ele>
        <time>2014-09-03T11:07:05.000Z</time>
      </trkpt>
      <trkpt lat="47.40428" lon="-0.37201">
        <ele>22.097656</ele>
        <time>2014-09-03T11:07:08.000Z</time>
      </trkpt>
      <trkpt lat="47.40422" lon="-0.37217">
        <ele>21.898438</ele>
        <time>2014-09-03T11:07:11.000Z</time>
      </trkpt>
      <trkpt lat="47.40413" lon="-0.37249">
        <ele>21.597656</ele>
        <time>2014-09-03T11:07:17.000Z</time>
      </trkpt>
      <trkpt lat="47.4039" lon="-0.37335">
        <ele>20</ele>
        <time>2014-09-03T11:07:32.000Z</time>
      </trkpt>
      <trkpt lat="47.40384" lon="-0.37349">
        <ele>20.097656</ele>
        <time>2014-09-03T11:07:35.000Z</time>
      </trkpt>
      <trkpt lat="47.40375" lon="-0.37353">
        <ele>20.097656</ele>
        <time>2014-09-03T11:07:38.000Z</time>
      </trkpt>
      <trkpt lat="47.40366" lon="-0.37348">
        <ele>20.097656</ele>
        <time>2014-09-03T11:07:41.000Z</time>
      </trkpt>
      <trkpt lat="47.40357" lon="-0.37341">
        <ele>20.199219</ele>
        <time>2014-09-03T11:07:44.000Z</time>
      </trkpt>
      <trkpt lat="47.40338" lon="-0.37326">
        <ele>20.398438</ele>
        <time>2014-09-03T11:07:50.000Z</time>
      </trkpt>
      <trkpt lat="47.40266" lon="-0.37266">
        <ele>19.699219</ele>
        <time>2014-09-03T11:08:11.000Z</time>
      </trkpt>
      <trkpt lat="47.40256" lon="-0.3726">
        <ele>19.796875</ele>
        <time>2014-09-03T11:08:14.000Z</time>
      </trkpt>
      <trkpt lat="47.40245" lon="-0.37255">
        <ele>19.597656</ele>
        <time>2014-09-03T11:08:17.000Z</time>
      </trkpt>
      <trkpt lat="47.40213" lon="-0.3724">
        <ele>19.296875</ele>
        <time>2014-09-03T11:08:26.000Z</time>
      </trkpt>
      <trkpt lat="47.40142" lon="-0.37195">
        <ele>24</ele>
        <time>2014-09-03T11:08:47.000Z</time>
      </trkpt>
      <trkpt lat="47.40108" lon="-0.37169">
        <ele>26.597656</ele>
        <time>2014-09-03T11:08:59.000Z</time>
      </trkpt>
      <trkpt lat="47.40089" lon="-0.37157">
        <ele>31.5</ele>
        <time>2014-09-03T11:09:06.000Z</time>
      </trkpt>
      <trkpt lat="47.40078" lon="-0.37157">
        <ele>31.398438</ele>
        <time>2014-09-03T11:09:10.000Z</time>
      </trkpt>
      <trkpt lat="47.40069" lon="-0.37167">
        <ele>32.097656</ele>
        <time>2014-09-03T11:09:14.000Z</time>
      </trkpt>
      <trkpt lat="47.4006" lon="-0.37177">
        <ele>33.597656</ele>
        <time>2014-09-03T11:09:18.000Z</time>
      </trkpt>
      <trkpt lat="47.40051" lon="-0.37174">
        <ele>33.597656</ele>
        <time>2014-09-03T11:09:21.000Z</time>
      </trkpt>
      <trkpt lat="47.4004" lon="-0.37167">
        <ele>35.199219</ele>
        <time>2014-09-03T11:09:25.000Z</time>
      </trkpt>
      <trkpt lat="47.40032" lon="-0.37155">
        <ele>36.296875</ele>
        <time>2014-09-03T11:09:29.000Z</time>
      </trkpt>
      <trkpt lat="47.40033" lon="-0.37138">
        <ele>34.199219</ele>
        <time>2014-09-03T11:09:33.000Z</time>
      </trkpt>
      <trkpt lat="47.40026" lon="-0.37124">
        <ele>33.796875</ele>
        <time>2014-09-03T11:09:37.000Z</time>
      </trkpt>
      <trkpt lat="47.40018" lon="-0.37117">
        <ele>36.398438</ele>
        <time>2014-09-03T11:09:40.000Z</time>
      </trkpt>
      <trkpt lat="47.4001" lon="-0.37107">
        <ele>38.296875</ele>
        <time>2014-09-03T11:09:44.000Z</time>
      </trkpt>
      <trkpt lat="47.40002" lon="-0.37101">
        <ele>37.699219</ele>
        <time>2014-09-03T11:09:51.000Z</time>
      </trkpt>
      <trkpt lat="47.39995" lon="-0.3711">
        <ele>36.097656</ele>
        <time>2014-09-03T11:09:55.000Z</time>
      </trkpt>
      <trkpt lat="47.39988" lon="-0.3712">
        <ele>48.699219</ele>
        <time>2014-09-03T11:10:00.000Z</time>
      </trkpt>
      <trkpt lat="47.39999" lon="-0.37116">
        <ele>48.398438</ele>
        <time>2014-09-03T11:12:24.000Z</time>
      </trkpt>
      <trkpt lat="47.39999" lon="-0.37134">
        <ele>47.898438</ele>
        <time>2014-09-03T11:12:28.000Z</time>
      </trkpt>
      <trkpt lat="47.39997" lon="-0.3715">
        <ele>47.296875</ele>
        <time>2014-09-03T11:12:31.000Z</time>
      </trkpt>
      <trkpt lat="47.39996" lon="-0.37164">
        <ele>47.199219</ele>
        <time>2014-09-03T11:12:34.000Z</time>
      </trkpt>
      <trkpt lat="47.39995" lon="-0.37178">
        <ele>47.199219</ele>
        <time>2014-09-03T11:12:37.000Z</time>
      </trkpt>
      <trkpt lat="47.39995" lon="-0.37192">
        <ele>46</ele>
        <time>2014-09-03T11:12:40.000Z</time>
      </trkpt>
      <trkpt lat="47.39999" lon="-0.37205">
        <ele>44.097656</ele>
        <time>2014-09-03T11:12:43.000Z</time>
      </trkpt>
      <trkpt lat="47.40011" lon="-0.37248">
        <ele>39.296875</ele>
        <time>2014-09-03T11:12:53.000Z</time>
      </trkpt>
      <trkpt lat="47.40009" lon="-0.37263">
        <ele>36.699219</ele>
        <time>2014-09-03T11:12:57.000Z</time>
      </trkpt>
      <trkpt lat="47.40005" lon="-0.37278">
        <ele>33.296875</ele>
        <time>2014-09-03T11:13:00.000Z</time>
      </trkpt>
      <trkpt lat="47.39999" lon="-0.37294">
        <ele>31</ele>
        <time>2014-09-03T11:13:03.000Z</time>
      </trkpt>
      <trkpt lat="47.39989" lon="-0.37319">
        <ele>26.898438</ele>
        <time>2014-09-03T11:13:07.000Z</time>
      </trkpt>
      <trkpt lat="47.39982" lon="-0.37331">
        <ele>25.796875</ele>
        <time>2014-09-03T11:13:09.000Z</time>
      </trkpt>
      <trkpt lat="47.39969" lon="-0.37357">
        <ele>23.699219</ele>
        <time>2014-09-03T11:13:13.000Z</time>
      </trkpt>
      <trkpt lat="47.39962" lon="-0.37369">
        <ele>22.296875</ele>
        <time>2014-09-03T11:13:15.000Z</time>
      </trkpt>
      <trkpt lat="47.39939" lon="-0.37408">
        <ele>20.097656</ele>
        <time>2014-09-03T11:13:21.000Z</time>
      </trkpt>
      <trkpt lat="47.39907" lon="-0.37474">
        <ele>19.796875</ele>
        <time>2014-09-03T11:13:31.000Z</time>
      </trkpt>
      <trkpt lat="47.39893" lon="-0.37511">
        <ele>21.796875</ele>
        <time>2014-09-03T11:13:37.000Z</time>
      </trkpt>
      <trkpt lat="47.39889" lon="-0.37524">
        <ele>22.199219</ele>
        <time>2014-09-03T11:13:39.000Z</time>
      </trkpt>
      <trkpt lat="47.3988" lon="-0.37554">
        <ele>23.898438</ele>
        <time>2014-09-03T11:13:44.000Z</time>
      </trkpt>
      <trkpt lat="47.39877" lon="-0.37571">
        <ele>24.5</ele>
        <time>2014-09-03T11:13:47.000Z</time>
      </trkpt>
      <trkpt lat="47.39875" lon="-0.37587">
        <ele>25.5</ele>
        <time>2014-09-03T11:13:50.000Z</time>
      </trkpt>
      <trkpt lat="47.39876" lon="-0.37604">
        <ele>26.699219</ele>
        <time>2014-09-03T11:13:53.000Z</time>
      </trkpt>
      <trkpt lat="47.39877" lon="-0.37619">
        <ele>29.699219</ele>
        <time>2014-09-03T11:13:56.000Z</time>
      </trkpt>
      <trkpt lat="47.39888" lon="-0.37713">
        <ele>34.097656</ele>
        <time>2014-09-03T11:14:16.000Z</time>
      </trkpt>
      <trkpt lat="47.39892" lon="-0.37728">
        <ele>33.699219</ele>
        <time>2014-09-03T11:14:20.000Z</time>
      </trkpt>
      <trkpt lat="47.39896" lon="-0.37741">
        <ele>34.296875</ele>
        <time>2014-09-03T11:14:25.000Z</time>
      </trkpt>
      <trkpt lat="47.39893" lon="-0.37754">
        <ele>32.898438</ele>
        <time>2014-09-03T11:14:29.000Z</time>
      </trkpt>
      <trkpt lat="47.39902" lon="-0.37754">
        <ele>30.699219</ele>
        <time>2014-09-03T11:15:51.000Z</time>
      </trkpt>
      <trkpt lat="47.39909" lon="-0.37766">
        <ele>28.398438</ele>
        <time>2014-09-03T11:16:00.000Z</time>
      </trkpt>
      <trkpt lat="47.39913" lon="-0.37777">
        <ele>27.199219</ele>
        <time>2014-09-03T11:16:07.000Z</time>
      </trkpt>
      <trkpt lat="47.39906" lon="-0.37767">
        <ele>27.597656</ele>
        <time>2014-09-03T11:16:22.000Z</time>
      </trkpt>
      <trkpt lat="47.39901" lon="-0.37755">
        <ele>28.199219</ele>
        <time>2014-09-03T11:16:26.000Z</time>
      </trkpt>
      <trkpt lat="47.39893" lon="-0.37744">
        <ele>28.398438</ele>
        <time>2014-09-03T11:16:31.000Z</time>
      </trkpt>
      <trkpt lat="47.39888" lon="-0.37732">
        <ele>28.296875</ele>
        <time>2014-09-03T11:16:35.000Z</time>
      </trkpt>
      <trkpt lat="47.39886" lon="-0.37718">
        <ele>28.296875</ele>
        <time>2014-09-03T11:16:38.000Z</time>
      </trkpt>
      <trkpt lat="47.39874" lon="-0.37618">
        <ele>23.597656</ele>
        <time>2014-09-03T11:16:52.000Z</time>
      </trkpt>
      <trkpt lat="47.39872" lon="-0.37599">
        <ele>22.199219</ele>
        <time>2014-09-03T11:16:54.000Z</time>
      </trkpt>
      <trkpt lat="47.39873" lon="-0.3758">
        <ele>21</ele>
        <time>2014-09-03T11:16:56.000Z</time>
      </trkpt>
      <trkpt lat="47.39876" lon="-0.37561">
        <ele>20.699219</ele>
        <time>2014-09-03T11:16:58.000Z</time>
      </trkpt>
      <trkpt lat="47.3988" lon="-0.37544">
        <ele>20.699219</ele>
        <time>2014-09-03T11:17:00.000Z</time>
      </trkpt>
      <trkpt lat="47.39885" lon="-0.37531">
        <ele>20.597656</ele>
        <time>2014-09-03T11:17:02.000Z</time>
      </trkpt>
      <trkpt lat="47.39891" lon="-0.37516">
        <ele>20.398438</ele>
        <time>2014-09-03T11:17:05.000Z</time>
      </trkpt>
      <trkpt lat="47.399" lon="-0.37509">
        <ele>20.5</ele>
        <time>2014-09-03T11:17:09.000Z</time>
      </trkpt>
      <trkpt lat="47.39909" lon="-0.37513">
        <ele>20</ele>
        <time>2014-09-03T11:17:12.000Z</time>
      </trkpt>
      <trkpt lat="47.39919" lon="-0.3752">
        <ele>19.796875</ele>
        <time>2014-09-03T11:17:15.000Z</time>
      </trkpt>
      <trkpt lat="47.3993" lon="-0.37528">
        <ele>19.398438</ele>
        <time>2014-09-03T11:17:18.000Z</time>
      </trkpt>
      <trkpt lat="47.39939" lon="-0.37536">
        <ele>20.199219</ele>
        <time>2014-09-03T11:17:21.000Z</time>
      </trkpt>
      <trkpt lat="47.39947" lon="-0.37547">
        <ele>20.699219</ele>
        <time>2014-09-03T11:17:25.000Z</time>
      </trkpt>
      <trkpt lat="47.39954" lon="-0.37555">
        <ele>20.5</ele>
        <time>2014-09-03T11:17:29.000Z</time>
      </trkpt>
      <trkpt lat="47.39964" lon="-0.37562">
        <ele>19.199219</ele>
        <time>2014-09-03T11:17:34.000Z</time>
      </trkpt>
      <trkpt lat="47.39972" lon="-0.37551">
        <ele>18.199219</ele>
        <time>2014-09-03T11:17:49.000Z</time>
      </trkpt>
      <trkpt lat="47.39977" lon="-0.37539">
        <ele>17.796875</ele>
        <time>2014-09-03T11:17:53.000Z</time>
      </trkpt>
      <trkpt lat="47.39987" lon="-0.37537">
        <ele>18.597656</ele>
        <time>2014-09-03T11:17:58.000Z</time>
      </trkpt>
      <trkpt lat="47.39998" lon="-0.37541">
        <ele>19.398438</ele>
        <time>2014-09-03T11:18:02.000Z</time>
      </trkpt>
      <trkpt lat="47.40007" lon="-0.37548">
        <ele>21</ele>
        <time>2014-09-03T11:18:07.000Z</time>
      </trkpt>
      <trkpt lat="47.39998" lon="-0.37554">
        <ele>21.199219</ele>
        <time>2014-09-03T11:18:37.000Z</time>
      </trkpt>
      <trkpt lat="47.39989" lon="-0.37549">
        <ele>20.699219</ele>
        <time>2014-09-03T11:18:47.000Z</time>
      </trkpt>
      <trkpt lat="47.39979" lon="-0.37542">
        <ele>20.898438</ele>
        <time>2014-09-03T11:18:52.000Z</time>
      </trkpt>
      <trkpt lat="47.39968" lon="-0.37541">
        <ele>23.199219</ele>
        <time>2014-09-03T11:18:57.000Z</time>
      </trkpt>
      <trkpt lat="47.39959" lon="-0.37533">
        <ele>23.796875</ele>
        <time>2014-09-03T11:19:03.000Z</time>
      </trkpt>
      <trkpt lat="47.39949" lon="-0.37531">
        <ele>23.5</ele>
        <time>2014-09-03T11:19:07.000Z</time>
      </trkpt>
      <trkpt lat="47.39939" lon="-0.37533">
        <ele>24</ele>
        <time>2014-09-03T11:19:11.000Z</time>
      </trkpt>
      <trkpt lat="47.39928" lon="-0.37529">
        <ele>24.296875</ele>
        <time>2014-09-03T11:19:15.000Z</time>
      </trkpt>
      <trkpt lat="47.39919" lon="-0.37524">
        <ele>23.296875</ele>
        <time>2014-09-03T11:19:18.000Z</time>
      </trkpt>
      <trkpt lat="47.39916" lon="-0.37511">
        <ele>22.597656</ele>
        <time>2014-09-03T11:19:24.000Z</time>
      </trkpt>
      <trkpt lat="47.39907" lon="-0.37515">
        <ele>21.796875</ele>
        <time>2014-09-03T11:20:04.000Z</time>
      </trkpt>
      <trkpt lat="47.39903" lon="-0.37501">
        <ele>21.699219</ele>
        <time>2014-09-03T11:20:10.000Z</time>
      </trkpt>
      <trkpt lat="47.39908" lon="-0.37488">
        <ele>21.699219</ele>
        <time>2014-09-03T11:20:13.000Z</time>
      </trkpt>
      <trkpt lat="47.39919" lon="-0.3746">
        <ele>20.5</ele>
        <time>2014-09-03T11:20:19.000Z</time>
      </trkpt>
      <trkpt lat="47.39926" lon="-0.37445">
        <ele>20</ele>
        <time>2014-09-03T11:20:22.000Z</time>
      </trkpt>
      <trkpt lat="47.39933" lon="-0.37434">
        <ele>18.796875</ele>
        <time>2014-09-03T11:20:25.000Z</time>
      </trkpt>
      <trkpt lat="47.39939" lon="-0.3742">
        <ele>18</ele>
        <time>2014-09-03T11:20:28.000Z</time>
      </trkpt>
      <trkpt lat="47.39952" lon="-0.37393">
        <ele>18.199219</ele>
        <time>2014-09-03T11:20:34.000Z</time>
      </trkpt>
      <trkpt lat="47.39971" lon="-0.37354">
        <ele>18.796875</ele>
        <time>2014-09-03T11:20:43.000Z</time>
      </trkpt>
      <trkpt lat="47.39988" lon="-0.37313">
        <ele>23.898438</ele>
        <time>2014-09-03T11:20:52.000Z</time>
      </trkpt>
      <trkpt lat="47.39991" lon="-0.37299">
        <ele>25.699219</ele>
        <time>2014-09-03T11:20:55.000Z</time>
      </trkpt>
      <trkpt lat="47.39996" lon="-0.37271">
        <ele>27.398438</ele>
        <time>2014-09-03T11:21:01.000Z</time>
      </trkpt>
      <trkpt lat="47.39994" lon="-0.37257">
        <ele>27.199219</ele>
        <time>2014-09-03T11:21:05.000Z</time>
      </trkpt>
      <trkpt lat="47.3999" lon="-0.37242">
        <ele>27.296875</ele>
        <time>2014-09-03T11:21:09.000Z</time>
      </trkpt>
      <trkpt lat="47.39983" lon="-0.37217">
        <ele>28.199219</ele>
        <time>2014-09-03T11:21:15.000Z</time>
      </trkpt>
      <trkpt lat="47.39981" lon="-0.37203">
        <ele>28.699219</ele>
        <time>2014-09-03T11:21:18.000Z</time>
      </trkpt>
      <trkpt lat="47.3998" lon="-0.37188">
        <ele>29.699219</ele>
        <time>2014-09-03T11:21:21.000Z</time>
      </trkpt>
      <trkpt lat="47.39981" lon="-0.37173">
        <ele>31.796875</ele>
        <time>2014-09-03T11:21:24.000Z</time>
      </trkpt>
      <trkpt lat="47.39982" lon="-0.37159">
        <ele>33</ele>
        <time>2014-09-03T11:21:27.000Z</time>
      </trkpt>
      <trkpt lat="47.39986" lon="-0.37131">
        <ele>36</ele>
        <time>2014-09-03T11:21:33.000Z</time>
      </trkpt>
      <trkpt lat="47.39984" lon="-0.37116">
        <ele>37.597656</ele>
        <time>2014-09-03T11:21:37.000Z</time>
      </trkpt>
      <trkpt lat="47.39976" lon="-0.37108">
        <ele>38.898438</ele>
        <time>2014-09-03T11:21:41.000Z</time>
      </trkpt>
      <trkpt lat="47.39967" lon="-0.37102">
        <ele>38.398438</ele>
        <time>2014-09-03T11:21:45.000Z</time>
      </trkpt>
      <trkpt lat="47.39957" lon="-0.37093">
        <ele>38.597656</ele>
        <time>2014-09-03T11:21:49.000Z</time>
      </trkpt>
      <trkpt lat="47.39947" lon="-0.37087">
        <ele>37.296875</ele>
        <time>2014-09-03T11:21:53.000Z</time>
      </trkpt>
      <trkpt lat="47.39936" lon="-0.37079">
        <ele>37.097656</ele>
        <time>2014-09-03T11:21:57.000Z</time>
      </trkpt>
      <trkpt lat="47.39928" lon="-0.37073">
        <ele>35.398438</ele>
        <time>2014-09-03T11:22:00.000Z</time>
      </trkpt>
      <trkpt lat="47.39918" lon="-0.37065">
        <ele>33.898438</ele>
        <time>2014-09-03T11:22:04.000Z</time>
      </trkpt>
      <trkpt lat="47.39909" lon="-0.37061">
        <ele>33.898438</ele>
        <time>2014-09-03T11:22:08.000Z</time>
      </trkpt>
      <trkpt lat="47.39889" lon="-0.37053">
        <ele>35</ele>
        <time>2014-09-03T11:22:16.000Z</time>
      </trkpt>
      <trkpt lat="47.3986" lon="-0.37035">
        <ele>39.597656</ele>
        <time>2014-09-03T11:22:30.000Z</time>
      </trkpt>
      <trkpt lat="47.39849" lon="-0.37032">
        <ele>41.796875</ele>
        <time>2014-09-03T11:22:34.000Z</time>
      </trkpt>
      <trkpt lat="47.39837" lon="-0.37036">
        <ele>43.097656</ele>
        <time>2014-09-03T11:22:38.000Z</time>
      </trkpt>
      <trkpt lat="47.39817" lon="-0.37044">
        <ele>45.796875</ele>
        <time>2014-09-03T11:22:45.000Z</time>
      </trkpt>
      <trkpt lat="47.39806" lon="-0.37039">
        <ele>46.898438</ele>
        <time>2014-09-03T11:22:49.000Z</time>
      </trkpt>
      <trkpt lat="47.39797" lon="-0.3703">
        <ele>48</ele>
        <time>2014-09-03T11:22:53.000Z</time>
      </trkpt>
      <trkpt lat="47.39788" lon="-0.37022">
        <ele>48.898438</ele>
        <time>2014-09-03T11:22:57.000Z</time>
      </trkpt>
      <trkpt lat="47.39705" lon="-0.3694">
        <ele>57.5</ele>
        <time>2014-09-03T11:23:37.000Z</time>
      </trkpt>
      <trkpt lat="47.3968" lon="-0.36918">
        <ele>58.796875</ele>
        <time>2014-09-03T11:23:49.000Z</time>
      </trkpt>
      <trkpt lat="47.39671" lon="-0.36911">
        <ele>59.398438</ele>
        <time>2014-09-03T11:23:53.000Z</time>
      </trkpt>
      <trkpt lat="47.39666" lon="-0.36899">
        <ele>60.597656</ele>
        <time>2014-09-03T11:23:57.000Z</time>
      </trkpt>
      <trkpt lat="47.39666" lon="-0.36884">
        <ele>61.296875</ele>
        <time>2014-09-03T11:24:03.000Z</time>
      </trkpt>
      <trkpt lat="47.39667" lon="-0.3687">
        <ele>61.398438</ele>
        <time>2014-09-03T11:24:08.000Z</time>
      </trkpt>
      <trkpt lat="47.39667" lon="-0.36855">
        <ele>61.699219</ele>
        <time>2014-09-03T11:24:14.000Z</time>
      </trkpt>
      <trkpt lat="47.3966" lon="-0.36845">
        <ele>62.296875</ele>
        <time>2014-09-03T11:24:19.000Z</time>
      </trkpt>
      <trkpt lat="47.39652" lon="-0.36839">
        <ele>62.699219</ele>
        <time>2014-09-03T11:24:24.000Z</time>
      </trkpt>
      <trkpt lat="47.39616" lon="-0.36814">
        <ele>65</ele>
        <time>2014-09-03T11:24:47.000Z</time>
      </trkpt>
      <trkpt lat="47.39606" lon="-0.36814">
        <ele>65.199219</ele>
        <time>2014-09-03T11:24:53.000Z</time>
      </trkpt>
      <trkpt lat="47.39525" lon="-0.36818">
        <ele>68.699219</ele>
        <time>2014-09-03T11:25:18.000Z</time>
      </trkpt>
      <trkpt lat="47.39484" lon="-0.36826">
        <ele>69.597656</ele>
        <time>2014-09-03T11:25:30.000Z</time>
      </trkpt>
      <trkpt lat="47.39473" lon="-0.3683">
        <ele>69.5</ele>
        <time>2014-09-03T11:25:33.000Z</time>
      </trkpt>
      <trkpt lat="47.39461" lon="-0.36836">
        <ele>69.199219</ele>
        <time>2014-09-03T11:25:36.000Z</time>
      </trkpt>
      <trkpt lat="47.3945" lon="-0.36845">
        <ele>69</ele>
        <time>2014-09-03T11:25:39.000Z</time>
      </trkpt>
      <trkpt lat="47.39442" lon="-0.36852">
        <ele>68.796875</ele>
        <time>2014-09-03T11:25:41.000Z</time>
      </trkpt>
      <trkpt lat="47.39427" lon="-0.36867">
        <ele>68.597656</ele>
        <time>2014-09-03T11:25:45.000Z</time>
      </trkpt>
      <trkpt lat="47.39415" lon="-0.36873">
        <ele>68.796875</ele>
        <time>2014-09-03T11:25:48.000Z</time>
      </trkpt>
      <trkpt lat="47.39403" lon="-0.36873">
        <ele>68.597656</ele>
        <time>2014-09-03T11:25:51.000Z</time>
      </trkpt>
      <trkpt lat="47.39382" lon="-0.36874">
        <ele>67.5</ele>
        <time>2014-09-03T11:25:57.000Z</time>
      </trkpt>
      <trkpt lat="47.39374" lon="-0.36881">
        <ele>66.597656</ele>
        <time>2014-09-03T11:26:00.000Z</time>
      </trkpt>
      <trkpt lat="47.39368" lon="-0.36896">
        <ele>65.398438</ele>
        <time>2014-09-03T11:26:04.000Z</time>
      </trkpt>
      <trkpt lat="47.39365" lon="-0.36913">
        <ele>64.796875</ele>
        <time>2014-09-03T11:26:08.000Z</time>
      </trkpt>
      <trkpt lat="47.39361" lon="-0.36941">
        <ele>64.796875</ele>
        <time>2014-09-03T11:26:14.000Z</time>
      </trkpt>
      <trkpt lat="47.39359" lon="-0.36956">
        <ele>64.699219</ele>
        <time>2014-09-03T11:26:17.000Z</time>
      </trkpt>
      <trkpt lat="47.39358" lon="-0.36971">
        <ele>65.5</ele>
        <time>2014-09-03T11:26:20.000Z</time>
      </trkpt>
      <trkpt lat="47.39357" lon="-0.36986">
        <ele>65.796875</ele>
        <time>2014-09-03T11:26:23.000Z</time>
      </trkpt>
      <trkpt lat="47.39357" lon="-0.37015">
        <ele>62.898438</ele>
        <time>2014-09-03T11:26:29.000Z</time>
      </trkpt>
      <trkpt lat="47.39356" lon="-0.37028">
        <ele>63</ele>
        <time>2014-09-03T11:26:32.000Z</time>
      </trkpt>
      <trkpt lat="47.39353" lon="-0.37042">
        <ele>62.796875</ele>
        <time>2014-09-03T11:26:35.000Z</time>
      </trkpt>
      <trkpt lat="47.39348" lon="-0.37055">
        <ele>63.199219</ele>
        <time>2014-09-03T11:26:38.000Z</time>
      </trkpt>
      <trkpt lat="47.39342" lon="-0.37067">
        <ele>63.5</ele>
        <time>2014-09-03T11:26:41.000Z</time>
      </trkpt>
      <trkpt lat="47.39316" lon="-0.37123">
        <ele>57</ele>
        <time>2014-09-03T11:26:53.000Z</time>
      </trkpt>
      <trkpt lat="47.39305" lon="-0.37145">
        <ele>57.898438</ele>
        <time>2014-09-03T11:26:57.000Z</time>
      </trkpt>
      <trkpt lat="47.39279" lon="-0.37198">
        <ele>63.097656</ele>
        <time>2014-09-03T11:27:07.000Z</time>
      </trkpt>
      <trkpt lat="47.39274" lon="-0.37213">
        <ele>64.398438</ele>
        <time>2014-09-03T11:27:10.000Z</time>
      </trkpt>
      <trkpt lat="47.39271" lon="-0.37228">
        <ele>65.5</ele>
        <time>2014-09-03T11:27:13.000Z</time>
      </trkpt>
      <trkpt lat="47.39267" lon="-0.37243">
        <ele>66.398438</ele>
        <time>2014-09-03T11:27:16.000Z</time>
      </trkpt>
      <trkpt lat="47.39265" lon="-0.3726">
        <ele>67</ele>
        <time>2014-09-03T11:27:19.000Z</time>
      </trkpt>
      <trkpt lat="47.39244" lon="-0.37431">
        <ele>67.097656</ele>
        <time>2014-09-03T11:27:40.000Z</time>
      </trkpt>
      <trkpt lat="47.3924" lon="-0.37446">
        <ele>67.398438</ele>
        <time>2014-09-03T11:27:42.000Z</time>
      </trkpt>
      <trkpt lat="47.39235" lon="-0.37459">
        <ele>67.699219</ele>
        <time>2014-09-03T11:27:44.000Z</time>
      </trkpt>
      <trkpt lat="47.3923" lon="-0.37471">
        <ele>67.796875</ele>
        <time>2014-09-03T11:27:46.000Z</time>
      </trkpt>
      <trkpt lat="47.39224" lon="-0.37481">
        <ele>68.699219</ele>
        <time>2014-09-03T11:27:48.000Z</time>
      </trkpt>
      <trkpt lat="47.39217" lon="-0.37493">
        <ele>68.398438</ele>
        <time>2014-09-03T11:27:50.000Z</time>
      </trkpt>
      <trkpt lat="47.39209" lon="-0.37502">
        <ele>67.796875</ele>
        <time>2014-09-03T11:27:52.000Z</time>
      </trkpt>
      <trkpt lat="47.39186" lon="-0.3753">
        <ele>66.898438</ele>
        <time>2014-09-03T11:27:58.000Z</time>
      </trkpt>
      <trkpt lat="47.39182" lon="-0.37545">
        <ele>66.699219</ele>
        <time>2014-09-03T11:28:01.000Z</time>
      </trkpt>
      <trkpt lat="47.39187" lon="-0.37556">
        <ele>66.597656</ele>
        <time>2014-09-03T11:28:04.000Z</time>
      </trkpt>
      <trkpt lat="47.39198" lon="-0.3756">
        <ele>65.597656</ele>
        <time>2014-09-03T11:28:07.000Z</time>
      </trkpt>
      <trkpt lat="47.39219" lon="-0.37569">
        <ele>65.199219</ele>
        <time>2014-09-03T11:28:12.000Z</time>
      </trkpt>
      <trkpt lat="47.3923" lon="-0.37572">
        <ele>65.097656</ele>
        <time>2014-09-03T11:28:14.000Z</time>
      </trkpt>
      <trkpt lat="47.39253" lon="-0.3758">
        <ele>65.5</ele>
        <time>2014-09-03T11:28:18.000Z</time>
      </trkpt>
      <trkpt lat="47.39279" lon="-0.37592">
        <ele>63.597656</ele>
        <time>2014-09-03T11:28:22.000Z</time>
      </trkpt>
      <trkpt lat="47.39293" lon="-0.37596">
        <ele>61.898438</ele>
        <time>2014-09-03T11:28:24.000Z</time>
      </trkpt>
      <trkpt lat="47.39309" lon="-0.37595">
        <ele>60.597656</ele>
        <time>2014-09-03T11:28:26.000Z</time>
      </trkpt>
      <trkpt lat="47.39324" lon="-0.37589">
        <ele>59.398438</ele>
        <time>2014-09-03T11:28:28.000Z</time>
      </trkpt>
      <trkpt lat="47.3934" lon="-0.3758">
        <ele>58.296875</ele>
        <time>2014-09-03T11:28:30.000Z</time>
      </trkpt>
      <trkpt lat="47.39355" lon="-0.37572">
        <ele>57</ele>
        <time>2014-09-03T11:28:32.000Z</time>
      </trkpt>
      <trkpt lat="47.39371" lon="-0.37565">
        <ele>55.898438</ele>
        <time>2014-09-03T11:28:34.000Z</time>
      </trkpt>
      <trkpt lat="47.39445" lon="-0.37533">
        <ele>52.296875</ele>
        <time>2014-09-03T11:28:44.000Z</time>
      </trkpt>
      <trkpt lat="47.39484" lon="-0.37512">
        <ele>50.597656</ele>
        <time>2014-09-03T11:28:50.000Z</time>
      </trkpt>
      <trkpt lat="47.39498" lon="-0.37508">
        <ele>49.898438</ele>
        <time>2014-09-03T11:28:52.000Z</time>
      </trkpt>
      <trkpt lat="47.39513" lon="-0.37508">
        <ele>49</ele>
        <time>2014-09-03T11:28:54.000Z</time>
      </trkpt>
      <trkpt lat="47.39529" lon="-0.3751">
        <ele>48</ele>
        <time>2014-09-03T11:28:56.000Z</time>
      </trkpt>
      <trkpt lat="47.39545" lon="-0.37513">
        <ele>47.097656</ele>
        <time>2014-09-03T11:28:58.000Z</time>
      </trkpt>
      <trkpt lat="47.3956" lon="-0.37518">
        <ele>46.296875</ele>
        <time>2014-09-03T11:29:00.000Z</time>
      </trkpt>
      <trkpt lat="47.39575" lon="-0.37528">
        <ele>45.398438</ele>
        <time>2014-09-03T11:29:02.000Z</time>
      </trkpt>
      <trkpt lat="47.39587" lon="-0.37543">
        <ele>44.398438</ele>
        <time>2014-09-03T11:29:04.000Z</time>
      </trkpt>
      <trkpt lat="47.39599" lon="-0.37559">
        <ele>43.398438</ele>
        <time>2014-09-03T11:29:06.000Z</time>
      </trkpt>
      <trkpt lat="47.3961" lon="-0.37576">
        <ele>42.898438</ele>
        <time>2014-09-03T11:29:08.000Z</time>
      </trkpt>
      <trkpt lat="47.39618" lon="-0.37598">
        <ele>42.398438</ele>
        <time>2014-09-03T11:29:10.000Z</time>
      </trkpt>
      <trkpt lat="47.39631" lon="-0.37643">
        <ele>41.296875</ele>
        <time>2014-09-03T11:29:14.000Z</time>
      </trkpt>
      <trkpt lat="47.3964" lon="-0.37664">
        <ele>41</ele>
        <time>2014-09-03T11:29:16.000Z</time>
      </trkpt>
      <trkpt lat="47.3965" lon="-0.37684">
        <ele>40.597656</ele>
        <time>2014-09-03T11:29:18.000Z</time>
      </trkpt>
      <trkpt lat="47.39661" lon="-0.37704">
        <ele>40.097656</ele>
        <time>2014-09-03T11:29:20.000Z</time>
      </trkpt>
      <trkpt lat="47.39674" lon="-0.37721">
        <ele>39.597656</ele>
        <time>2014-09-03T11:29:22.000Z</time>
      </trkpt>
      <trkpt lat="47.39689" lon="-0.37735">
        <ele>39.097656</ele>
        <time>2014-09-03T11:29:24.000Z</time>
      </trkpt>
      <trkpt lat="47.39706" lon="-0.37745">
        <ele>38.597656</ele>
        <time>2014-09-03T11:29:26.000Z</time>
      </trkpt>
      <trkpt lat="47.39766" lon="-0.37788">
        <ele>37</ele>
        <time>2014-09-03T11:29:34.000Z</time>
      </trkpt>
      <trkpt lat="47.39787" lon="-0.37806">
        <ele>36</ele>
        <time>2014-09-03T11:29:38.000Z</time>
      </trkpt>
      <trkpt lat="47.39797" lon="-0.37816">
        <ele>35</ele>
        <time>2014-09-03T11:29:40.000Z</time>
      </trkpt>
      <trkpt lat="47.39809" lon="-0.37823">
        <ele>33.699219</ele>
        <time>2014-09-03T11:29:42.000Z</time>
      </trkpt>
      <trkpt lat="47.39822" lon="-0.37826">
        <ele>32.699219</ele>
        <time>2014-09-03T11:29:44.000Z</time>
      </trkpt>
      <trkpt lat="47.39843" lon="-0.3783">
        <ele>30.699219</ele>
        <time>2014-09-03T11:29:48.000Z</time>
      </trkpt>
      <trkpt lat="47.39855" lon="-0.37834">
        <ele>31</ele>
        <time>2014-09-03T11:29:51.000Z</time>
      </trkpt>
      <trkpt lat="47.39861" lon="-0.37848">
        <ele>31.199219</ele>
        <time>2014-09-03T11:29:54.000Z</time>
      </trkpt>
      <trkpt lat="47.39863" lon="-0.37862">
        <ele>30.796875</ele>
        <time>2014-09-03T11:29:57.000Z</time>
      </trkpt>
      <trkpt lat="47.39865" lon="-0.37876">
        <ele>30.097656</ele>
        <time>2014-09-03T11:30:00.000Z</time>
      </trkpt>
      <trkpt lat="47.39867" lon="-0.37893">
        <ele>29.5</ele>
        <time>2014-09-03T11:30:04.000Z</time>
      </trkpt>
      <trkpt lat="47.39866" lon="-0.37907">
        <ele>29.699219</ele>
        <time>2014-09-03T11:30:07.000Z</time>
      </trkpt>
      <trkpt lat="47.39863" lon="-0.37953">
        <ele>31.199219</ele>
        <time>2014-09-03T11:30:16.000Z</time>
      </trkpt>
      <trkpt lat="47.39863" lon="-0.3797">
        <ele>31</ele>
        <time>2014-09-03T11:30:19.000Z</time>
      </trkpt>
      <trkpt lat="47.39866" lon="-0.37986">
        <ele>31</ele>
        <time>2014-09-03T11:30:22.000Z</time>
      </trkpt>
      <trkpt lat="47.39874" lon="-0.38017">
        <ele>31.199219</ele>
        <time>2014-09-03T11:30:27.000Z</time>
      </trkpt>
      <trkpt lat="47.39879" lon="-0.3803">
        <ele>31.5</ele>
        <time>2014-09-03T11:30:29.000Z</time>
      </trkpt>
      <trkpt lat="47.39882" lon="-0.38044">
        <ele>31.597656</ele>
        <time>2014-09-03T11:30:31.000Z</time>
      </trkpt>
      <trkpt lat="47.39884" lon="-0.38061">
        <ele>31.296875</ele>
        <time>2014-09-03T11:30:33.000Z</time>
      </trkpt>
      <trkpt lat="47.39887" lon="-0.38114">
        <ele>30.5</ele>
        <time>2014-09-03T11:30:39.000Z</time>
      </trkpt>
      <trkpt lat="47.3989" lon="-0.38132">
        <ele>30.5</ele>
        <time>2014-09-03T11:30:41.000Z</time>
      </trkpt>
      <trkpt lat="47.39894" lon="-0.3815">
        <ele>30.597656</ele>
        <time>2014-09-03T11:30:43.000Z</time>
      </trkpt>
      <trkpt lat="47.39895" lon="-0.38169">
        <ele>30.796875</ele>
        <time>2014-09-03T11:30:45.000Z</time>
      </trkpt>
      <trkpt lat="47.39893" lon="-0.38187">
        <ele>30.898438</ele>
        <time>2014-09-03T11:30:47.000Z</time>
      </trkpt>
      <trkpt lat="47.3989" lon="-0.38205">
        <ele>31.296875</ele>
        <time>2014-09-03T11:30:49.000Z</time>
      </trkpt>
      <trkpt lat="47.39884" lon="-0.38221">
        <ele>32</ele>
        <time>2014-09-03T11:30:51.000Z</time>
      </trkpt>
      <trkpt lat="47.39876" lon="-0.38232">
        <ele>32.796875</ele>
        <time>2014-09-03T11:30:53.000Z</time>
      </trkpt>
      <trkpt lat="47.39867" lon="-0.3824">
        <ele>33</ele>
        <time>2014-09-03T11:30:55.000Z</time>
      </trkpt>
      <trkpt lat="47.39821" lon="-0.38283">
        <ele>35</ele>
        <time>2014-09-03T11:31:09.000Z</time>
      </trkpt>
      <trkpt lat="47.39793" lon="-0.38305">
        <ele>36.199219</ele>
        <time>2014-09-03T11:31:18.000Z</time>
      </trkpt>
      <trkpt lat="47.39786" lon="-0.38315">
        <ele>36.199219</ele>
        <time>2014-09-03T11:31:21.000Z</time>
      </trkpt>
      <trkpt lat="47.39782" lon="-0.38329">
        <ele>36.5</ele>
        <time>2014-09-03T11:31:24.000Z</time>
      </trkpt>
      <trkpt lat="47.39779" lon="-0.38344">
        <ele>37.296875</ele>
        <time>2014-09-03T11:31:27.000Z</time>
      </trkpt>
      <trkpt lat="47.39778" lon="-0.3836">
        <ele>38</ele>
        <time>2014-09-03T11:31:30.000Z</time>
      </trkpt>
      <trkpt lat="47.39779" lon="-0.38376">
        <ele>38.097656</ele>
        <time>2014-09-03T11:31:33.000Z</time>
      </trkpt>
      <trkpt lat="47.39783" lon="-0.38424">
        <ele>36.296875</ele>
        <time>2014-09-03T11:31:42.000Z</time>
      </trkpt>
      <trkpt lat="47.39782" lon="-0.38441">
        <ele>36.699219</ele>
        <time>2014-09-03T11:31:45.000Z</time>
      </trkpt>
      <trkpt lat="47.39778" lon="-0.38494">
        <ele>36.699219</ele>
        <time>2014-09-03T11:31:53.000Z</time>
      </trkpt>
      <trkpt lat="47.39769" lon="-0.38569">
        <ele>30.097656</ele>
        <time>2014-09-03T11:32:01.000Z</time>
      </trkpt>
      <trkpt lat="47.39757" lon="-0.38638">
        <ele>19.296875</ele>
        <time>2014-09-03T11:32:07.000Z</time>
      </trkpt>
      <trkpt lat="47.3973" lon="-0.38783">
        <ele>9.097656</ele>
        <time>2014-09-03T11:32:19.000Z</time>
      </trkpt>
      <trkpt lat="47.39726" lon="-0.388">
        <ele>10.199219</ele>
        <time>2014-09-03T11:32:21.000Z</time>
      </trkpt>
      <trkpt lat="47.39718" lon="-0.38815">
        <ele>11.5</ele>
        <time>2014-09-03T11:32:23.000Z</time>
      </trkpt>
      <trkpt lat="47.39665" lon="-0.38902">
        <ele>20.5</ele>
        <time>2014-09-03T11:32:40.000Z</time>
      </trkpt>
      <trkpt lat="47.39642" lon="-0.38936">
        <ele>24.898438</ele>
        <time>2014-09-03T11:32:49.000Z</time>
      </trkpt>
      <trkpt lat="47.39636" lon="-0.38947">
        <ele>25.796875</ele>
        <time>2014-09-03T11:32:52.000Z</time>
      </trkpt>
      <trkpt lat="47.39631" lon="-0.38959">
        <ele>26.5</ele>
        <time>2014-09-03T11:32:55.000Z</time>
      </trkpt>
      <trkpt lat="47.39627" lon="-0.38974">
        <ele>23.199219</ele>
        <time>2014-09-03T11:32:59.000Z</time>
      </trkpt>
      <trkpt lat="47.39627" lon="-0.3899">
        <ele>20</ele>
        <time>2014-09-03T11:33:04.000Z</time>
      </trkpt>
      <trkpt lat="47.39626" lon="-0.39004">
        <ele>18.796875</ele>
        <time>2014-09-03T11:33:09.000Z</time>
      </trkpt>
      <trkpt lat="47.39622" lon="-0.39017">
        <ele>18.296875</ele>
        <time>2014-09-03T11:33:13.000Z</time>
      </trkpt>
      <trkpt lat="47.39616" lon="-0.39029">
        <ele>19</ele>
        <time>2014-09-03T11:33:17.000Z</time>
      </trkpt>
      <trkpt lat="47.3961" lon="-0.3904">
        <ele>19.398438</ele>
        <time>2014-09-03T11:33:21.000Z</time>
      </trkpt>
      <trkpt lat="47.39596" lon="-0.39062">
        <ele>21.898438</ele>
        <time>2014-09-03T11:33:31.000Z</time>
      </trkpt>
      <trkpt lat="47.39589" lon="-0.39071">
        <ele>23.5</ele>
        <time>2014-09-03T11:33:35.000Z</time>
      </trkpt>
      <trkpt lat="47.39543" lon="-0.39126">
        <ele>31.199219</ele>
        <time>2014-09-03T11:33:55.000Z</time>
      </trkpt>
      <trkpt lat="47.39536" lon="-0.39136">
        <ele>31</ele>
        <time>2014-09-03T11:33:58.000Z</time>
      </trkpt>
      <trkpt lat="47.3953" lon="-0.3915">
        <ele>30.898438</ele>
        <time>2014-09-03T11:34:02.000Z</time>
      </trkpt>
      <trkpt lat="47.39525" lon="-0.39162">
        <ele>32.398438</ele>
        <time>2014-09-03T11:34:05.000Z</time>
      </trkpt>
      <trkpt lat="47.39523" lon="-0.39176">
        <ele>34</ele>
        <time>2014-09-03T11:34:08.000Z</time>
      </trkpt>
      <trkpt lat="47.39521" lon="-0.39189">
        <ele>36.5</ele>
        <time>2014-09-03T11:34:11.000Z</time>
      </trkpt>
      <trkpt lat="47.39518" lon="-0.39223">
        <ele>39.398438</ele>
        <time>2014-09-03T11:34:19.000Z</time>
      </trkpt>
      <trkpt lat="47.39511" lon="-0.39307">
        <ele>43.699219</ele>
        <time>2014-09-03T11:34:39.000Z</time>
      </trkpt>
      <trkpt lat="47.39503" lon="-0.39364">
        <ele>49.898438</ele>
        <time>2014-09-03T11:34:52.000Z</time>
      </trkpt>
      <trkpt lat="47.395" lon="-0.39381">
        <ele>51.199219</ele>
        <time>2014-09-03T11:34:56.000Z</time>
      </trkpt>
      <trkpt lat="47.39497" lon="-0.39394">
        <ele>53.398438</ele>
        <time>2014-09-03T11:34:59.000Z</time>
      </trkpt>
      <trkpt lat="47.39492" lon="-0.3941">
        <ele>55.097656</ele>
        <time>2014-09-03T11:35:03.000Z</time>
      </trkpt>
      <trkpt lat="47.39483" lon="-0.39419">
        <ele>55.898438</ele>
        <time>2014-09-03T11:35:07.000Z</time>
      </trkpt>
      <trkpt lat="47.39474" lon="-0.39421">
        <ele>56.898438</ele>
        <time>2014-09-03T11:35:10.000Z</time>
      </trkpt>
      <trkpt lat="47.39465" lon="-0.39422">
        <ele>57.5</ele>
        <time>2014-09-03T11:35:13.000Z</time>
      </trkpt>
      <trkpt lat="47.3938" lon="-0.39428">
        <ele>69.199219</ele>
        <time>2014-09-03T11:35:42.000Z</time>
      </trkpt>
      <trkpt lat="47.39285" lon="-0.39429">
        <ele>72.699219</ele>
        <time>2014-09-03T11:36:09.000Z</time>
      </trkpt>
      <trkpt lat="47.39253" lon="-0.39427">
        <ele>73</ele>
        <time>2014-09-03T11:36:18.000Z</time>
      </trkpt>
      <trkpt lat="47.39243" lon="-0.39428">
        <ele>73.597656</ele>
        <time>2014-09-03T11:36:21.000Z</time>
      </trkpt>
      <trkpt lat="47.39211" lon="-0.39434">
        <ele>75.398438</ele>
        <time>2014-09-03T11:36:33.000Z</time>
      </trkpt>
      <trkpt lat="47.39202" lon="-0.3944">
        <ele>75.097656</ele>
        <time>2014-09-03T11:36:37.000Z</time>
      </trkpt>
      <trkpt lat="47.39201" lon="-0.39453">
        <ele>75.097656</ele>
        <time>2014-09-03T11:36:41.000Z</time>
      </trkpt>
      <trkpt lat="47.39205" lon="-0.39469">
        <ele>75.398438</ele>
        <time>2014-09-03T11:36:45.000Z</time>
      </trkpt>
      <trkpt lat="47.39265" lon="-0.3969">
        <ele>73.199219</ele>
        <time>2014-09-03T11:37:47.000Z</time>
      </trkpt>
      <trkpt lat="47.39268" lon="-0.39704">
        <ele>72.796875</ele>
        <time>2014-09-03T11:37:50.000Z</time>
      </trkpt>
      <trkpt lat="47.3927" lon="-0.39719">
        <ele>72.097656</ele>
        <time>2014-09-03T11:37:53.000Z</time>
      </trkpt>
      <trkpt lat="47.39281" lon="-0.39813">
        <ele>67.199219</ele>
        <time>2014-09-03T11:38:07.000Z</time>
      </trkpt>
      <trkpt lat="47.39284" lon="-0.39829">
        <ele>66.097656</ele>
        <time>2014-09-03T11:38:09.000Z</time>
      </trkpt>
      <trkpt lat="47.39288" lon="-0.39844">
        <ele>64.898438</ele>
        <time>2014-09-03T11:38:11.000Z</time>
      </trkpt>
      <trkpt lat="47.39292" lon="-0.39858">
        <ele>64.398438</ele>
        <time>2014-09-03T11:38:13.000Z</time>
      </trkpt>
      <trkpt lat="47.39297" lon="-0.39872">
        <ele>64.199219</ele>
        <time>2014-09-03T11:38:15.000Z</time>
      </trkpt>
      <trkpt lat="47.39485" lon="-0.40425">
        <ele>60.097656</ele>
        <time>2014-09-03T11:39:19.000Z</time>
      </trkpt>
      <trkpt lat="47.3949" lon="-0.40445">
        <ele>59.898438</ele>
        <time>2014-09-03T11:39:21.000Z</time>
      </trkpt>
      <trkpt lat="47.39495" lon="-0.40466">
        <ele>59.699219</ele>
        <time>2014-09-03T11:39:23.000Z</time>
      </trkpt>
      <trkpt lat="47.39497" lon="-0.40487">
        <ele>59.597656</ele>
        <time>2014-09-03T11:39:25.000Z</time>
      </trkpt>
      <trkpt lat="47.39499" lon="-0.40509">
        <ele>59.5</ele>
        <time>2014-09-03T11:39:27.000Z</time>
      </trkpt>
      <trkpt lat="47.39499" lon="-0.40572">
        <ele>59.5</ele>
        <time>2014-09-03T11:39:33.000Z</time>
      </trkpt>
      <trkpt lat="47.39499" lon="-0.40881">
        <ele>60.898438</ele>
        <time>2014-09-03T11:40:11.000Z</time>
      </trkpt>
      <trkpt lat="47.39502" lon="-0.40895">
        <ele>60.699219</ele>
        <time>2014-09-03T11:40:13.000Z</time>
      </trkpt>
      <trkpt lat="47.39509" lon="-0.40905">
        <ele>60.597656</ele>
        <time>2014-09-03T11:40:15.000Z</time>
      </trkpt>
      <trkpt lat="47.39519" lon="-0.40909">
        <ele>60.5</ele>
        <time>2014-09-03T11:40:17.000Z</time>
      </trkpt>
      <trkpt lat="47.39529" lon="-0.40909">
        <ele>60.296875</ele>
        <time>2014-09-03T11:40:19.000Z</time>
      </trkpt>
      <trkpt lat="47.39562" lon="-0.40905">
        <ele>60.097656</ele>
        <time>2014-09-03T11:40:25.000Z</time>
      </trkpt>
      <trkpt lat="47.39623" lon="-0.40897">
        <ele>59.699219</ele>
        <time>2014-09-03T11:40:37.000Z</time>
      </trkpt>
      <trkpt lat="47.39633" lon="-0.409">
        <ele>59</ele>
        <time>2014-09-03T11:40:39.000Z</time>
      </trkpt>
      <trkpt lat="47.39644" lon="-0.40906">
        <ele>57.699219</ele>
        <time>2014-09-03T11:40:41.000Z</time>
      </trkpt>
      <trkpt lat="47.39653" lon="-0.40918">
        <ele>56.796875</ele>
        <time>2014-09-03T11:40:43.000Z</time>
      </trkpt>
      <trkpt lat="47.39658" lon="-0.40936">
        <ele>55.796875</ele>
        <time>2014-09-03T11:40:45.000Z</time>
      </trkpt>
      <trkpt lat="47.39663" lon="-0.40957">
        <ele>54.398438</ele>
        <time>2014-09-03T11:40:47.000Z</time>
      </trkpt>
      <trkpt lat="47.39673" lon="-0.40975">
        <ele>53.398438</ele>
        <time>2014-09-03T11:40:49.000Z</time>
      </trkpt>
      <trkpt lat="47.39688" lon="-0.40983">
        <ele>52.398438</ele>
        <time>2014-09-03T11:40:51.000Z</time>
      </trkpt>
      <trkpt lat="47.39703" lon="-0.40981">
        <ele>51.199219</ele>
        <time>2014-09-03T11:40:53.000Z</time>
      </trkpt>
      <trkpt lat="47.39717" lon="-0.40973">
        <ele>49.898438</ele>
        <time>2014-09-03T11:40:55.000Z</time>
      </trkpt>
      <trkpt lat="47.39728" lon="-0.40959">
        <ele>48.796875</ele>
        <time>2014-09-03T11:40:57.000Z</time>
      </trkpt>
      <trkpt lat="47.39737" lon="-0.40947">
        <ele>48</ele>
        <time>2014-09-03T11:40:59.000Z</time>
      </trkpt>
      <trkpt lat="47.39745" lon="-0.4094">
        <ele>46.296875</ele>
        <time>2014-09-03T11:41:01.000Z</time>
      </trkpt>
      <trkpt lat="47.39755" lon="-0.40943">
        <ele>45.398438</ele>
        <time>2014-09-03T11:41:03.000Z</time>
      </trkpt>
      <trkpt lat="47.39764" lon="-0.40955">
        <ele>44.699219</ele>
        <time>2014-09-03T11:41:05.000Z</time>
      </trkpt>
      <trkpt lat="47.39768" lon="-0.40972">
        <ele>44.398438</ele>
        <time>2014-09-03T11:41:07.000Z</time>
      </trkpt>
      <trkpt lat="47.39771" lon="-0.40989">
        <ele>44.296875</ele>
        <time>2014-09-03T11:41:09.000Z</time>
      </trkpt>
      <trkpt lat="47.39772" lon="-0.41006">
        <ele>43.898438</ele>
        <time>2014-09-03T11:41:11.000Z</time>
      </trkpt>
      <trkpt lat="47.39771" lon="-0.41038">
        <ele>42.699219</ele>
        <time>2014-09-03T11:41:15.000Z</time>
      </trkpt>
      <trkpt lat="47.39771" lon="-0.4109">
        <ele>39.796875</ele>
        <time>2014-09-03T11:41:21.000Z</time>
      </trkpt>
      <trkpt lat="47.39769" lon="-0.4111">
        <ele>38.898438</ele>
        <time>2014-09-03T11:41:23.000Z</time>
      </trkpt>
      <trkpt lat="47.39767" lon="-0.41129">
        <ele>38.097656</ele>
        <time>2014-09-03T11:41:25.000Z</time>
      </trkpt>
      <trkpt lat="47.39764" lon="-0.41146">
        <ele>37.097656</ele>
        <time>2014-09-03T11:41:27.000Z</time>
      </trkpt>
      <trkpt lat="47.39758" lon="-0.41175">
        <ele>34</ele>
        <time>2014-09-03T11:41:31.000Z</time>
      </trkpt>
      <trkpt lat="47.39761" lon="-0.41193">
        <ele>32.699219</ele>
        <time>2014-09-03T11:41:34.000Z</time>
      </trkpt>
      <trkpt lat="47.39771" lon="-0.41203">
        <ele>31.5</ele>
        <time>2014-09-03T11:41:36.000Z</time>
      </trkpt>
      <trkpt lat="47.39783" lon="-0.41214">
        <ele>30.199219</ele>
        <time>2014-09-03T11:41:38.000Z</time>
      </trkpt>
      <trkpt lat="47.39795" lon="-0.41223">
        <ele>29.296875</ele>
        <time>2014-09-03T11:41:40.000Z</time>
      </trkpt>
      <trkpt lat="47.39826" lon="-0.41245">
        <ele>27.199219</ele>
        <time>2014-09-03T11:41:47.000Z</time>
      </trkpt>
      <trkpt lat="47.39832" lon="-0.41257">
        <ele>26.898438</ele>
        <time>2014-09-03T11:41:50.000Z</time>
      </trkpt>
      <trkpt lat="47.39832" lon="-0.41276">
        <ele>26.796875</ele>
        <time>2014-09-03T11:41:53.000Z</time>
      </trkpt>
      <trkpt lat="47.39838" lon="-0.41421">
        <ele>26.597656</ele>
        <time>2014-09-03T11:42:16.000Z</time>
      </trkpt>
      <trkpt lat="47.39838" lon="-0.41472">
        <ele>26.097656</ele>
        <time>2014-09-03T11:42:24.000Z</time>
      </trkpt>
      <trkpt lat="47.3984" lon="-0.415">
        <ele>23.398438</ele>
        <time>2014-09-03T11:42:28.000Z</time>
      </trkpt>
      <trkpt lat="47.39844" lon="-0.41566">
        <ele>19.398438</ele>
        <time>2014-09-03T11:42:36.000Z</time>
      </trkpt>
      <trkpt lat="47.39847" lon="-0.41581">
        <ele>19</ele>
        <time>2014-09-03T11:42:38.000Z</time>
      </trkpt>
      <trkpt lat="47.3985" lon="-0.41597">
        <ele>18.597656</ele>
        <time>2014-09-03T11:42:40.000Z</time>
      </trkpt>
      <trkpt lat="47.39854" lon="-0.41611">
        <ele>18.5</ele>
        <time>2014-09-03T11:42:42.000Z</time>
      </trkpt>
      <trkpt lat="47.39862" lon="-0.41625">
        <ele>18.398438</ele>
        <time>2014-09-03T11:42:45.000Z</time>
      </trkpt>
      <trkpt lat="47.39871" lon="-0.41635">
        <ele>19</ele>
        <time>2014-09-03T11:42:48.000Z</time>
      </trkpt>
      <trkpt lat="47.39873" lon="-0.41653">
        <ele>18.796875</ele>
        <time>2014-09-03T11:42:51.000Z</time>
      </trkpt>
      <trkpt lat="47.39873" lon="-0.41671">
        <ele>18</ele>
        <time>2014-09-03T11:42:54.000Z</time>
      </trkpt>
      <trkpt lat="47.39873" lon="-0.41687">
        <ele>18.796875</ele>
        <time>2014-09-03T11:42:57.000Z</time>
      </trkpt>
      <trkpt lat="47.39875" lon="-0.41704">
        <ele>19.296875</ele>
        <time>2014-09-03T11:43:00.000Z</time>
      </trkpt>
      <trkpt lat="47.39878" lon="-0.4172">
        <ele>19.597656</ele>
        <time>2014-09-03T11:43:03.000Z</time>
      </trkpt>
      <trkpt lat="47.39886" lon="-0.41748">
        <ele>20.398438</ele>
        <time>2014-09-03T11:43:09.000Z</time>
      </trkpt>
      <trkpt lat="47.39896" lon="-0.41755">
        <ele>22.699219</ele>
        <time>2014-09-03T11:43:13.000Z</time>
      </trkpt>
      <trkpt lat="47.39907" lon="-0.41756">
        <ele>24.5</ele>
        <time>2014-09-03T11:43:17.000Z</time>
      </trkpt>
      <trkpt lat="47.39916" lon="-0.41755">
        <ele>41.398438</ele>
        <time>2014-09-03T11:43:21.000Z</time>
      </trkpt>
      <trkpt lat="47.39928" lon="-0.41747">
        <ele>40</ele>
        <time>2014-09-03T11:50:14.000Z</time>
      </trkpt>
      <trkpt lat="47.39936" lon="-0.41755">
        <ele>39.097656</ele>
        <time>2014-09-03T11:50:28.000Z</time>
      </trkpt>
      <trkpt lat="47.39946" lon="-0.41761">
        <ele>35.699219</ele>
        <time>2014-09-03T11:50:34.000Z</time>
      </trkpt>
      <trkpt lat="47.39952" lon="-0.41772">
        <ele>34.699219</ele>
        <time>2014-09-03T11:50:38.000Z</time>
      </trkpt>
      <trkpt lat="47.39952" lon="-0.41786">
        <ele>35.097656</ele>
        <time>2014-09-03T11:50:42.000Z</time>
      </trkpt>
      <trkpt lat="47.3995" lon="-0.41802">
        <ele>35.398438</ele>
        <time>2014-09-03T11:50:46.000Z</time>
      </trkpt>
      <trkpt lat="47.39945" lon="-0.41817">
        <ele>35.296875</ele>
        <time>2014-09-03T11:50:50.000Z</time>
      </trkpt>
      <trkpt lat="47.39939" lon="-0.41832">
        <ele>35.898438</ele>
        <time>2014-09-03T11:50:54.000Z</time>
      </trkpt>
      <trkpt lat="47.39933" lon="-0.41844">
        <ele>36.296875</ele>
        <time>2014-09-03T11:50:57.000Z</time>
      </trkpt>
      <trkpt lat="47.39927" lon="-0.41854">
        <ele>34.898438</ele>
        <time>2014-09-03T11:51:00.000Z</time>
      </trkpt>
      <trkpt lat="47.39905" lon="-0.41889">
        <ele>33.5</ele>
        <time>2014-09-03T11:51:11.000Z</time>
      </trkpt>
      <trkpt lat="47.399" lon="-0.419">
        <ele>34.5</ele>
        <time>2014-09-03T11:51:14.000Z</time>
      </trkpt>
      <trkpt lat="47.39896" lon="-0.41912">
        <ele>37.597656</ele>
        <time>2014-09-03T11:51:17.000Z</time>
      </trkpt>
      <trkpt lat="47.39892" lon="-0.41927">
        <ele>37.597656</ele>
        <time>2014-09-03T11:51:20.000Z</time>
      </trkpt>
      <trkpt lat="47.39888" lon="-0.41943">
        <ele>36.796875</ele>
        <time>2014-09-03T11:51:24.000Z</time>
      </trkpt>
      <trkpt lat="47.39886" lon="-0.41961">
        <ele>38.097656</ele>
        <time>2014-09-03T11:51:28.000Z</time>
      </trkpt>
      <trkpt lat="47.39877" lon="-0.42038">
        <ele>39.398438</ele>
        <time>2014-09-03T11:51:43.000Z</time>
      </trkpt>
      <trkpt lat="47.39874" lon="-0.42053">
        <ele>40.199219</ele>
        <time>2014-09-03T11:51:46.000Z</time>
      </trkpt>
      <trkpt lat="47.39868" lon="-0.42065">
        <ele>41</ele>
        <time>2014-09-03T11:51:49.000Z</time>
      </trkpt>
      <trkpt lat="47.39861" lon="-0.42072">
        <ele>41.5</ele>
        <time>2014-09-03T11:51:52.000Z</time>
      </trkpt>
      <trkpt lat="47.39852" lon="-0.42076">
        <ele>42.199219</ele>
        <time>2014-09-03T11:51:55.000Z</time>
      </trkpt>
      <trkpt lat="47.39844" lon="-0.42079">
        <ele>42.898438</ele>
        <time>2014-09-03T11:51:58.000Z</time>
      </trkpt>
      <trkpt lat="47.39697" lon="-0.42107">
        <ele>52.097656</ele>
        <time>2014-09-03T11:52:46.000Z</time>
      </trkpt>
      <trkpt lat="47.39687" lon="-0.42111">
        <ele>52.699219</ele>
        <time>2014-09-03T11:52:49.000Z</time>
      </trkpt>
      <trkpt lat="47.3966" lon="-0.42123">
        <ele>54.199219</ele>
        <time>2014-09-03T11:52:58.000Z</time>
      </trkpt>
      <trkpt lat="47.39651" lon="-0.42128">
        <ele>54.5</ele>
        <time>2014-09-03T11:53:01.000Z</time>
      </trkpt>
      <trkpt lat="47.39622" lon="-0.42149">
        <ele>55.398438</ele>
        <time>2014-09-03T11:53:10.000Z</time>
      </trkpt>
      <trkpt lat="47.39597" lon="-0.42171">
        <ele>55.898438</ele>
        <time>2014-09-03T11:53:19.000Z</time>
      </trkpt>
      <trkpt lat="47.39581" lon="-0.4219">
        <ele>56.199219</ele>
        <time>2014-09-03T11:53:26.000Z</time>
      </trkpt>
      <trkpt lat="47.3955" lon="-0.4223">
        <ele>58.097656</ele>
        <time>2014-09-03T11:53:39.000Z</time>
      </trkpt>
      <trkpt lat="47.39542" lon="-0.42236">
        <ele>58.398438</ele>
        <time>2014-09-03T11:53:42.000Z</time>
      </trkpt>
      <trkpt lat="47.39533" lon="-0.42238">
        <ele>59.097656</ele>
        <time>2014-09-03T11:53:45.000Z</time>
      </trkpt>
      <trkpt lat="47.39521" lon="-0.42239">
        <ele>59.398438</ele>
        <time>2014-09-03T11:53:49.000Z</time>
      </trkpt>
      <trkpt lat="47.39512" lon="-0.42238">
        <ele>59.398438</ele>
        <time>2014-09-03T11:53:52.000Z</time>
      </trkpt>
      <trkpt lat="47.39469" lon="-0.42232">
        <ele>58.296875</ele>
        <time>2014-09-03T11:54:04.000Z</time>
      </trkpt>
      <trkpt lat="47.39458" lon="-0.42231">
        <ele>58.097656</ele>
        <time>2014-09-03T11:54:07.000Z</time>
      </trkpt>
      <trkpt lat="47.39346" lon="-0.42233">
        <ele>62</ele>
        <time>2014-09-03T11:54:37.000Z</time>
      </trkpt>
      <trkpt lat="47.39326" lon="-0.42237">
        <ele>63.199219</ele>
        <time>2014-09-03T11:54:43.000Z</time>
      </trkpt>
      <trkpt lat="47.39316" lon="-0.42241">
        <ele>63.898438</ele>
        <time>2014-09-03T11:54:46.000Z</time>
      </trkpt>
      <trkpt lat="47.39146" lon="-0.42306">
        <ele>74</ele>
        <time>2014-09-03T11:55:40.000Z</time>
      </trkpt>
      <trkpt lat="47.39129" lon="-0.42316">
        <ele>75.097656</ele>
        <time>2014-09-03T11:55:46.000Z</time>
      </trkpt>
      <trkpt lat="47.3912" lon="-0.42323">
        <ele>75.597656</ele>
        <time>2014-09-03T11:55:49.000Z</time>
      </trkpt>
      <trkpt lat="47.39112" lon="-0.4233">
        <ele>76.199219</ele>
        <time>2014-09-03T11:55:52.000Z</time>
      </trkpt>
      <trkpt lat="47.39104" lon="-0.42338">
        <ele>76.699219</ele>
        <time>2014-09-03T11:55:55.000Z</time>
      </trkpt>
      <trkpt lat="47.39097" lon="-0.42347">
        <ele>77.296875</ele>
        <time>2014-09-03T11:55:58.000Z</time>
      </trkpt>
      <trkpt lat="47.39055" lon="-0.42408">
        <ele>80.199219</ele>
        <time>2014-09-03T11:56:16.000Z</time>
      </trkpt>
      <trkpt lat="47.39038" lon="-0.42427">
        <ele>80.097656</ele>
        <time>2014-09-03T11:56:22.000Z</time>
      </trkpt>
      <trkpt lat="47.39029" lon="-0.42436">
        <ele>80</ele>
        <time>2014-09-03T11:56:25.000Z</time>
      </trkpt>
      <trkpt lat="47.3901" lon="-0.42453">
        <ele>79.898438</ele>
        <time>2014-09-03T11:56:31.000Z</time>
      </trkpt>
      <trkpt lat="47.39001" lon="-0.4246">
        <ele>79.898438</ele>
        <time>2014-09-03T11:56:34.000Z</time>
      </trkpt>
      <trkpt lat="47.38971" lon="-0.42481">
        <ele>80</ele>
        <time>2014-09-03T11:56:43.000Z</time>
      </trkpt>
      <trkpt lat="47.38963" lon="-0.42491">
        <ele>82</ele>
        <time>2014-09-03T11:56:47.000Z</time>
      </trkpt>
      <trkpt lat="47.38956" lon="-0.42502">
        <ele>82.199219</ele>
        <time>2014-09-03T11:57:09.000Z</time>
      </trkpt>
      <trkpt lat="47.38948" lon="-0.4251">
        <ele>82.296875</ele>
        <time>2014-09-03T11:57:12.000Z</time>
      </trkpt>
      <trkpt lat="47.38937" lon="-0.42517">
        <ele>82.097656</ele>
        <time>2014-09-03T11:57:16.000Z</time>
      </trkpt>
      <trkpt lat="47.38916" lon="-0.42528">
        <ele>81.398438</ele>
        <time>2014-09-03T11:57:22.000Z</time>
      </trkpt>
      <trkpt lat="47.38905" lon="-0.42534">
        <ele>80.796875</ele>
        <time>2014-09-03T11:57:25.000Z</time>
      </trkpt>
      <trkpt lat="47.38892" lon="-0.42538">
        <ele>80.398438</ele>
        <time>2014-09-03T11:57:28.000Z</time>
      </trkpt>
      <trkpt lat="47.38872" lon="-0.42544">
        <ele>79.5</ele>
        <time>2014-09-03T11:57:32.000Z</time>
      </trkpt>
      <trkpt lat="47.38861" lon="-0.42546">
        <ele>79</ele>
        <time>2014-09-03T11:57:34.000Z</time>
      </trkpt>
      <trkpt lat="47.38838" lon="-0.42548">
        <ele>77.796875</ele>
        <time>2014-09-03T11:57:38.000Z</time>
      </trkpt>
      <trkpt lat="47.3872" lon="-0.4256">
        <ele>69.597656</ele>
        <time>2014-09-03T11:57:56.000Z</time>
      </trkpt>
      <trkpt lat="47.38691" lon="-0.42569">
        <ele>67.199219</ele>
        <time>2014-09-03T11:58:00.000Z</time>
      </trkpt>
      <trkpt lat="47.3866" lon="-0.42581">
        <ele>63.796875</ele>
        <time>2014-09-03T11:58:04.000Z</time>
      </trkpt>
      <trkpt lat="47.38646" lon="-0.42589">
        <ele>61.5</ele>
        <time>2014-09-03T11:58:06.000Z</time>
      </trkpt>
      <trkpt lat="47.38632" lon="-0.42598">
        <ele>60.097656</ele>
        <time>2014-09-03T11:58:08.000Z</time>
      </trkpt>
      <trkpt lat="47.38589" lon="-0.42632">
        <ele>57.296875</ele>
        <time>2014-09-03T11:58:14.000Z</time>
      </trkpt>
      <trkpt lat="47.38511" lon="-0.42693">
        <ele>51.5</ele>
        <time>2014-09-03T11:58:24.000Z</time>
      </trkpt>
      <trkpt lat="47.38495" lon="-0.42701">
        <ele>50.699219</ele>
        <time>2014-09-03T11:58:26.000Z</time>
      </trkpt>
      <trkpt lat="47.3848" lon="-0.42706">
        <ele>50.699219</ele>
        <time>2014-09-03T11:58:28.000Z</time>
      </trkpt>
      <trkpt lat="47.38433" lon="-0.42717">
        <ele>52.5</ele>
        <time>2014-09-03T11:58:34.000Z</time>
      </trkpt>
      <trkpt lat="47.38364" lon="-0.42727">
        <ele>54.898438</ele>
        <time>2014-09-03T11:58:44.000Z</time>
      </trkpt>
      <trkpt lat="47.38272" lon="-0.42739">
        <ele>55.398438</ele>
        <time>2014-09-03T11:58:58.000Z</time>
      </trkpt>
      <trkpt lat="47.38229" lon="-0.42753">
        <ele>54.597656</ele>
        <time>2014-09-03T11:59:04.000Z</time>
      </trkpt>
      <trkpt lat="47.38071" lon="-0.42824">
        <ele>50.898438</ele>
        <time>2014-09-03T11:59:22.000Z</time>
      </trkpt>
      <trkpt lat="47.37658" lon="-0.43027">
        <ele>43.5</ele>
        <time>2014-09-03T12:00:08.000Z</time>
      </trkpt>
      <trkpt lat="47.37574" lon="-0.43054">
        <ele>40.699219</ele>
        <time>2014-09-03T12:00:20.000Z</time>
      </trkpt>
      <trkpt lat="47.37563" lon="-0.4306">
        <ele>39.796875</ele>
        <time>2014-09-03T12:00:22.000Z</time>
      </trkpt>
      <trkpt lat="47.37553" lon="-0.43065">
        <ele>38.699219</ele>
        <time>2014-09-03T12:00:24.000Z</time>
      </trkpt>
      <trkpt lat="47.37526" lon="-0.43084">
        <ele>35.796875</ele>
        <time>2014-09-03T12:00:30.000Z</time>
      </trkpt>
      <trkpt lat="47.37398" lon="-0.4318">
        <ele>38.398438</ele>
        <time>2014-09-03T12:01:04.000Z</time>
      </trkpt>
      <trkpt lat="47.37306" lon="-0.43263">
        <ele>35.398438</ele>
        <time>2014-09-03T12:01:31.000Z</time>
      </trkpt>
      <trkpt lat="47.37298" lon="-0.43272">
        <ele>34.5</ele>
        <time>2014-09-03T12:01:34.000Z</time>
      </trkpt>
      <trkpt lat="47.37275" lon="-0.43299">
        <ele>30.398438</ele>
        <time>2014-09-03T12:01:43.000Z</time>
      </trkpt>
      <trkpt lat="47.37266" lon="-0.43307">
        <ele>29.796875</ele>
        <time>2014-09-03T12:01:46.000Z</time>
      </trkpt>
      <trkpt lat="47.37258" lon="-0.43317">
        <ele>30.097656</ele>
        <time>2014-09-03T12:01:49.000Z</time>
      </trkpt>
      <trkpt lat="47.3725" lon="-0.43331">
        <ele>30.898438</ele>
        <time>2014-09-03T12:01:52.000Z</time>
      </trkpt>
      <trkpt lat="47.37246" lon="-0.43348">
        <ele>32.097656</ele>
        <time>2014-09-03T12:01:55.000Z</time>
      </trkpt>
      <trkpt lat="47.37244" lon="-0.43365">
        <ele>33.199219</ele>
        <time>2014-09-03T12:01:58.000Z</time>
      </trkpt>
      <trkpt lat="47.37242" lon="-0.43384">
        <ele>34.296875</ele>
        <time>2014-09-03T12:02:01.000Z</time>
      </trkpt>
      <trkpt lat="47.37238" lon="-0.43458">
        <ele>39.199219</ele>
        <time>2014-09-03T12:02:13.000Z</time>
      </trkpt>
      <trkpt lat="47.37239" lon="-0.43476">
        <ele>40.199219</ele>
        <time>2014-09-03T12:02:16.000Z</time>
      </trkpt>
      <trkpt lat="47.37237" lon="-0.43493">
        <ele>41</ele>
        <time>2014-09-03T12:02:19.000Z</time>
      </trkpt>
      <trkpt lat="47.37229" lon="-0.43504">
        <ele>41.597656</ele>
        <time>2014-09-03T12:02:22.000Z</time>
      </trkpt>
      <trkpt lat="47.37218" lon="-0.43508">
        <ele>42.296875</ele>
        <time>2014-09-03T12:02:25.000Z</time>
      </trkpt>
      <trkpt lat="47.37184" lon="-0.43517">
        <ele>43.796875</ele>
        <time>2014-09-03T12:02:34.000Z</time>
      </trkpt>
      <trkpt lat="47.37081" lon="-0.43544">
        <ele>45.699219</ele>
        <time>2014-09-03T12:03:01.000Z</time>
      </trkpt>
      <trkpt lat="47.3707" lon="-0.4355">
        <ele>45.898438</ele>
        <time>2014-09-03T12:03:04.000Z</time>
      </trkpt>
      <trkpt lat="47.37059" lon="-0.43559">
        <ele>46</ele>
        <time>2014-09-03T12:03:07.000Z</time>
      </trkpt>
      <trkpt lat="47.3696" lon="-0.4364">
        <ele>46.296875</ele>
        <time>2014-09-03T12:03:34.000Z</time>
      </trkpt>
      <trkpt lat="47.36948" lon="-0.43647">
        <ele>46.199219</ele>
        <time>2014-09-03T12:03:37.000Z</time>
      </trkpt>
      <trkpt lat="47.36936" lon="-0.43651">
        <ele>46</ele>
        <time>2014-09-03T12:03:40.000Z</time>
      </trkpt>
      <trkpt lat="47.36923" lon="-0.43654">
        <ele>45.597656</ele>
        <time>2014-09-03T12:03:43.000Z</time>
      </trkpt>
      <trkpt lat="47.36863" lon="-0.43661">
        <ele>45.199219</ele>
        <time>2014-09-03T12:03:56.000Z</time>
      </trkpt>
      <trkpt lat="47.36854" lon="-0.43664">
        <ele>45.199219</ele>
        <time>2014-09-03T12:03:58.000Z</time>
      </trkpt>
      <trkpt lat="47.36845" lon="-0.43669">
        <ele>45.296875</ele>
        <time>2014-09-03T12:04:00.000Z</time>
      </trkpt>
      <trkpt lat="47.36836" lon="-0.43674">
        <ele>45.296875</ele>
        <time>2014-09-03T12:04:02.000Z</time>
      </trkpt>
      <trkpt lat="47.36674" lon="-0.43783">
        <ele>44.597656</ele>
        <time>2014-09-03T12:04:40.000Z</time>
      </trkpt>
      <trkpt lat="47.36673" lon="-0.43798">
        <ele>44.597656</ele>
        <time>2014-09-03T12:04:45.000Z</time>
      </trkpt>
      <trkpt lat="47.36683" lon="-0.43802">
        <ele>44.597656</ele>
        <time>2014-09-03T12:04:49.000Z</time>
      </trkpt>
      <trkpt lat="47.36744" lon="-0.4383">
        <ele>45</ele>
        <time>2014-09-03T12:05:07.000Z</time>
      </trkpt>
      <trkpt lat="47.36788" lon="-0.43854">
        <ele>44.5</ele>
        <time>2014-09-03T12:05:19.000Z</time>
      </trkpt>
      <trkpt lat="47.3682" lon="-0.43877">
        <ele>44</ele>
        <time>2014-09-03T12:05:28.000Z</time>
      </trkpt>
      <trkpt lat="47.36871" lon="-0.43922">
        <ele>41.097656</ele>
        <time>2014-09-03T12:05:43.000Z</time>
      </trkpt>
      <trkpt lat="47.36901" lon="-0.43951">
        <ele>38.699219</ele>
        <time>2014-09-03T12:05:52.000Z</time>
      </trkpt>
      <trkpt lat="47.3691" lon="-0.43962">
        <ele>38.597656</ele>
        <time>2014-09-03T12:05:55.000Z</time>
      </trkpt>
      <trkpt lat="47.36927" lon="-0.43985">
        <ele>38.699219</ele>
        <time>2014-09-03T12:06:01.000Z</time>
      </trkpt>
      <trkpt lat="47.36935" lon="-0.43997">
        <ele>39.296875</ele>
        <time>2014-09-03T12:06:04.000Z</time>
      </trkpt>
      <trkpt lat="47.36963" lon="-0.44047">
        <ele>37.597656</ele>
        <time>2014-09-03T12:06:16.000Z</time>
      </trkpt>
      <trkpt lat="47.36988" lon="-0.44097">
        <ele>40.097656</ele>
        <time>2014-09-03T12:06:28.000Z</time>
      </trkpt>
      <trkpt lat="47.36995" lon="-0.44108">
        <ele>40.199219</ele>
        <time>2014-09-03T12:06:32.000Z</time>
      </trkpt>
      <trkpt lat="47.36999" lon="-0.4412">
        <ele>40.796875</ele>
        <time>2014-09-03T12:06:35.000Z</time>
      </trkpt>
      <trkpt lat="47.37011" lon="-0.44148">
        <ele>41.796875</ele>
        <time>2014-09-03T12:06:41.000Z</time>
      </trkpt>
      <trkpt lat="47.37085" lon="-0.44335">
        <ele>45.296875</ele>
        <time>2014-09-03T12:07:23.000Z</time>
      </trkpt>
      <trkpt lat="47.3709" lon="-0.4435">
        <ele>45.597656</ele>
        <time>2014-09-03T12:07:26.000Z</time>
      </trkpt>
      <trkpt lat="47.37094" lon="-0.44364">
        <ele>46.199219</ele>
        <time>2014-09-03T12:07:29.000Z</time>
      </trkpt>
      <trkpt lat="47.37107" lon="-0.44424">
        <ele>48.597656</ele>
        <time>2014-09-03T12:07:41.000Z</time>
      </trkpt>
      <trkpt lat="47.37109" lon="-0.4444">
        <ele>49.199219</ele>
        <time>2014-09-03T12:07:44.000Z</time>
      </trkpt>
      <trkpt lat="47.37117" lon="-0.44501">
        <ele>51.199219</ele>
        <time>2014-09-03T12:07:56.000Z</time>
      </trkpt>
      <trkpt lat="47.37119" lon="-0.44532">
        <ele>52.097656</ele>
        <time>2014-09-03T12:08:02.000Z</time>
      </trkpt>
      <trkpt lat="47.3712" lon="-0.44598">
        <ele>53.296875</ele>
        <time>2014-09-03T12:08:14.000Z</time>
      </trkpt>
      <trkpt lat="47.37119" lon="-0.44647">
        <ele>54.296875</ele>
        <time>2014-09-03T12:08:23.000Z</time>
      </trkpt>
      <trkpt lat="47.37115" lon="-0.44696">
        <ele>55.199219</ele>
        <time>2014-09-03T12:08:32.000Z</time>
      </trkpt>
      <trkpt lat="47.37057" lon="-0.45158">
        <ele>62.097656</ele>
        <time>2014-09-03T12:10:02.000Z</time>
      </trkpt>
      <trkpt lat="47.37056" lon="-0.45207">
        <ele>62.796875</ele>
        <time>2014-09-03T12:10:11.000Z</time>
      </trkpt>
      <trkpt lat="47.37056" lon="-0.45223">
        <ele>63</ele>
        <time>2014-09-03T12:10:14.000Z</time>
      </trkpt>
      <trkpt lat="47.37062" lon="-0.45304">
        <ele>64.5</ele>
        <time>2014-09-03T12:10:29.000Z</time>
      </trkpt>
      <trkpt lat="47.37066" lon="-0.45335">
        <ele>65.097656</ele>
        <time>2014-09-03T12:10:35.000Z</time>
      </trkpt>
      <trkpt lat="47.37073" lon="-0.45379">
        <ele>65.597656</ele>
        <time>2014-09-03T12:10:44.000Z</time>
      </trkpt>
      <trkpt lat="47.37077" lon="-0.45395">
        <ele>65.597656</ele>
        <time>2014-09-03T12:10:47.000Z</time>
      </trkpt>
      <trkpt lat="47.37079" lon="-0.4541">
        <ele>65.699219</ele>
        <time>2014-09-03T12:10:50.000Z</time>
      </trkpt>
      <trkpt lat="47.37082" lon="-0.45425">
        <ele>65.699219</ele>
        <time>2014-09-03T12:10:53.000Z</time>
      </trkpt>
      <trkpt lat="47.37095" lon="-0.45469">
        <ele>65.796875</ele>
        <time>2014-09-03T12:11:02.000Z</time>
      </trkpt>
      <trkpt lat="47.37109" lon="-0.45512">
        <ele>65.796875</ele>
        <time>2014-09-03T12:11:11.000Z</time>
      </trkpt>
      <trkpt lat="47.37126" lon="-0.45554">
        <ele>65.699219</ele>
        <time>2014-09-03T12:11:20.000Z</time>
      </trkpt>
      <trkpt lat="47.37153" lon="-0.45608">
        <ele>65.398438</ele>
        <time>2014-09-03T12:11:32.000Z</time>
      </trkpt>
      <trkpt lat="47.37191" lon="-0.45673">
        <ele>63.898438</ele>
        <time>2014-09-03T12:11:47.000Z</time>
      </trkpt>
      <trkpt lat="47.37201" lon="-0.45683">
        <ele>63.296875</ele>
        <time>2014-09-03T12:11:50.000Z</time>
      </trkpt>
      <trkpt lat="47.37211" lon="-0.45695">
        <ele>63.097656</ele>
        <time>2014-09-03T12:11:53.000Z</time>
      </trkpt>
      <trkpt lat="47.37238" lon="-0.45728">
        <ele>62</ele>
        <time>2014-09-03T12:12:02.000Z</time>
      </trkpt>
      <trkpt lat="47.37262" lon="-0.45752">
        <ele>60.898438</ele>
        <time>2014-09-03T12:12:11.000Z</time>
      </trkpt>
      <trkpt lat="47.37302" lon="-0.45784">
        <ele>58.398438</ele>
        <time>2014-09-03T12:12:22.000Z</time>
      </trkpt>
      <trkpt lat="47.3769" lon="-0.46113">
        <ele>39.699219</ele>
        <time>2014-09-03T12:14:09.000Z</time>
      </trkpt>
      <trkpt lat="47.37705" lon="-0.46129">
        <ele>40.199219</ele>
        <time>2014-09-03T12:14:13.000Z</time>
      </trkpt>
      <trkpt lat="47.37734" lon="-0.46164">
        <ele>41</ele>
        <time>2014-09-03T12:14:22.000Z</time>
      </trkpt>
      <trkpt lat="47.37793" lon="-0.46242">
        <ele>55.898438</ele>
        <time>2014-09-03T12:14:44.000Z</time>
      </trkpt>
      <trkpt lat="47.37795" lon="-0.46257">
        <ele>55.699219</ele>
        <time>2014-09-03T12:18:07.000Z</time>
      </trkpt>
      <trkpt lat="47.37784" lon="-0.46266">
        <ele>55.597656</ele>
        <time>2014-09-03T12:18:11.000Z</time>
      </trkpt>
      <trkpt lat="47.37772" lon="-0.4627">
        <ele>55.5</ele>
        <time>2014-09-03T12:18:14.000Z</time>
      </trkpt>
      <trkpt lat="47.37408" lon="-0.4639">
        <ele>57.699219</ele>
        <time>2014-09-03T12:19:20.000Z</time>
      </trkpt>
      <trkpt lat="47.37397" lon="-0.46395">
        <ele>57.5</ele>
        <time>2014-09-03T12:19:22.000Z</time>
      </trkpt>
      <trkpt lat="47.37388" lon="-0.46406">
        <ele>57.398438</ele>
        <time>2014-09-03T12:19:24.000Z</time>
      </trkpt>
      <trkpt lat="47.37369" lon="-0.46427">
        <ele>57</ele>
        <time>2014-09-03T12:19:28.000Z</time>
      </trkpt>
      <trkpt lat="47.37361" lon="-0.4644">
        <ele>56.796875</ele>
        <time>2014-09-03T12:19:30.000Z</time>
      </trkpt>
      <trkpt lat="47.37351" lon="-0.46452">
        <ele>56.898438</ele>
        <time>2014-09-03T12:19:32.000Z</time>
      </trkpt>
      <trkpt lat="47.3734" lon="-0.46459">
        <ele>57</ele>
        <time>2014-09-03T12:19:34.000Z</time>
      </trkpt>
      <trkpt lat="47.37328" lon="-0.46465">
        <ele>58.5</ele>
        <time>2014-09-03T12:19:36.000Z</time>
      </trkpt>
      <trkpt lat="47.37317" lon="-0.46474">
        <ele>58.796875</ele>
        <time>2014-09-03T12:19:38.000Z</time>
      </trkpt>
      <trkpt lat="47.37305" lon="-0.4648">
        <ele>58.199219</ele>
        <time>2014-09-03T12:19:40.000Z</time>
      </trkpt>
      <trkpt lat="47.37294" lon="-0.46485">
        <ele>57.898438</ele>
        <time>2014-09-03T12:19:42.000Z</time>
      </trkpt>
      <trkpt lat="47.37286" lon="-0.46492">
        <ele>57.699219</ele>
        <time>2014-09-03T12:19:44.000Z</time>
      </trkpt>
      <trkpt lat="47.37279" lon="-0.46509">
        <ele>57.597656</ele>
        <time>2014-09-03T12:19:47.000Z</time>
      </trkpt>
      <trkpt lat="47.37268" lon="-0.46516">
        <ele>57.699219</ele>
        <time>2014-09-03T12:19:50.000Z</time>
      </trkpt>
      <trkpt lat="47.37257" lon="-0.46505">
        <ele>57.699219</ele>
        <time>2014-09-03T12:19:53.000Z</time>
      </trkpt>
      <trkpt lat="47.37254" lon="-0.46492">
        <ele>57.796875</ele>
        <time>2014-09-03T12:19:55.000Z</time>
      </trkpt>
      <trkpt lat="47.37249" lon="-0.4648">
        <ele>58</ele>
        <time>2014-09-03T12:19:57.000Z</time>
      </trkpt>
      <trkpt lat="47.37241" lon="-0.46472">
        <ele>58.296875</ele>
        <time>2014-09-03T12:19:59.000Z</time>
      </trkpt>
      <trkpt lat="47.37231" lon="-0.46464">
        <ele>58.699219</ele>
        <time>2014-09-03T12:20:01.000Z</time>
      </trkpt>
      <trkpt lat="47.37213" lon="-0.4645">
        <ele>59.5</ele>
        <time>2014-09-03T12:20:05.000Z</time>
      </trkpt>
      <trkpt lat="47.37205" lon="-0.46442">
        <ele>59.796875</ele>
        <time>2014-09-03T12:20:07.000Z</time>
      </trkpt>
      <trkpt lat="47.372" lon="-0.4643">
        <ele>60.199219</ele>
        <time>2014-09-03T12:20:09.000Z</time>
      </trkpt>
      <trkpt lat="47.372" lon="-0.46416">
        <ele>60.398438</ele>
        <time>2014-09-03T12:20:11.000Z</time>
      </trkpt>
      <trkpt lat="47.37202" lon="-0.46402">
        <ele>60.597656</ele>
        <time>2014-09-03T12:20:13.000Z</time>
      </trkpt>
      <trkpt lat="47.37203" lon="-0.46389">
        <ele>60.699219</ele>
        <time>2014-09-03T12:20:15.000Z</time>
      </trkpt>
      <trkpt lat="47.37203" lon="-0.46374">
        <ele>60.699219</ele>
        <time>2014-09-03T12:20:17.000Z</time>
      </trkpt>
      <trkpt lat="47.37201" lon="-0.4636">
        <ele>60.597656</ele>
        <time>2014-09-03T12:20:19.000Z</time>
      </trkpt>
      <trkpt lat="47.37197" lon="-0.46347">
        <ele>60.398438</ele>
        <time>2014-09-03T12:20:21.000Z</time>
      </trkpt>
      <trkpt lat="47.37191" lon="-0.46336">
        <ele>60</ele>
        <time>2014-09-03T12:20:23.000Z</time>
      </trkpt>
      <trkpt lat="47.37182" lon="-0.46326">
        <ele>59.5</ele>
        <time>2014-09-03T12:20:25.000Z</time>
      </trkpt>
      <trkpt lat="47.37173" lon="-0.46316">
        <ele>59.199219</ele>
        <time>2014-09-03T12:20:27.000Z</time>
      </trkpt>
      <trkpt lat="47.37063" lon="-0.46211">
        <ele>53.296875</ele>
        <time>2014-09-03T12:20:49.000Z</time>
      </trkpt>
      <trkpt lat="47.37044" lon="-0.46187">
        <ele>52.796875</ele>
        <time>2014-09-03T12:20:53.000Z</time>
      </trkpt>
      <trkpt lat="47.37027" lon="-0.46159">
        <ele>52.5</ele>
        <time>2014-09-03T12:20:57.000Z</time>
      </trkpt>
      <trkpt lat="47.36974" lon="-0.46077">
        <ele>49.898438</ele>
        <time>2014-09-03T12:21:09.000Z</time>
      </trkpt>
      <trkpt lat="47.36965" lon="-0.46065">
        <ele>49.898438</ele>
        <time>2014-09-03T12:21:11.000Z</time>
      </trkpt>
      <trkpt lat="47.36946" lon="-0.46045">
        <ele>50</ele>
        <time>2014-09-03T12:21:15.000Z</time>
      </trkpt>
      <trkpt lat="47.36847" lon="-0.45941">
        <ele>51.796875</ele>
        <time>2014-09-03T12:21:37.000Z</time>
      </trkpt>
      <trkpt lat="47.36839" lon="-0.4593">
        <ele>51.898438</ele>
        <time>2014-09-03T12:21:39.000Z</time>
      </trkpt>
      <trkpt lat="47.36833" lon="-0.45919">
        <ele>51.898438</ele>
        <time>2014-09-03T12:21:41.000Z</time>
      </trkpt>
      <trkpt lat="47.36821" lon="-0.45897">
        <ele>51.796875</ele>
        <time>2014-09-03T12:21:45.000Z</time>
      </trkpt>
      <trkpt lat="47.36771" lon="-0.45798">
        <ele>55.398438</ele>
        <time>2014-09-03T12:22:04.000Z</time>
      </trkpt>
      <trkpt lat="47.36747" lon="-0.45763">
        <ele>56.199219</ele>
        <time>2014-09-03T12:22:12.000Z</time>
      </trkpt>
      <trkpt lat="47.36638" lon="-0.45608">
        <ele>59.296875</ele>
        <time>2014-09-03T12:22:43.000Z</time>
      </trkpt>
      <trkpt lat="47.36613" lon="-0.45561">
        <ele>59.699219</ele>
        <time>2014-09-03T12:22:51.000Z</time>
      </trkpt>
      <trkpt lat="47.36582" lon="-0.45499">
        <ele>60.5</ele>
        <time>2014-09-03T12:23:01.000Z</time>
      </trkpt>
      <trkpt lat="47.36509" lon="-0.45315">
        <ele>62.296875</ele>
        <time>2014-09-03T12:23:29.000Z</time>
      </trkpt>
      <trkpt lat="47.36474" lon="-0.45221">
        <ele>62.199219</ele>
        <time>2014-09-03T12:23:45.000Z</time>
      </trkpt>
      <trkpt lat="47.36466" lon="-0.45208">
        <ele>62.199219</ele>
        <time>2014-09-03T12:23:48.000Z</time>
      </trkpt>
      <trkpt lat="47.36459" lon="-0.45197">
        <ele>62</ele>
        <time>2014-09-03T12:23:50.000Z</time>
      </trkpt>
      <trkpt lat="47.36451" lon="-0.45186">
        <ele>61.5</ele>
        <time>2014-09-03T12:23:52.000Z</time>
      </trkpt>
      <trkpt lat="47.36425" lon="-0.45158">
        <ele>60.796875</ele>
        <time>2014-09-03T12:23:58.000Z</time>
      </trkpt>
      <trkpt lat="47.36295" lon="-0.45021">
        <ele>60.398438</ele>
        <time>2014-09-03T12:24:33.000Z</time>
      </trkpt>
      <trkpt lat="47.36285" lon="-0.4502">
        <ele>59.597656</ele>
        <time>2014-09-03T12:24:37.000Z</time>
      </trkpt>
      <trkpt lat="47.35939" lon="-0.45002">
        <ele>61.296875</ele>
        <time>2014-09-03T12:25:44.000Z</time>
      </trkpt>
      <trkpt lat="47.3587" lon="-0.45007">
        <ele>61.199219</ele>
        <time>2014-09-03T12:25:58.000Z</time>
      </trkpt>
      <trkpt lat="47.35764" lon="-0.45019">
        <ele>59.5</ele>
        <time>2014-09-03T12:26:21.000Z</time>
      </trkpt>
      <trkpt lat="47.35752" lon="-0.45018">
        <ele>58.699219</ele>
        <time>2014-09-03T12:26:24.000Z</time>
      </trkpt>
      <trkpt lat="47.35706" lon="-0.4501">
        <ele>45.796875</ele>
        <time>2014-09-03T12:26:36.000Z</time>
      </trkpt>
      <trkpt lat="47.35685" lon="-0.45003">
        <ele>46.097656</ele>
        <time>2014-09-03T12:26:44.000Z</time>
      </trkpt>
      <trkpt lat="47.35643" lon="-0.44988">
        <ele>46.296875</ele>
        <time>2014-09-03T12:26:54.000Z</time>
      </trkpt>
      <trkpt lat="47.35561" lon="-0.44954">
        <ele>43.296875</ele>
        <time>2014-09-03T12:27:11.000Z</time>
      </trkpt>
      <trkpt lat="47.3553" lon="-0.4494">
        <ele>39.597656</ele>
        <time>2014-09-03T12:27:19.000Z</time>
      </trkpt>
      <trkpt lat="47.35509" lon="-0.44933">
        <ele>41.796875</ele>
        <time>2014-09-03T12:27:24.000Z</time>
      </trkpt>
      <trkpt lat="47.35499" lon="-0.44927">
        <ele>42.5</ele>
        <time>2014-09-03T12:27:26.000Z</time>
      </trkpt>
      <trkpt lat="47.3546" lon="-0.44906">
        <ele>55.398438</ele>
        <time>2014-09-03T12:27:34.000Z</time>
      </trkpt>
      <trkpt lat="47.3544" lon="-0.44897">
        <ele>58.296875</ele>
        <time>2014-09-03T12:27:40.000Z</time>
      </trkpt>
      <trkpt lat="47.35431" lon="-0.44889">
        <ele>59</ele>
        <time>2014-09-03T12:27:44.000Z</time>
      </trkpt>
      <trkpt lat="47.35426" lon="-0.44877">
        <ele>61.398438</ele>
        <time>2014-09-03T12:27:49.000Z</time>
      </trkpt>
      <trkpt lat="47.35425" lon="-0.44863">
        <ele>60.597656</ele>
        <time>2014-09-03T12:28:24.000Z</time>
      </trkpt>
      <trkpt lat="47.35429" lon="-0.44849">
        <ele>59.699219</ele>
        <time>2014-09-03T12:28:28.000Z</time>
      </trkpt>
      <trkpt lat="47.3543" lon="-0.44833">
        <ele>59.097656</ele>
        <time>2014-09-03T12:28:32.000Z</time>
      </trkpt>
      <trkpt lat="47.35423" lon="-0.44823">
        <ele>58</ele>
        <time>2014-09-03T12:28:35.000Z</time>
      </trkpt>
      <trkpt lat="47.35414" lon="-0.44836">
        <ele>57.296875</ele>
        <time>2014-09-03T12:28:38.000Z</time>
      </trkpt>
      <trkpt lat="47.35409" lon="-0.44849">
        <ele>56.398438</ele>
        <time>2014-09-03T12:28:40.000Z</time>
      </trkpt>
      <trkpt lat="47.35393" lon="-0.4489">
        <ele>54.199219</ele>
        <time>2014-09-03T12:28:47.000Z</time>
      </trkpt>
      <trkpt lat="47.35384" lon="-0.44898">
        <ele>52.398438</ele>
        <time>2014-09-03T12:28:50.000Z</time>
      </trkpt>
      <trkpt lat="47.35374" lon="-0.44904">
        <ele>51.347656</ele>
        <time>2014-09-03T12:28:54.000Z</time>
      </trkpt>
      <trkpt lat="47.3537" lon="-0.44916">
        <ele>57</ele>
        <time>2014-09-03T12:29:07.000Z</time>
      </trkpt>
      <trkpt lat="47.35363" lon="-0.44908">
        <ele>57.296875</ele>
        <time>2014-09-03T12:29:42.000Z</time>
      </trkpt>
      <trkpt lat="47.35366" lon="-0.44895">
        <ele>55.296875</ele>
        <time>2014-09-03T12:29:50.000Z</time>
      </trkpt>
      <trkpt lat="47.35361" lon="-0.44877">
        <ele>54.5</ele>
        <time>2014-09-03T12:31:19.000Z</time>
      </trkpt>
      <trkpt lat="47.35361" lon="-0.44863">
        <ele>53.5</ele>
        <time>2014-09-03T12:31:27.000Z</time>
      </trkpt>
      <trkpt lat="47.3536" lon="-0.4485">
        <ele>52.597656</ele>
        <time>2014-09-03T12:31:35.000Z</time>
      </trkpt>
      <trkpt lat="47.35358" lon="-0.44836">
        <ele>52.296875</ele>
        <time>2014-09-03T12:31:48.000Z</time>
      </trkpt>
      <trkpt lat="47.35358" lon="-0.44822">
        <ele>54.898438</ele>
        <time>2014-09-03T12:31:58.000Z</time>
      </trkpt>
      <trkpt lat="47.35362" lon="-0.44808">
        <ele>54.597656</ele>
        <time>2014-09-03T12:32:35.000Z</time>
      </trkpt>
      <trkpt lat="47.3536" lon="-0.44791">
        <ele>54.699219</ele>
        <time>2014-09-03T12:32:39.000Z</time>
      </trkpt>
      <trkpt lat="47.35356" lon="-0.44762">
        <ele>56.296875</ele>
        <time>2014-09-03T12:32:45.000Z</time>
      </trkpt>
      <trkpt lat="47.35352" lon="-0.44751">
        <ele>55.699219</ele>
        <time>2014-09-03T12:33:08.000Z</time>
      </trkpt>
      <trkpt lat="47.35358" lon="-0.44764">
        <ele>55.199219</ele>
        <time>2014-09-03T12:33:16.000Z</time>
      </trkpt>
      <trkpt lat="47.3536" lon="-0.4478">
        <ele>55.199219</ele>
        <time>2014-09-03T12:33:19.000Z</time>
      </trkpt>
      <trkpt lat="47.35365" lon="-0.44854">
        <ele>57.796875</ele>
        <time>2014-09-03T12:33:30.000Z</time>
      </trkpt>
      <trkpt lat="47.35366" lon="-0.44881">
        <ele>60.296875</ele>
        <time>2014-09-03T12:33:34.000Z</time>
      </trkpt>
      <trkpt lat="47.35375" lon="-0.44893">
        <ele>61.597656</ele>
        <time>2014-09-03T12:33:37.000Z</time>
      </trkpt>
      <trkpt lat="47.35384" lon="-0.44883">
        <ele>62.398438</ele>
        <time>2014-09-03T12:33:40.000Z</time>
      </trkpt>
      <trkpt lat="47.3539" lon="-0.44868">
        <ele>62.898438</ele>
        <time>2014-09-03T12:33:43.000Z</time>
      </trkpt>
      <trkpt lat="47.35408" lon="-0.44823">
        <ele>64.199219</ele>
        <time>2014-09-03T12:33:52.000Z</time>
      </trkpt>
      <trkpt lat="47.35419" lon="-0.44822">
        <ele>64.5</ele>
        <time>2014-09-03T12:33:55.000Z</time>
      </trkpt>
      <trkpt lat="47.35427" lon="-0.44835">
        <ele>64.796875</ele>
        <time>2014-09-03T12:33:58.000Z</time>
      </trkpt>
      <trkpt lat="47.35424" lon="-0.4485">
        <ele>64.796875</ele>
        <time>2014-09-03T12:34:01.000Z</time>
      </trkpt>
      <trkpt lat="47.3542" lon="-0.44864">
        <ele>64.199219</ele>
        <time>2014-09-03T12:34:05.000Z</time>
      </trkpt>
      <trkpt lat="47.35415" lon="-0.44876">
        <ele>62.296875</ele>
        <time>2014-09-03T12:34:10.000Z</time>
      </trkpt>
      <trkpt lat="47.35406" lon="-0.44874">
        <ele>48.898438</ele>
        <time>2014-09-03T12:34:32.000Z</time>
      </trkpt>
      <trkpt lat="47.35412" lon="-0.44862">
        <ele>58.796875</ele>
        <time>2014-09-03T12:36:46.000Z</time>
      </trkpt>
      <trkpt lat="47.35423" lon="-0.44846">
        <ele>55.074219</ele>
        <time>2014-09-03T12:45:37.000Z</time>
      </trkpt>
      <trkpt lat="47.35429" lon="-0.44856">
        <ele>58.296875</ele>
        <time>2014-09-03T12:46:35.000Z</time>
      </trkpt>
      <trkpt lat="47.35432" lon="-0.4487">
        <ele>59</ele>
        <time>2014-09-03T12:46:41.000Z</time>
      </trkpt>
      <trkpt lat="47.35434" lon="-0.44886">
        <ele>59.597656</ele>
        <time>2014-09-03T12:46:44.000Z</time>
      </trkpt>
      <trkpt lat="47.3544" lon="-0.44896">
        <ele>60.296875</ele>
        <time>2014-09-03T12:46:47.000Z</time>
      </trkpt>
      <trkpt lat="47.35449" lon="-0.44888">
        <ele>60.898438</ele>
        <time>2014-09-03T12:46:51.000Z</time>
      </trkpt>
      <trkpt lat="47.3545" lon="-0.44874">
        <ele>61.5</ele>
        <time>2014-09-03T12:46:54.000Z</time>
      </trkpt>
      <trkpt lat="47.35452" lon="-0.44859">
        <ele>62.097656</ele>
        <time>2014-09-03T12:46:57.000Z</time>
      </trkpt>
      <trkpt lat="47.35461" lon="-0.44854">
        <ele>62.796875</ele>
        <time>2014-09-03T12:47:00.000Z</time>
      </trkpt>
      <trkpt lat="47.35472" lon="-0.44856">
        <ele>63.296875</ele>
        <time>2014-09-03T12:47:04.000Z</time>
      </trkpt>
      <trkpt lat="47.35481" lon="-0.44857">
        <ele>63.398438</ele>
        <time>2014-09-03T12:47:07.000Z</time>
      </trkpt>
      <trkpt lat="47.35492" lon="-0.44853">
        <ele>63.597656</ele>
        <time>2014-09-03T12:47:10.000Z</time>
      </trkpt>
      <trkpt lat="47.35502" lon="-0.44848">
        <ele>64.898438</ele>
        <time>2014-09-03T12:47:13.000Z</time>
      </trkpt>
      <trkpt lat="47.35512" lon="-0.44845">
        <ele>68.398438</ele>
        <time>2014-09-03T12:47:16.000Z</time>
      </trkpt>
      <trkpt lat="47.35535" lon="-0.44839">
        <ele>74.597656</ele>
        <time>2014-09-03T12:47:22.000Z</time>
      </trkpt>
      <trkpt lat="47.35545" lon="-0.44835">
        <ele>76.296875</ele>
        <time>2014-09-03T12:47:25.000Z</time>
      </trkpt>
      <trkpt lat="47.35557" lon="-0.44828">
        <ele>76.796875</ele>
        <time>2014-09-03T12:47:28.000Z</time>
      </trkpt>
      <trkpt lat="47.35567" lon="-0.44818">
        <ele>76.199219</ele>
        <time>2014-09-03T12:47:31.000Z</time>
      </trkpt>
      <trkpt lat="47.35576" lon="-0.4481">
        <ele>76.097656</ele>
        <time>2014-09-03T12:47:34.000Z</time>
      </trkpt>
      <trkpt lat="47.35585" lon="-0.44808">
        <ele>74.398438</ele>
        <time>2014-09-03T12:47:37.000Z</time>
      </trkpt>
      <trkpt lat="47.35605" lon="-0.448">
        <ele>71.796875</ele>
        <time>2014-09-03T12:47:46.000Z</time>
      </trkpt>
      <trkpt lat="47.35626" lon="-0.4479">
        <ele>69.597656</ele>
        <time>2014-09-03T12:47:51.000Z</time>
      </trkpt>
      <trkpt lat="47.35675" lon="-0.44766">
        <ele>68.699219</ele>
        <time>2014-09-03T12:48:04.000Z</time>
      </trkpt>
      <trkpt lat="47.35686" lon="-0.44765">
        <ele>68.699219</ele>
        <time>2014-09-03T12:48:07.000Z</time>
      </trkpt>
      <trkpt lat="47.35694" lon="-0.44773">
        <ele>68.699219</ele>
        <time>2014-09-03T12:48:11.000Z</time>
      </trkpt>
      <trkpt lat="47.35703" lon="-0.44772">
        <ele>68.597656</ele>
        <time>2014-09-03T12:48:16.000Z</time>
      </trkpt>
      <trkpt lat="47.35713" lon="-0.44765">
        <ele>68.597656</ele>
        <time>2014-09-03T12:48:19.000Z</time>
      </trkpt>
      <trkpt lat="47.35725" lon="-0.44758">
        <ele>68.398438</ele>
        <time>2014-09-03T12:48:22.000Z</time>
      </trkpt>
      <trkpt lat="47.35745" lon="-0.4475">
        <ele>67.898438</ele>
        <time>2014-09-03T12:48:26.000Z</time>
      </trkpt>
      <trkpt lat="47.35775" lon="-0.44738">
        <ele>66.796875</ele>
        <time>2014-09-03T12:48:32.000Z</time>
      </trkpt>
      <trkpt lat="47.35786" lon="-0.44736">
        <ele>66.296875</ele>
        <time>2014-09-03T12:48:35.000Z</time>
      </trkpt>
      <trkpt lat="47.35793" lon="-0.4475">
        <ele>66.5</ele>
        <time>2014-09-03T12:48:39.000Z</time>
      </trkpt>
      <trkpt lat="47.35797" lon="-0.44767">
        <ele>66.398438</ele>
        <time>2014-09-03T12:48:42.000Z</time>
      </trkpt>
      <trkpt lat="47.35799" lon="-0.44781">
        <ele>66.796875</ele>
        <time>2014-09-03T12:48:44.000Z</time>
      </trkpt>
      <trkpt lat="47.35803" lon="-0.44827">
        <ele>67.5</ele>
        <time>2014-09-03T12:48:50.000Z</time>
      </trkpt>
      <trkpt lat="47.35804" lon="-0.44857">
        <ele>67.398438</ele>
        <time>2014-09-03T12:48:54.000Z</time>
      </trkpt>
      <trkpt lat="47.35804" lon="-0.44873">
        <ele>67.199219</ele>
        <time>2014-09-03T12:48:56.000Z</time>
      </trkpt>
      <trkpt lat="47.35803" lon="-0.44923">
        <ele>68</ele>
        <time>2014-09-03T12:49:02.000Z</time>
      </trkpt>
      <trkpt lat="47.35803" lon="-0.44956">
        <ele>67.898438</ele>
        <time>2014-09-03T12:49:06.000Z</time>
      </trkpt>
      <trkpt lat="47.35804" lon="-0.45001">
        <ele>67.699219</ele>
        <time>2014-09-03T12:49:13.000Z</time>
      </trkpt>
      <trkpt lat="47.35812" lon="-0.45011">
        <ele>67.597656</ele>
        <time>2014-09-03T12:49:18.000Z</time>
      </trkpt>
      <trkpt lat="47.35824" lon="-0.4501">
        <ele>67.199219</ele>
        <time>2014-09-03T12:49:21.000Z</time>
      </trkpt>
      <trkpt lat="47.35957" lon="-0.44998">
        <ele>64</ele>
        <time>2014-09-03T12:49:45.000Z</time>
      </trkpt>
      <trkpt lat="47.3629" lon="-0.45013">
        <ele>58.699219</ele>
        <time>2014-09-03T12:50:44.000Z</time>
      </trkpt>
      <trkpt lat="47.363" lon="-0.45021">
        <ele>58.597656</ele>
        <time>2014-09-03T12:50:47.000Z</time>
      </trkpt>
      <trkpt lat="47.3631" lon="-0.45032">
        <ele>58.699219</ele>
        <time>2014-09-03T12:50:50.000Z</time>
      </trkpt>
      <trkpt lat="47.36394" lon="-0.45116">
        <ele>59.5</ele>
        <time>2014-09-03T12:51:10.000Z</time>
      </trkpt>
      <trkpt lat="47.36402" lon="-0.45123">
        <ele>61.097656</ele>
        <time>2014-09-03T12:51:13.000Z</time>
      </trkpt>
      <trkpt lat="47.3641" lon="-0.45133">
        <ele>61.199219</ele>
        <time>2014-09-03T12:52:52.000Z</time>
      </trkpt>
      <trkpt lat="47.36419" lon="-0.45143">
        <ele>61.296875</ele>
        <time>2014-09-03T12:52:56.000Z</time>
      </trkpt>
      <trkpt lat="47.36468" lon="-0.45202">
        <ele>61.097656</ele>
        <time>2014-09-03T12:53:09.000Z</time>
      </trkpt>
      <trkpt lat="47.36474" lon="-0.45213">
        <ele>60.898438</ele>
        <time>2014-09-03T12:53:11.000Z</time>
      </trkpt>
      <trkpt lat="47.3648" lon="-0.45226">
        <ele>60.796875</ele>
        <time>2014-09-03T12:53:13.000Z</time>
      </trkpt>
      <trkpt lat="47.36486" lon="-0.4524">
        <ele>60.796875</ele>
        <time>2014-09-03T12:53:15.000Z</time>
      </trkpt>
      <trkpt lat="47.36611" lon="-0.45544">
        <ele>60</ele>
        <time>2014-09-03T12:53:57.000Z</time>
      </trkpt>
      <trkpt lat="47.36639" lon="-0.45596">
        <ele>59.597656</ele>
        <time>2014-09-03T12:54:05.000Z</time>
      </trkpt>
      <trkpt lat="47.36678" lon="-0.45658">
        <ele>58.699219</ele>
        <time>2014-09-03T12:54:15.000Z</time>
      </trkpt>
      <trkpt lat="47.36771" lon="-0.45785">
        <ele>56.296875</ele>
        <time>2014-09-03T12:54:37.000Z</time>
      </trkpt>
      <trkpt lat="47.36779" lon="-0.45794">
        <ele>55.796875</ele>
        <time>2014-09-03T12:54:39.000Z</time>
      </trkpt>
      <trkpt lat="47.36786" lon="-0.45806">
        <ele>55.199219</ele>
        <time>2014-09-03T12:54:41.000Z</time>
      </trkpt>
      <trkpt lat="47.36792" lon="-0.4582">
        <ele>54.296875</ele>
        <time>2014-09-03T12:54:43.000Z</time>
      </trkpt>
      <trkpt lat="47.36842" lon="-0.45923">
        <ele>50.199219</ele>
        <time>2014-09-03T12:54:55.000Z</time>
      </trkpt>
      <trkpt lat="47.36853" lon="-0.45939">
        <ele>50</ele>
        <time>2014-09-03T12:54:57.000Z</time>
      </trkpt>
      <trkpt lat="47.36864" lon="-0.45953">
        <ele>49.898438</ele>
        <time>2014-09-03T12:54:59.000Z</time>
      </trkpt>
      <trkpt lat="47.36875" lon="-0.45966">
        <ele>49.898438</ele>
        <time>2014-09-03T12:55:01.000Z</time>
      </trkpt>
      <trkpt lat="47.36907" lon="-0.45996">
        <ele>50.199219</ele>
        <time>2014-09-03T12:55:07.000Z</time>
      </trkpt>
      <trkpt lat="47.36971" lon="-0.46061">
        <ele>50.199219</ele>
        <time>2014-09-03T12:55:21.000Z</time>
      </trkpt>
      <trkpt lat="47.36979" lon="-0.46071">
        <ele>50.296875</ele>
        <time>2014-09-03T12:55:23.000Z</time>
      </trkpt>
      <trkpt lat="47.36987" lon="-0.46083">
        <ele>50.296875</ele>
        <time>2014-09-03T12:55:25.000Z</time>
      </trkpt>
      <trkpt lat="47.37056" lon="-0.46193">
        <ele>50.796875</ele>
        <time>2014-09-03T12:55:45.000Z</time>
      </trkpt>
      <trkpt lat="47.37064" lon="-0.46202">
        <ele>50.796875</ele>
        <time>2014-09-03T12:55:47.000Z</time>
      </trkpt>
      <trkpt lat="47.37095" lon="-0.46235">
        <ele>49.296875</ele>
        <time>2014-09-03T12:55:55.000Z</time>
      </trkpt>
      <trkpt lat="47.37189" lon="-0.46319">
        <ele>51.097656</ele>
        <time>2014-09-03T12:56:17.000Z</time>
      </trkpt>
      <trkpt lat="47.37196" lon="-0.46329">
        <ele>51.398438</ele>
        <time>2014-09-03T12:56:19.000Z</time>
      </trkpt>
      <trkpt lat="47.37202" lon="-0.46341">
        <ele>51.5</ele>
        <time>2014-09-03T12:56:21.000Z</time>
      </trkpt>
      <trkpt lat="47.37205" lon="-0.46356">
        <ele>51.597656</ele>
        <time>2014-09-03T12:56:23.000Z</time>
      </trkpt>
      <trkpt lat="47.37207" lon="-0.46372">
        <ele>51.597656</ele>
        <time>2014-09-03T12:56:25.000Z</time>
      </trkpt>
      <trkpt lat="47.37206" lon="-0.46388">
        <ele>51.597656</ele>
        <time>2014-09-03T12:56:27.000Z</time>
      </trkpt>
      <trkpt lat="47.37204" lon="-0.46403">
        <ele>51.398438</ele>
        <time>2014-09-03T12:56:29.000Z</time>
      </trkpt>
      <trkpt lat="47.37205" lon="-0.46417">
        <ele>51</ele>
        <time>2014-09-03T12:56:31.000Z</time>
      </trkpt>
      <trkpt lat="47.37209" lon="-0.4643">
        <ele>50.796875</ele>
        <time>2014-09-03T12:56:33.000Z</time>
      </trkpt>
      <trkpt lat="47.37217" lon="-0.4644">
        <ele>50.5</ele>
        <time>2014-09-03T12:56:35.000Z</time>
      </trkpt>
      <trkpt lat="47.37227" lon="-0.46447">
        <ele>50.296875</ele>
        <time>2014-09-03T12:56:37.000Z</time>
      </trkpt>
      <trkpt lat="47.37245" lon="-0.46462">
        <ele>50</ele>
        <time>2014-09-03T12:56:41.000Z</time>
      </trkpt>
      <trkpt lat="47.37254" lon="-0.46466">
        <ele>50.199219</ele>
        <time>2014-09-03T12:56:43.000Z</time>
      </trkpt>
      <trkpt lat="47.37267" lon="-0.46467">
        <ele>50.199219</ele>
        <time>2014-09-03T12:56:46.000Z</time>
      </trkpt>
      <trkpt lat="47.37276" lon="-0.46469">
        <ele>50.097656</ele>
        <time>2014-09-03T12:56:48.000Z</time>
      </trkpt>
      <trkpt lat="47.37286" lon="-0.46473">
        <ele>50.097656</ele>
        <time>2014-09-03T12:56:50.000Z</time>
      </trkpt>
      <trkpt lat="47.37296" lon="-0.4647">
        <ele>50.296875</ele>
        <time>2014-09-03T12:56:52.000Z</time>
      </trkpt>
      <trkpt lat="47.37306" lon="-0.46466">
        <ele>50.699219</ele>
        <time>2014-09-03T12:56:54.000Z</time>
      </trkpt>
      <trkpt lat="47.37324" lon="-0.46456">
        <ele>51.796875</ele>
        <time>2014-09-03T12:56:58.000Z</time>
      </trkpt>
      <trkpt lat="47.3735" lon="-0.46435">
        <ele>51.597656</ele>
        <time>2014-09-03T12:57:04.000Z</time>
      </trkpt>
      <trkpt lat="47.37357" lon="-0.46425">
        <ele>51.699219</ele>
        <time>2014-09-03T12:57:06.000Z</time>
      </trkpt>
      <trkpt lat="47.37361" lon="-0.46413">
        <ele>51.796875</ele>
        <time>2014-09-03T12:57:08.000Z</time>
      </trkpt>
      <trkpt lat="47.37362" lon="-0.464">
        <ele>51.898438</ele>
        <time>2014-09-03T12:57:10.000Z</time>
      </trkpt>
      <trkpt lat="47.37363" lon="-0.46386">
        <ele>52</ele>
        <time>2014-09-03T12:57:12.000Z</time>
      </trkpt>
      <trkpt lat="47.37369" lon="-0.46375">
        <ele>51.898438</ele>
        <time>2014-09-03T12:57:14.000Z</time>
      </trkpt>
      <trkpt lat="47.37379" lon="-0.46373">
        <ele>51.699219</ele>
        <time>2014-09-03T12:57:16.000Z</time>
      </trkpt>
      <trkpt lat="47.37388" lon="-0.46374">
        <ele>51.699219</ele>
        <time>2014-09-03T12:57:18.000Z</time>
      </trkpt>
      <trkpt lat="47.37398" lon="-0.46374">
        <ele>51.796875</ele>
        <time>2014-09-03T12:57:20.000Z</time>
      </trkpt>
      <trkpt lat="47.37407" lon="-0.46373">
        <ele>52.097656</ele>
        <time>2014-09-03T12:57:22.000Z</time>
      </trkpt>
      <trkpt lat="47.37453" lon="-0.46359">
        <ele>52.5</ele>
        <time>2014-09-03T12:57:32.000Z</time>
      </trkpt>
      <trkpt lat="47.37783" lon="-0.46252">
        <ele>50.796875</ele>
        <time>2014-09-03T12:58:36.000Z</time>
      </trkpt>
      <trkpt lat="47.37794" lon="-0.46251">
        <ele>50.597656</ele>
        <time>2014-09-03T12:58:38.000Z</time>
      </trkpt>
      <trkpt lat="47.37804" lon="-0.46256">
        <ele>50.398438</ele>
        <time>2014-09-03T12:58:40.000Z</time>
      </trkpt>
      <trkpt lat="47.37811" lon="-0.46266">
        <ele>50.199219</ele>
        <time>2014-09-03T12:58:42.000Z</time>
      </trkpt>
      <trkpt lat="47.37819" lon="-0.46278">
        <ele>50.097656</ele>
        <time>2014-09-03T12:58:44.000Z</time>
      </trkpt>
      <trkpt lat="47.3795" lon="-0.46512">
        <ele>50.097656</ele>
        <time>2014-09-03T12:59:25.000Z</time>
      </trkpt>
      <trkpt lat="47.38114" lon="-0.46811">
        <ele>49.097656</ele>
        <time>2014-09-03T13:00:16.000Z</time>
      </trkpt>
      <trkpt lat="47.38127" lon="-0.46836">
        <ele>48.5</ele>
        <time>2014-09-03T13:00:21.000Z</time>
      </trkpt>
      <trkpt lat="47.38454" lon="-0.47459">
        <ele>44.699219</ele>
        <time>2014-09-03T13:02:00.000Z</time>
      </trkpt>
      <trkpt lat="47.38583" lon="-0.47774">
        <ele>42.296875</ele>
        <time>2014-09-03T13:02:44.000Z</time>
      </trkpt>
      <trkpt lat="47.38589" lon="-0.47784">
        <ele>41.796875</ele>
        <time>2014-09-03T13:02:46.000Z</time>
      </trkpt>
      <trkpt lat="47.38598" lon="-0.47787">
        <ele>40.699219</ele>
        <time>2014-09-03T13:02:48.000Z</time>
      </trkpt>
      <trkpt lat="47.38609" lon="-0.47779">
        <ele>39.199219</ele>
        <time>2014-09-03T13:02:51.000Z</time>
      </trkpt>
      <trkpt lat="47.3868" lon="-0.4773">
        <ele>32.296875</ele>
        <time>2014-09-03T13:03:05.000Z</time>
      </trkpt>
      <trkpt lat="47.38722" lon="-0.47709">
        <ele>34.398438</ele>
        <time>2014-09-03T13:03:13.000Z</time>
      </trkpt>
      <trkpt lat="47.38732" lon="-0.47708">
        <ele>34.199219</ele>
        <time>2014-09-03T13:03:15.000Z</time>
      </trkpt>
      <trkpt lat="47.38741" lon="-0.47715">
        <ele>33.898438</ele>
        <time>2014-09-03T13:03:17.000Z</time>
      </trkpt>
      <trkpt lat="47.38749" lon="-0.47725">
        <ele>33.699219</ele>
        <time>2014-09-03T13:03:19.000Z</time>
      </trkpt>
      <trkpt lat="47.38766" lon="-0.47745">
        <ele>33</ele>
        <time>2014-09-03T13:03:23.000Z</time>
      </trkpt>
      <trkpt lat="47.38774" lon="-0.47757">
        <ele>32.699219</ele>
        <time>2014-09-03T13:03:25.000Z</time>
      </trkpt>
      <trkpt lat="47.38782" lon="-0.47769">
        <ele>32.398438</ele>
        <time>2014-09-03T13:03:27.000Z</time>
      </trkpt>
      <trkpt lat="47.38789" lon="-0.47783">
        <ele>32.398438</ele>
        <time>2014-09-03T13:03:29.000Z</time>
      </trkpt>
      <trkpt lat="47.38795" lon="-0.47797">
        <ele>32.5</ele>
        <time>2014-09-03T13:03:31.000Z</time>
      </trkpt>
      <trkpt lat="47.38799" lon="-0.47813">
        <ele>32.796875</ele>
        <time>2014-09-03T13:03:33.000Z</time>
      </trkpt>
      <trkpt lat="47.38802" lon="-0.47828">
        <ele>33.296875</ele>
        <time>2014-09-03T13:03:35.000Z</time>
      </trkpt>
      <trkpt lat="47.38808" lon="-0.47842">
        <ele>33.597656</ele>
        <time>2014-09-03T13:03:37.000Z</time>
      </trkpt>
      <trkpt lat="47.38815" lon="-0.47852">
        <ele>33.898438</ele>
        <time>2014-09-03T13:03:39.000Z</time>
      </trkpt>
      <trkpt lat="47.38824" lon="-0.47861">
        <ele>34.199219</ele>
        <time>2014-09-03T13:03:41.000Z</time>
      </trkpt>
      <trkpt lat="47.38833" lon="-0.4787">
        <ele>34.296875</ele>
        <time>2014-09-03T13:03:43.000Z</time>
      </trkpt>
      <trkpt lat="47.38842" lon="-0.47877">
        <ele>34.097656</ele>
        <time>2014-09-03T13:03:45.000Z</time>
      </trkpt>
      <trkpt lat="47.38852" lon="-0.47883">
        <ele>33.898438</ele>
        <time>2014-09-03T13:03:47.000Z</time>
      </trkpt>
      <trkpt lat="47.38863" lon="-0.47882">
        <ele>33.597656</ele>
        <time>2014-09-03T13:03:49.000Z</time>
      </trkpt>
      <trkpt lat="47.38873" lon="-0.4788">
        <ele>33.898438</ele>
        <time>2014-09-03T13:03:51.000Z</time>
      </trkpt>
      <trkpt lat="47.38904" lon="-0.47874">
        <ele>35.796875</ele>
        <time>2014-09-03T13:03:57.000Z</time>
      </trkpt>
      <trkpt lat="47.38913" lon="-0.47874">
        <ele>36.5</ele>
        <time>2014-09-03T13:03:59.000Z</time>
      </trkpt>
      <trkpt lat="47.38922" lon="-0.47875">
        <ele>36.898438</ele>
        <time>2014-09-03T13:04:01.000Z</time>
      </trkpt>
      <trkpt lat="47.38932" lon="-0.47877">
        <ele>37.597656</ele>
        <time>2014-09-03T13:04:03.000Z</time>
      </trkpt>
      <trkpt lat="47.38941" lon="-0.47881">
        <ele>38.097656</ele>
        <time>2014-09-03T13:04:05.000Z</time>
      </trkpt>
      <trkpt lat="47.38952" lon="-0.47886">
        <ele>39.097656</ele>
        <time>2014-09-03T13:04:08.000Z</time>
      </trkpt>
      <trkpt lat="47.3896" lon="-0.47878">
        <ele>39.699219</ele>
        <time>2014-09-03T13:04:11.000Z</time>
      </trkpt>
      <trkpt lat="47.38968" lon="-0.47867">
        <ele>40.296875</ele>
        <time>2014-09-03T13:04:14.000Z</time>
      </trkpt>
      <trkpt lat="47.38983" lon="-0.47843">
        <ele>40.398438</ele>
        <time>2014-09-03T13:04:19.000Z</time>
      </trkpt>
      <trkpt lat="47.39005" lon="-0.47814">
        <ele>41.296875</ele>
        <time>2014-09-03T13:04:25.000Z</time>
      </trkpt>
      <trkpt lat="47.3901" lon="-0.47804">
        <ele>41.699219</ele>
        <time>2014-09-03T13:04:27.000Z</time>
      </trkpt>
      <trkpt lat="47.39041" lon="-0.47745">
        <ele>43.5</ele>
        <time>2014-09-03T13:04:39.000Z</time>
      </trkpt>
      <trkpt lat="47.39049" lon="-0.47737">
        <ele>43.398438</ele>
        <time>2014-09-03T13:04:42.000Z</time>
      </trkpt>
      <trkpt lat="47.39059" lon="-0.47733">
        <ele>43.097656</ele>
        <time>2014-09-03T13:04:45.000Z</time>
      </trkpt>
      <trkpt lat="47.39069" lon="-0.4773">
        <ele>42.898438</ele>
        <time>2014-09-03T13:04:48.000Z</time>
      </trkpt>
      <trkpt lat="47.3911" lon="-0.47716">
        <ele>42.398438</ele>
        <time>2014-09-03T13:04:57.000Z</time>
      </trkpt>
      <trkpt lat="47.3916" lon="-0.47697">
        <ele>41.597656</ele>
        <time>2014-09-03T13:05:07.000Z</time>
      </trkpt>
      <trkpt lat="47.3917" lon="-0.47696">
        <ele>41.5</ele>
        <time>2014-09-03T13:05:09.000Z</time>
      </trkpt>
      <trkpt lat="47.3918" lon="-0.47697">
        <ele>41.398438</ele>
        <time>2014-09-03T13:05:11.000Z</time>
      </trkpt>
      <trkpt lat="47.3919" lon="-0.47699">
        <ele>41.296875</ele>
        <time>2014-09-03T13:05:13.000Z</time>
      </trkpt>
      <trkpt lat="47.392" lon="-0.47703">
        <ele>41.296875</ele>
        <time>2014-09-03T13:05:15.000Z</time>
      </trkpt>
      <trkpt lat="47.3922" lon="-0.47711">
        <ele>41.199219</ele>
        <time>2014-09-03T13:05:19.000Z</time>
      </trkpt>
      <trkpt lat="47.3925" lon="-0.4772">
        <ele>41.398438</ele>
        <time>2014-09-03T13:05:25.000Z</time>
      </trkpt>
      <trkpt lat="47.39259" lon="-0.47725">
        <ele>41.296875</ele>
        <time>2014-09-03T13:05:27.000Z</time>
      </trkpt>
      <trkpt lat="47.39269" lon="-0.47731">
        <ele>41.296875</ele>
        <time>2014-09-03T13:05:29.000Z</time>
      </trkpt>
      <trkpt lat="47.39287" lon="-0.47746">
        <ele>41.097656</ele>
        <time>2014-09-03T13:05:33.000Z</time>
      </trkpt>
      <trkpt lat="47.39315" lon="-0.47769">
        <ele>40.796875</ele>
        <time>2014-09-03T13:05:39.000Z</time>
      </trkpt>
      <trkpt lat="47.39325" lon="-0.47776">
        <ele>40.796875</ele>
        <time>2014-09-03T13:05:41.000Z</time>
      </trkpt>
      <trkpt lat="47.39335" lon="-0.4778">
        <ele>40.796875</ele>
        <time>2014-09-03T13:05:43.000Z</time>
      </trkpt>
      <trkpt lat="47.39346" lon="-0.47783">
        <ele>40.699219</ele>
        <time>2014-09-03T13:05:45.000Z</time>
      </trkpt>
      <trkpt lat="47.39356" lon="-0.47786">
        <ele>40.5</ele>
        <time>2014-09-03T13:05:47.000Z</time>
      </trkpt>
      <trkpt lat="47.39377" lon="-0.47789">
        <ele>40.296875</ele>
        <time>2014-09-03T13:05:51.000Z</time>
      </trkpt>
      <trkpt lat="47.39388" lon="-0.47793">
        <ele>40.097656</ele>
        <time>2014-09-03T13:05:53.000Z</time>
      </trkpt>
      <trkpt lat="47.39397" lon="-0.47799">
        <ele>39.398438</ele>
        <time>2014-09-03T13:05:55.000Z</time>
      </trkpt>
      <trkpt lat="47.39408" lon="-0.47791">
        <ele>38.796875</ele>
        <time>2014-09-03T13:06:07.000Z</time>
      </trkpt>
      <trkpt lat="47.3942" lon="-0.47789">
        <ele>38.597656</ele>
        <time>2014-09-03T13:06:10.000Z</time>
      </trkpt>
      <trkpt lat="47.3947" lon="-0.47788">
        <ele>37.5</ele>
        <time>2014-09-03T13:06:20.000Z</time>
      </trkpt>
      <trkpt lat="47.39481" lon="-0.47789">
        <ele>37.296875</ele>
        <time>2014-09-03T13:06:22.000Z</time>
      </trkpt>
      <trkpt lat="47.39492" lon="-0.4779">
        <ele>37.199219</ele>
        <time>2014-09-03T13:06:24.000Z</time>
      </trkpt>
      <trkpt lat="47.39503" lon="-0.47793">
        <ele>37.097656</ele>
        <time>2014-09-03T13:06:26.000Z</time>
      </trkpt>
      <trkpt lat="47.39514" lon="-0.47797">
        <ele>37</ele>
        <time>2014-09-03T13:06:28.000Z</time>
      </trkpt>
      <trkpt lat="47.39571" lon="-0.4782">
        <ele>36.898438</ele>
        <time>2014-09-03T13:06:40.000Z</time>
      </trkpt>
      <trkpt lat="47.39581" lon="-0.47821">
        <ele>36.898438</ele>
        <time>2014-09-03T13:06:42.000Z</time>
      </trkpt>
      <trkpt lat="47.39602" lon="-0.47823">
        <ele>36.796875</ele>
        <time>2014-09-03T13:06:46.000Z</time>
      </trkpt>
      <trkpt lat="47.39613" lon="-0.47823">
        <ele>36.699219</ele>
        <time>2014-09-03T13:06:48.000Z</time>
      </trkpt>
      <trkpt lat="47.39624" lon="-0.47821">
        <ele>36.398438</ele>
        <time>2014-09-03T13:06:50.000Z</time>
      </trkpt>
      <trkpt lat="47.39635" lon="-0.47818">
        <ele>36.097656</ele>
        <time>2014-09-03T13:06:52.000Z</time>
      </trkpt>
      <trkpt lat="47.3982" lon="-0.47762">
        <ele>32.097656</ele>
        <time>2014-09-03T13:07:26.000Z</time>
      </trkpt>
      <trkpt lat="47.39831" lon="-0.47761">
        <ele>31.796875</ele>
        <time>2014-09-03T13:07:28.000Z</time>
      </trkpt>
      <trkpt lat="47.39842" lon="-0.4776">
        <ele>31.699219</ele>
        <time>2014-09-03T13:07:30.000Z</time>
      </trkpt>
      <trkpt lat="47.39853" lon="-0.47762">
        <ele>31.699219</ele>
        <time>2014-09-03T13:07:32.000Z</time>
      </trkpt>
      <trkpt lat="47.39863" lon="-0.47765">
        <ele>31.796875</ele>
        <time>2014-09-03T13:07:34.000Z</time>
      </trkpt>
      <trkpt lat="47.39919" lon="-0.47786">
        <ele>31.398438</ele>
        <time>2014-09-03T13:07:46.000Z</time>
      </trkpt>
      <trkpt lat="47.39929" lon="-0.47787">
        <ele>31.296875</ele>
        <time>2014-09-03T13:07:48.000Z</time>
      </trkpt>
      <trkpt lat="47.3994" lon="-0.47788">
        <ele>31.296875</ele>
        <time>2014-09-03T13:07:50.000Z</time>
      </trkpt>
      <trkpt lat="47.39962" lon="-0.47792">
        <ele>31.097656</ele>
        <time>2014-09-03T13:07:54.000Z</time>
      </trkpt>
      <trkpt lat="47.40041" lon="-0.47807">
        <ele>29.699219</ele>
        <time>2014-09-03T13:08:08.000Z</time>
      </trkpt>
      <trkpt lat="47.40051" lon="-0.47811">
        <ele>29.097656</ele>
        <time>2014-09-03T13:08:10.000Z</time>
      </trkpt>
      <trkpt lat="47.40102" lon="-0.47826">
        <ele>28</ele>
        <time>2014-09-03T13:08:21.000Z</time>
      </trkpt>
      <trkpt lat="47.40141" lon="-0.47835">
        <ele>26.5</ele>
        <time>2014-09-03T13:08:30.000Z</time>
      </trkpt>
      <trkpt lat="47.40152" lon="-0.47834">
        <ele>26</ele>
        <time>2014-09-03T13:08:33.000Z</time>
      </trkpt>
      <trkpt lat="47.40172" lon="-0.47831">
        <ele>26</ele>
        <time>2014-09-03T13:08:38.000Z</time>
      </trkpt>
      <trkpt lat="47.40279" lon="-0.4781">
        <ele>25.5</ele>
        <time>2014-09-03T13:09:00.000Z</time>
      </trkpt>
      <trkpt lat="47.40288" lon="-0.47805">
        <ele>26</ele>
        <time>2014-09-03T13:09:02.000Z</time>
      </trkpt>
      <trkpt lat="47.40306" lon="-0.47795">
        <ele>27.097656</ele>
        <time>2014-09-03T13:09:06.000Z</time>
      </trkpt>
      <trkpt lat="47.40388" lon="-0.47736">
        <ele>27.296875</ele>
        <time>2014-09-03T13:09:25.000Z</time>
      </trkpt>
      <trkpt lat="47.40397" lon="-0.47728">
        <ele>26.796875</ele>
        <time>2014-09-03T13:09:27.000Z</time>
      </trkpt>
      <trkpt lat="47.40464" lon="-0.47675">
        <ele>23.699219</ele>
        <time>2014-09-03T13:09:39.000Z</time>
      </trkpt>
      <trkpt lat="47.40474" lon="-0.47663">
        <ele>23.597656</ele>
        <time>2014-09-03T13:09:41.000Z</time>
      </trkpt>
      <trkpt lat="47.40492" lon="-0.4764">
        <ele>23.699219</ele>
        <time>2014-09-03T13:09:45.000Z</time>
      </trkpt>
      <trkpt lat="47.405" lon="-0.47629">
        <ele>23.898438</ele>
        <time>2014-09-03T13:09:47.000Z</time>
      </trkpt>
      <trkpt lat="47.40514" lon="-0.47607">
        <ele>24</ele>
        <time>2014-09-03T13:09:51.000Z</time>
      </trkpt>
      <trkpt lat="47.40521" lon="-0.47598">
        <ele>23.699219</ele>
        <time>2014-09-03T13:09:53.000Z</time>
      </trkpt>
      <trkpt lat="47.40544" lon="-0.47567">
        <ele>21.796875</ele>
        <time>2014-09-03T13:09:59.000Z</time>
      </trkpt>
      <trkpt lat="47.40555" lon="-0.47558">
        <ele>20</ele>
        <time>2014-09-03T13:10:02.000Z</time>
      </trkpt>
      <trkpt lat="47.40565" lon="-0.47553">
        <ele>19.199219</ele>
        <time>2014-09-03T13:10:05.000Z</time>
      </trkpt>
      <trkpt lat="47.40614" lon="-0.47524">
        <ele>17.597656</ele>
        <time>2014-09-03T13:10:25.000Z</time>
      </trkpt>
      <trkpt lat="47.40688" lon="-0.4748">
        <ele>16.5</ele>
        <time>2014-09-03T13:10:42.000Z</time>
      </trkpt>
      <trkpt lat="47.40698" lon="-0.47472">
        <ele>16.597656</ele>
        <time>2014-09-03T13:10:45.000Z</time>
      </trkpt>
      <trkpt lat="47.40705" lon="-0.47464">
        <ele>16.5</ele>
        <time>2014-09-03T13:10:52.000Z</time>
      </trkpt>
      <trkpt lat="47.40711" lon="-0.47454">
        <ele>16.398438</ele>
        <time>2014-09-03T13:10:56.000Z</time>
      </trkpt>
      <trkpt lat="47.4074" lon="-0.47406">
        <ele>11.898438</ele>
        <time>2014-09-03T13:11:07.000Z</time>
      </trkpt>
      <trkpt lat="47.40749" lon="-0.47395">
        <ele>10.898438</ele>
        <time>2014-09-03T13:11:10.000Z</time>
      </trkpt>
      <trkpt lat="47.4076" lon="-0.47393">
        <ele>10.398438</ele>
        <time>2014-09-03T13:11:14.000Z</time>
      </trkpt>
      <trkpt lat="47.40767" lon="-0.47402">
        <ele>9.898438</ele>
        <time>2014-09-03T13:11:17.000Z</time>
      </trkpt>
      <trkpt lat="47.40774" lon="-0.47413">
        <ele>10</ele>
        <time>2014-09-03T13:11:20.000Z</time>
      </trkpt>
      <trkpt lat="47.40779" lon="-0.47427">
        <ele>10.199219</ele>
        <time>2014-09-03T13:11:23.000Z</time>
      </trkpt>
      <trkpt lat="47.40787" lon="-0.47437">
        <ele>11.296875</ele>
        <time>2014-09-03T13:11:27.000Z</time>
      </trkpt>
      <trkpt lat="47.40792" lon="-0.47451">
        <ele>11.199219</ele>
        <time>2014-09-03T13:11:31.000Z</time>
      </trkpt>
      <trkpt lat="47.40798" lon="-0.47465">
        <ele>12</ele>
        <time>2014-09-03T13:11:35.000Z</time>
      </trkpt>
      <trkpt lat="47.40802" lon="-0.4748">
        <ele>13</ele>
        <time>2014-09-03T13:11:38.000Z</time>
      </trkpt>
      <trkpt lat="47.40814" lon="-0.47523">
        <ele>14.796875</ele>
        <time>2014-09-03T13:11:47.000Z</time>
      </trkpt>
      <trkpt lat="47.40816" lon="-0.47539">
        <ele>15.398438</ele>
        <time>2014-09-03T13:11:50.000Z</time>
      </trkpt>
      <trkpt lat="47.40818" lon="-0.47555">
        <ele>15.796875</ele>
        <time>2014-09-03T13:11:53.000Z</time>
      </trkpt>
      <trkpt lat="47.40824" lon="-0.4759">
        <ele>16.199219</ele>
        <time>2014-09-03T13:11:59.000Z</time>
      </trkpt>
      <trkpt lat="47.40831" lon="-0.47646">
        <ele>17.097656</ele>
        <time>2014-09-03T13:12:08.000Z</time>
      </trkpt>
      <trkpt lat="47.40831" lon="-0.47664">
        <ele>17.699219</ele>
        <time>2014-09-03T13:12:11.000Z</time>
      </trkpt>
      <trkpt lat="47.40828" lon="-0.47678">
        <ele>17.296875</ele>
        <time>2014-09-03T13:12:14.000Z</time>
      </trkpt>
      <trkpt lat="47.40831" lon="-0.47692">
        <ele>17.097656</ele>
        <time>2014-09-03T13:12:17.000Z</time>
      </trkpt>
      <trkpt lat="47.40833" lon="-0.47711">
        <ele>16.796875</ele>
        <time>2014-09-03T13:12:20.000Z</time>
      </trkpt>
      <trkpt lat="47.40839" lon="-0.47776">
        <ele>18</ele>
        <time>2014-09-03T13:12:30.000Z</time>
      </trkpt>
      <trkpt lat="47.40841" lon="-0.47792">
        <ele>18</ele>
        <time>2014-09-03T13:12:33.000Z</time>
      </trkpt>
      <trkpt lat="47.4085" lon="-0.4786">
        <ele>15.5</ele>
        <time>2014-09-03T13:12:45.000Z</time>
      </trkpt>
      <trkpt lat="47.40851" lon="-0.47878">
        <ele>14.398438</ele>
        <time>2014-09-03T13:12:48.000Z</time>
      </trkpt>
      <trkpt lat="47.40853" lon="-0.47898">
        <ele>14.097656</ele>
        <time>2014-09-03T13:12:51.000Z</time>
      </trkpt>
      <trkpt lat="47.40856" lon="-0.47916">
        <ele>14.398438</ele>
        <time>2014-09-03T13:12:54.000Z</time>
      </trkpt>
      <trkpt lat="47.40864" lon="-0.47969">
        <ele>27.898438</ele>
        <time>2014-09-03T13:13:03.000Z</time>
      </trkpt>
      <trkpt lat="47.4087" lon="-0.4798">
        <ele>25.296875</ele>
        <time>2014-09-03T13:16:07.000Z</time>
      </trkpt>
      <trkpt lat="47.40873" lon="-0.47994">
        <ele>23.097656</ele>
        <time>2014-09-03T13:16:12.000Z</time>
      </trkpt>
      <trkpt lat="47.40874" lon="-0.4801">
        <ele>22.699219</ele>
        <time>2014-09-03T13:16:17.000Z</time>
      </trkpt>
      <trkpt lat="47.40878" lon="-0.48053">
        <ele>22</ele>
        <time>2014-09-03T13:16:26.000Z</time>
      </trkpt>
      <trkpt lat="47.40878" lon="-0.48068">
        <ele>22</ele>
        <time>2014-09-03T13:16:29.000Z</time>
      </trkpt>
      <trkpt lat="47.40875" lon="-0.48082">
        <ele>22.199219</ele>
        <time>2014-09-03T13:16:32.000Z</time>
      </trkpt>
      <trkpt lat="47.40867" lon="-0.4809">
        <ele>22.296875</ele>
        <time>2014-09-03T13:16:35.000Z</time>
      </trkpt>
      <trkpt lat="47.4086" lon="-0.48098">
        <ele>22</ele>
        <time>2014-09-03T13:16:38.000Z</time>
      </trkpt>
      <trkpt lat="47.40858" lon="-0.48112">
        <ele>21.699219</ele>
        <time>2014-09-03T13:16:41.000Z</time>
      </trkpt>
      <trkpt lat="47.40861" lon="-0.48127">
        <ele>21.5</ele>
        <time>2014-09-03T13:16:44.000Z</time>
      </trkpt>
      <trkpt lat="47.40862" lon="-0.48141">
        <ele>21.5</ele>
        <time>2014-09-03T13:16:47.000Z</time>
      </trkpt>
      <trkpt lat="47.40854" lon="-0.48149">
        <ele>21.5</ele>
        <time>2014-09-03T13:16:50.000Z</time>
      </trkpt>
      <trkpt lat="47.40846" lon="-0.48157">
        <ele>21.699219</ele>
        <time>2014-09-03T13:16:53.000Z</time>
      </trkpt>
      <trkpt lat="47.40841" lon="-0.48169">
        <ele>22.199219</ele>
        <time>2014-09-03T13:16:56.000Z</time>
      </trkpt>
      <trkpt lat="47.40839" lon="-0.48182">
        <ele>22.5</ele>
        <time>2014-09-03T13:16:59.000Z</time>
      </trkpt>
      <trkpt lat="47.40837" lon="-0.48197">
        <ele>22.199219</ele>
        <time>2014-09-03T13:17:02.000Z</time>
      </trkpt>
      <trkpt lat="47.40834" lon="-0.48211">
        <ele>22.097656</ele>
        <time>2014-09-03T13:17:05.000Z</time>
      </trkpt>
      <trkpt lat="47.40829" lon="-0.48225">
        <ele>22.097656</ele>
        <time>2014-09-03T13:17:08.000Z</time>
      </trkpt>
      <trkpt lat="47.40823" lon="-0.4824">
        <ele>22.398438</ele>
        <time>2014-09-03T13:17:11.000Z</time>
      </trkpt>
      <trkpt lat="47.40821" lon="-0.48254">
        <ele>22.898438</ele>
        <time>2014-09-03T13:17:14.000Z</time>
      </trkpt>
      <trkpt lat="47.4082" lon="-0.4827">
        <ele>23.097656</ele>
        <time>2014-09-03T13:17:17.000Z</time>
      </trkpt>
      <trkpt lat="47.40818" lon="-0.48286">
        <ele>22.898438</ele>
        <time>2014-09-03T13:17:20.000Z</time>
      </trkpt>
      <trkpt lat="47.40814" lon="-0.48299">
        <ele>22.199219</ele>
        <time>2014-09-03T13:17:22.000Z</time>
      </trkpt>
      <trkpt lat="47.40812" lon="-0.48312">
        <ele>22.398438</ele>
        <time>2014-09-03T13:17:24.000Z</time>
      </trkpt>
      <trkpt lat="47.40811" lon="-0.48327">
        <ele>22.5</ele>
        <time>2014-09-03T13:17:26.000Z</time>
      </trkpt>
      <trkpt lat="47.40801" lon="-0.4847">
        <ele>19.796875</ele>
        <time>2014-09-03T13:17:42.000Z</time>
      </trkpt>
      <trkpt lat="47.40801" lon="-0.48487">
        <ele>20</ele>
        <time>2014-09-03T13:17:44.000Z</time>
      </trkpt>
      <trkpt lat="47.40803" lon="-0.48504">
        <ele>20.296875</ele>
        <time>2014-09-03T13:17:46.000Z</time>
      </trkpt>
      <trkpt lat="47.40808" lon="-0.48519">
        <ele>20.398438</ele>
        <time>2014-09-03T13:17:48.000Z</time>
      </trkpt>
      <trkpt lat="47.40817" lon="-0.4855">
        <ele>20.597656</ele>
        <time>2014-09-03T13:17:52.000Z</time>
      </trkpt>
      <trkpt lat="47.40838" lon="-0.48628">
        <ele>20.699219</ele>
        <time>2014-09-03T13:18:02.000Z</time>
      </trkpt>
      <trkpt lat="47.4084" lon="-0.48643">
        <ele>21.5</ele>
        <time>2014-09-03T13:18:04.000Z</time>
      </trkpt>
      <trkpt lat="47.40842" lon="-0.48657">
        <ele>22</ele>
        <time>2014-09-03T13:18:06.000Z</time>
      </trkpt>
      <trkpt lat="47.40843" lon="-0.48672">
        <ele>22.398438</ele>
        <time>2014-09-03T13:18:08.000Z</time>
      </trkpt>
      <trkpt lat="47.40843" lon="-0.48686">
        <ele>22.597656</ele>
        <time>2014-09-03T13:18:10.000Z</time>
      </trkpt>
      <trkpt lat="47.40847" lon="-0.48742">
        <ele>23.5</ele>
        <time>2014-09-03T13:18:18.000Z</time>
      </trkpt>
      <trkpt lat="47.40846" lon="-0.48756">
        <ele>23.597656</ele>
        <time>2014-09-03T13:18:20.000Z</time>
      </trkpt>
      <trkpt lat="47.40844" lon="-0.48783">
        <ele>24.699219</ele>
        <time>2014-09-03T13:18:24.000Z</time>
      </trkpt>
      <trkpt lat="47.40837" lon="-0.49004">
        <ele>29.296875</ele>
        <time>2014-09-03T13:18:56.000Z</time>
      </trkpt>
      <trkpt lat="47.40838" lon="-0.49018">
        <ele>29.097656</ele>
        <time>2014-09-03T13:18:58.000Z</time>
      </trkpt>
      <trkpt lat="47.40841" lon="-0.49031">
        <ele>28.796875</ele>
        <time>2014-09-03T13:19:00.000Z</time>
      </trkpt>
      <trkpt lat="47.40843" lon="-0.49045">
        <ele>28.597656</ele>
        <time>2014-09-03T13:19:02.000Z</time>
      </trkpt>
      <trkpt lat="47.40849" lon="-0.49096">
        <ele>27</ele>
        <time>2014-09-03T13:19:10.000Z</time>
      </trkpt>
      <trkpt lat="47.4085" lon="-0.49112">
        <ele>26.597656</ele>
        <time>2014-09-03T13:19:12.000Z</time>
      </trkpt>
      <trkpt lat="47.4085" lon="-0.49144">
        <ele>26</ele>
        <time>2014-09-03T13:19:16.000Z</time>
      </trkpt>
      <trkpt lat="47.40849" lon="-0.49159">
        <ele>25.699219</ele>
        <time>2014-09-03T13:19:18.000Z</time>
      </trkpt>
      <trkpt lat="47.40847" lon="-0.49189">
        <ele>25.097656</ele>
        <time>2014-09-03T13:19:22.000Z</time>
      </trkpt>
      <trkpt lat="47.40843" lon="-0.49221">
        <ele>23.5</ele>
        <time>2014-09-03T13:19:26.000Z</time>
      </trkpt>
      <trkpt lat="47.40842" lon="-0.49237">
        <ele>22.597656</ele>
        <time>2014-09-03T13:19:28.000Z</time>
      </trkpt>
      <trkpt lat="47.40843" lon="-0.49267">
        <ele>20.699219</ele>
        <time>2014-09-03T13:19:32.000Z</time>
      </trkpt>
      <trkpt lat="47.40843" lon="-0.49309">
        <ele>18.5</ele>
        <time>2014-09-03T13:19:38.000Z</time>
      </trkpt>
      <trkpt lat="47.40837" lon="-0.49368">
        <ele>16.398438</ele>
        <time>2014-09-03T13:19:46.000Z</time>
      </trkpt>
      <trkpt lat="47.40832" lon="-0.49417">
        <ele>15.699219</ele>
        <time>2014-09-03T13:19:54.000Z</time>
      </trkpt>
      <trkpt lat="47.40828" lon="-0.49449">
        <ele>15.597656</ele>
        <time>2014-09-03T13:19:59.000Z</time>
      </trkpt>
      <trkpt lat="47.40818" lon="-0.49526">
        <ele>16.199219</ele>
        <time>2014-09-03T13:20:09.000Z</time>
      </trkpt>
      <trkpt lat="47.40817" lon="-0.49541">
        <ele>16.796875</ele>
        <time>2014-09-03T13:20:11.000Z</time>
      </trkpt>
      <trkpt lat="47.40818" lon="-0.49572">
        <ele>17.699219</ele>
        <time>2014-09-03T13:20:15.000Z</time>
      </trkpt>
      <trkpt lat="47.40818" lon="-0.49588">
        <ele>18</ele>
        <time>2014-09-03T13:20:17.000Z</time>
      </trkpt>
      <trkpt lat="47.40818" lon="-0.49604">
        <ele>18</ele>
        <time>2014-09-03T13:20:19.000Z</time>
      </trkpt>
      <trkpt lat="47.40811" lon="-0.49709">
        <ele>18</ele>
        <time>2014-09-03T13:20:33.000Z</time>
      </trkpt>
      <trkpt lat="47.40801" lon="-0.49815">
        <ele>17.097656</ele>
        <time>2014-09-03T13:20:47.000Z</time>
      </trkpt>
      <trkpt lat="47.408" lon="-0.49829">
        <ele>17.5</ele>
        <time>2014-09-03T13:20:49.000Z</time>
      </trkpt>
      <trkpt lat="47.40796" lon="-0.49844">
        <ele>17.796875</ele>
        <time>2014-09-03T13:20:51.000Z</time>
      </trkpt>
      <trkpt lat="47.40792" lon="-0.49857">
        <ele>17.597656</ele>
        <time>2014-09-03T13:20:53.000Z</time>
      </trkpt>
      <trkpt lat="47.4079" lon="-0.49873">
        <ele>17.398438</ele>
        <time>2014-09-03T13:20:55.000Z</time>
      </trkpt>
      <trkpt lat="47.40789" lon="-0.49889">
        <ele>17.199219</ele>
        <time>2014-09-03T13:20:57.000Z</time>
      </trkpt>
      <trkpt lat="47.40787" lon="-0.49952">
        <ele>17</ele>
        <time>2014-09-03T13:21:05.000Z</time>
      </trkpt>
      <trkpt lat="47.40788" lon="-0.5">
        <ele>17.199219</ele>
        <time>2014-09-03T13:21:11.000Z</time>
      </trkpt>
      <trkpt lat="47.4079" lon="-0.50341">
        <ele>17.296875</ele>
        <time>2014-09-03T13:21:53.000Z</time>
      </trkpt>
      <trkpt lat="47.40789" lon="-0.5039">
        <ele>17.5</ele>
        <time>2014-09-03T13:21:59.000Z</time>
      </trkpt>
      <trkpt lat="47.40791" lon="-0.50435">
        <ele>18.097656</ele>
        <time>2014-09-03T13:22:05.000Z</time>
      </trkpt>
      <trkpt lat="47.40799" lon="-0.50528">
        <ele>19.597656</ele>
        <time>2014-09-03T13:22:17.000Z</time>
      </trkpt>
      <trkpt lat="47.40798" lon="-0.50544">
        <ele>19.699219</ele>
        <time>2014-09-03T13:22:19.000Z</time>
      </trkpt>
      <trkpt lat="47.40796" lon="-0.50558">
        <ele>19.699219</ele>
        <time>2014-09-03T13:22:21.000Z</time>
      </trkpt>
      <trkpt lat="47.40777" lon="-0.50664">
        <ele>19.5</ele>
        <time>2014-09-03T13:22:37.000Z</time>
      </trkpt>
      <trkpt lat="47.40776" lon="-0.50679">
        <ele>19.398438</ele>
        <time>2014-09-03T13:22:39.000Z</time>
      </trkpt>
      <trkpt lat="47.40775" lon="-0.50694">
        <ele>19.398438</ele>
        <time>2014-09-03T13:22:41.000Z</time>
      </trkpt>
      <trkpt lat="47.40775" lon="-0.50741">
        <ele>19.5</ele>
        <time>2014-09-03T13:22:47.000Z</time>
      </trkpt>
      <trkpt lat="47.40774" lon="-0.50756">
        <ele>19.398438</ele>
        <time>2014-09-03T13:22:49.000Z</time>
      </trkpt>
      <trkpt lat="47.40772" lon="-0.50772">
        <ele>19.296875</ele>
        <time>2014-09-03T13:22:51.000Z</time>
      </trkpt>
      <trkpt lat="47.4076" lon="-0.50834">
        <ele>18.898438</ele>
        <time>2014-09-03T13:23:00.000Z</time>
      </trkpt>
      <trkpt lat="47.40754" lon="-0.50851">
        <ele>18.699219</ele>
        <time>2014-09-03T13:23:03.000Z</time>
      </trkpt>
      <trkpt lat="47.40744" lon="-0.50864">
        <ele>18.796875</ele>
        <time>2014-09-03T13:23:06.000Z</time>
      </trkpt>
      <trkpt lat="47.40736" lon="-0.5087">
        <ele>18.898438</ele>
        <time>2014-09-03T13:23:08.000Z</time>
      </trkpt>
      <trkpt lat="47.40726" lon="-0.50874">
        <ele>18.796875</ele>
        <time>2014-09-03T13:23:10.000Z</time>
      </trkpt>
      <trkpt lat="47.40686" lon="-0.50891">
        <ele>17.5</ele>
        <time>2014-09-03T13:23:18.000Z</time>
      </trkpt>
      <trkpt lat="47.40615" lon="-0.50912">
        <ele>15.398438</ele>
        <time>2014-09-03T13:23:32.000Z</time>
      </trkpt>
      <trkpt lat="47.40606" lon="-0.50918">
        <ele>15.597656</ele>
        <time>2014-09-03T13:23:34.000Z</time>
      </trkpt>
      <trkpt lat="47.406" lon="-0.5093">
        <ele>17.5</ele>
        <time>2014-09-03T13:23:36.000Z</time>
      </trkpt>
      <trkpt lat="47.406" lon="-0.50946">
        <ele>19.796875</ele>
        <time>2014-09-03T13:23:39.000Z</time>
      </trkpt>
      <trkpt lat="47.40601" lon="-0.5096">
        <ele>19.398438</ele>
        <time>2014-09-03T13:23:42.000Z</time>
      </trkpt>
      <trkpt lat="47.40606" lon="-0.50973">
        <ele>19.699219</ele>
        <time>2014-09-03T13:23:46.000Z</time>
      </trkpt>
      <trkpt lat="47.40619" lon="-0.50975">
        <ele>19.597656</ele>
        <time>2014-09-03T13:23:49.000Z</time>
      </trkpt>
      <trkpt lat="47.40628" lon="-0.50973">
        <ele>19.398438</ele>
        <time>2014-09-03T13:23:51.000Z</time>
      </trkpt>
      <trkpt lat="47.40638" lon="-0.50969">
        <ele>20.296875</ele>
        <time>2014-09-03T13:23:54.000Z</time>
      </trkpt>
      <trkpt lat="47.40648" lon="-0.50972">
        <ele>20</ele>
        <time>2014-09-03T13:24:15.000Z</time>
      </trkpt>
      <trkpt lat="47.40659" lon="-0.50968">
        <ele>19.199219</ele>
        <time>2014-09-03T13:24:19.000Z</time>
      </trkpt>
      <trkpt lat="47.40795" lon="-0.50924">
        <ele>14.796875</ele>
        <time>2014-09-03T13:24:49.000Z</time>
      </trkpt>
      <trkpt lat="47.40805" lon="-0.50922">
        <ele>14.597656</ele>
        <time>2014-09-03T13:24:51.000Z</time>
      </trkpt>
      <trkpt lat="47.40814" lon="-0.50923">
        <ele>14.398438</ele>
        <time>2014-09-03T13:24:53.000Z</time>
      </trkpt>
      <trkpt lat="47.40824" lon="-0.50928">
        <ele>14.398438</ele>
        <time>2014-09-03T13:24:55.000Z</time>
      </trkpt>
      <trkpt lat="47.40881" lon="-0.50964">
        <ele>14.699219</ele>
        <time>2014-09-03T13:25:07.000Z</time>
      </trkpt>
      <trkpt lat="47.40889" lon="-0.50973">
        <ele>14.898438</ele>
        <time>2014-09-03T13:25:09.000Z</time>
      </trkpt>
      <trkpt lat="47.40892" lon="-0.50986">
        <ele>15</ele>
        <time>2014-09-03T13:25:11.000Z</time>
      </trkpt>
      <trkpt lat="47.40892" lon="-0.51">
        <ele>15.097656</ele>
        <time>2014-09-03T13:25:13.000Z</time>
      </trkpt>
      <trkpt lat="47.4089" lon="-0.51014">
        <ele>14.796875</ele>
        <time>2014-09-03T13:25:15.000Z</time>
      </trkpt>
      <trkpt lat="47.40889" lon="-0.51029">
        <ele>13.796875</ele>
        <time>2014-09-03T13:25:17.000Z</time>
      </trkpt>
      <trkpt lat="47.40885" lon="-0.51043">
        <ele>13.699219</ele>
        <time>2014-09-03T13:25:19.000Z</time>
      </trkpt>
      <trkpt lat="47.40882" lon="-0.51058">
        <ele>13.898438</ele>
        <time>2014-09-03T13:25:21.000Z</time>
      </trkpt>
      <trkpt lat="47.40879" lon="-0.51073">
        <ele>14.296875</ele>
        <time>2014-09-03T13:25:23.000Z</time>
      </trkpt>
      <trkpt lat="47.40879" lon="-0.51088">
        <ele>15</ele>
        <time>2014-09-03T13:25:25.000Z</time>
      </trkpt>
      <trkpt lat="47.40879" lon="-0.51104">
        <ele>15.796875</ele>
        <time>2014-09-03T13:25:27.000Z</time>
      </trkpt>
      <trkpt lat="47.40879" lon="-0.5112">
        <ele>16.199219</ele>
        <time>2014-09-03T13:25:29.000Z</time>
      </trkpt>
      <trkpt lat="47.40871" lon="-0.51214">
        <ele>18.296875</ele>
        <time>2014-09-03T13:25:41.000Z</time>
      </trkpt>
      <trkpt lat="47.4087" lon="-0.51228">
        <ele>18.398438</ele>
        <time>2014-09-03T13:25:43.000Z</time>
      </trkpt>
      <trkpt lat="47.4087" lon="-0.51245">
        <ele>18.398438</ele>
        <time>2014-09-03T13:25:46.000Z</time>
      </trkpt>
      <trkpt lat="47.40871" lon="-0.51259">
        <ele>18.898438</ele>
        <time>2014-09-03T13:25:48.000Z</time>
      </trkpt>
      <trkpt lat="47.40879" lon="-0.51305">
        <ele>17</ele>
        <time>2014-09-03T13:25:55.000Z</time>
      </trkpt>
      <trkpt lat="47.40887" lon="-0.5132">
        <ele>15.5</ele>
        <time>2014-09-03T13:25:58.000Z</time>
      </trkpt>
      <trkpt lat="47.409" lon="-0.51323">
        <ele>14.398438</ele>
        <time>2014-09-03T13:26:01.000Z</time>
      </trkpt>
      <trkpt lat="47.40911" lon="-0.51316">
        <ele>13.296875</ele>
        <time>2014-09-03T13:26:04.000Z</time>
      </trkpt>
      <trkpt lat="47.40922" lon="-0.51308">
        <ele>12.796875</ele>
        <time>2014-09-03T13:26:07.000Z</time>
      </trkpt>
      <trkpt lat="47.40931" lon="-0.51306">
        <ele>12.097656</ele>
        <time>2014-09-03T13:26:09.000Z</time>
      </trkpt>
      <trkpt lat="47.4094" lon="-0.51308">
        <ele>11.898438</ele>
        <time>2014-09-03T13:26:11.000Z</time>
      </trkpt>
      <trkpt lat="47.40949" lon="-0.51312">
        <ele>11.398438</ele>
        <time>2014-09-03T13:26:13.000Z</time>
      </trkpt>
      <trkpt lat="47.41026" lon="-0.51349">
        <ele>12.699219</ele>
        <time>2014-09-03T13:26:29.000Z</time>
      </trkpt>
      <trkpt lat="47.41035" lon="-0.51356">
        <ele>12.597656</ele>
        <time>2014-09-03T13:26:31.000Z</time>
      </trkpt>
      <trkpt lat="47.41045" lon="-0.51367">
        <ele>12.398438</ele>
        <time>2014-09-03T13:26:34.000Z</time>
      </trkpt>
      <trkpt lat="47.41052" lon="-0.51377">
        <ele>12.898438</ele>
        <time>2014-09-03T13:26:36.000Z</time>
      </trkpt>
      <trkpt lat="47.4106" lon="-0.51385">
        <ele>13.398438</ele>
        <time>2014-09-03T13:26:38.000Z</time>
      </trkpt>
      <trkpt lat="47.4107" lon="-0.5139">
        <ele>14</ele>
        <time>2014-09-03T13:26:40.000Z</time>
      </trkpt>
      <trkpt lat="47.4108" lon="-0.51397">
        <ele>13.796875</ele>
        <time>2014-09-03T13:26:42.000Z</time>
      </trkpt>
      <trkpt lat="47.41086" lon="-0.51408">
        <ele>14.199219</ele>
        <time>2014-09-03T13:26:44.000Z</time>
      </trkpt>
      <trkpt lat="47.41087" lon="-0.51422">
        <ele>16.097656</ele>
        <time>2014-09-03T13:26:46.000Z</time>
      </trkpt>
      <trkpt lat="47.41087" lon="-0.51439">
        <ele>17</ele>
        <time>2014-09-03T13:26:49.000Z</time>
      </trkpt>
      <trkpt lat="47.41085" lon="-0.51482">
        <ele>18.699219</ele>
        <time>2014-09-03T13:26:58.000Z</time>
      </trkpt>
      <trkpt lat="47.41085" lon="-0.51513">
        <ele>18.398438</ele>
        <time>2014-09-03T13:27:04.000Z</time>
      </trkpt>
      <trkpt lat="47.41081" lon="-0.51531">
        <ele>18.398438</ele>
        <time>2014-09-03T13:27:07.000Z</time>
      </trkpt>
      <trkpt lat="47.40941" lon="-0.52349">
        <ele>21.296875</ele>
        <time>2014-09-03T13:28:31.000Z</time>
      </trkpt>
      <trkpt lat="47.40937" lon="-0.52384">
        <ele>23.097656</ele>
        <time>2014-09-03T13:28:35.000Z</time>
      </trkpt>
      <trkpt lat="47.40936" lon="-0.52399">
        <ele>23.5</ele>
        <time>2014-09-03T13:28:37.000Z</time>
      </trkpt>
      <trkpt lat="47.40935" lon="-0.52435">
        <ele>24.199219</ele>
        <time>2014-09-03T13:28:41.000Z</time>
      </trkpt>
      <trkpt lat="47.40937" lon="-0.5245">
        <ele>24.5</ele>
        <time>2014-09-03T13:28:43.000Z</time>
      </trkpt>
      <trkpt lat="47.4094" lon="-0.52463">
        <ele>24.296875</ele>
        <time>2014-09-03T13:28:46.000Z</time>
      </trkpt>
      <trkpt lat="47.40948" lon="-0.52472">
        <ele>24.199219</ele>
        <time>2014-09-03T13:28:52.000Z</time>
      </trkpt>
      <trkpt lat="47.40958" lon="-0.5247">
        <ele>24.097656</ele>
        <time>2014-09-03T13:28:55.000Z</time>
      </trkpt>
      <trkpt lat="47.4097" lon="-0.52465">
        <ele>23.796875</ele>
        <time>2014-09-03T13:28:58.000Z</time>
      </trkpt>
      <trkpt lat="47.4121" lon="-0.52376">
        <ele>20.097656</ele>
        <time>2014-09-03T13:29:37.000Z</time>
      </trkpt>
      <trkpt lat="47.41447" lon="-0.5231">
        <ele>30.597656</ele>
        <time>2014-09-03T13:30:22.000Z</time>
      </trkpt>
      <trkpt lat="47.41456" lon="-0.52318">
        <ele>32.296875</ele>
        <time>2014-09-03T13:30:47.000Z</time>
      </trkpt>
      <trkpt lat="47.41468" lon="-0.52317">
        <ele>33.296875</ele>
        <time>2014-09-03T13:30:51.000Z</time>
      </trkpt>
      <trkpt lat="47.41501" lon="-0.52318">
        <ele>35</ele>
        <time>2014-09-03T13:31:02.000Z</time>
      </trkpt>
      <trkpt lat="47.41554" lon="-0.52321">
        <ele>32.398438</ele>
        <time>2014-09-03T13:31:24.000Z</time>
      </trkpt>
      <trkpt lat="47.41816" lon="-0.52331">
        <ele>26.296875</ele>
        <time>2014-09-03T13:32:19.000Z</time>
      </trkpt>
      <trkpt lat="47.41827" lon="-0.52326">
        <ele>26.296875</ele>
        <time>2014-09-03T13:32:21.000Z</time>
      </trkpt>
      <trkpt lat="47.41836" lon="-0.52317">
        <ele>26</ele>
        <time>2014-09-03T13:32:23.000Z</time>
      </trkpt>
      <trkpt lat="47.41845" lon="-0.52315">
        <ele>25.699219</ele>
        <time>2014-09-03T13:32:25.000Z</time>
      </trkpt>
      <trkpt lat="47.41854" lon="-0.52321">
        <ele>24.5</ele>
        <time>2014-09-03T13:32:29.000Z</time>
      </trkpt>
      <trkpt lat="47.41864" lon="-0.5233">
        <ele>24.296875</ele>
        <time>2014-09-03T13:33:06.000Z</time>
      </trkpt>
      <trkpt lat="47.41873" lon="-0.52334">
        <ele>23.898438</ele>
        <time>2014-09-03T13:33:09.000Z</time>
      </trkpt>
      <trkpt lat="47.41886" lon="-0.52335">
        <ele>23.699219</ele>
        <time>2014-09-03T13:33:12.000Z</time>
      </trkpt>
      <trkpt lat="47.42268" lon="-0.52364">
        <ele>21.898438</ele>
        <time>2014-09-03T13:34:12.000Z</time>
      </trkpt>
      <trkpt lat="47.42281" lon="-0.52368">
        <ele>21.597656</ele>
        <time>2014-09-03T13:34:14.000Z</time>
      </trkpt>
      <trkpt lat="47.42293" lon="-0.52374">
        <ele>21.296875</ele>
        <time>2014-09-03T13:34:16.000Z</time>
      </trkpt>
      <trkpt lat="47.42318" lon="-0.5239">
        <ele>20.699219</ele>
        <time>2014-09-03T13:34:20.000Z</time>
      </trkpt>
      <trkpt lat="47.42432" lon="-0.52473">
        <ele>18.898438</ele>
        <time>2014-09-03T13:34:38.000Z</time>
      </trkpt>
      <trkpt lat="47.42464" lon="-0.52501">
        <ele>18.898438</ele>
        <time>2014-09-03T13:34:44.000Z</time>
      </trkpt>
      <trkpt lat="47.42473" lon="-0.52507">
        <ele>19.097656</ele>
        <time>2014-09-03T13:34:46.000Z</time>
      </trkpt>
      <trkpt lat="47.42482" lon="-0.5251">
        <ele>19.398438</ele>
        <time>2014-09-03T13:34:48.000Z</time>
      </trkpt>
      <trkpt lat="47.42488" lon="-0.52526">
        <ele>19.597656</ele>
        <time>2014-09-03T13:34:51.000Z</time>
      </trkpt>
      <trkpt lat="47.42484" lon="-0.52539">
        <ele>19.597656</ele>
        <time>2014-09-03T13:34:53.000Z</time>
      </trkpt>
      <trkpt lat="47.42476" lon="-0.52552">
        <ele>19.398438</ele>
        <time>2014-09-03T13:34:55.000Z</time>
      </trkpt>
      <trkpt lat="47.42472" lon="-0.52568">
        <ele>19.5</ele>
        <time>2014-09-03T13:34:57.000Z</time>
      </trkpt>
      <trkpt lat="47.42463" lon="-0.52602">
        <ele>18.796875</ele>
        <time>2014-09-03T13:35:01.000Z</time>
      </trkpt>
      <trkpt lat="47.42459" lon="-0.52619">
        <ele>18.898438</ele>
        <time>2014-09-03T13:35:03.000Z</time>
      </trkpt>
      <trkpt lat="47.42457" lon="-0.52635">
        <ele>19.097656</ele>
        <time>2014-09-03T13:35:05.000Z</time>
      </trkpt>
      <trkpt lat="47.42452" lon="-0.52667">
        <ele>20.597656</ele>
        <time>2014-09-03T13:35:09.000Z</time>
      </trkpt>
      <trkpt lat="47.42451" lon="-0.52686">
        <ele>20</ele>
        <time>2014-09-03T13:35:12.000Z</time>
      </trkpt>
      <trkpt lat="47.42455" lon="-0.527">
        <ele>19.398438</ele>
        <time>2014-09-03T13:35:15.000Z</time>
      </trkpt>
      <trkpt lat="47.42458" lon="-0.52717">
        <ele>19.296875</ele>
        <time>2014-09-03T13:35:18.000Z</time>
      </trkpt>
      <trkpt lat="47.4246" lon="-0.52735">
        <ele>19.398438</ele>
        <time>2014-09-03T13:35:21.000Z</time>
      </trkpt>
      <trkpt lat="47.42461" lon="-0.52754">
        <ele>19</ele>
        <time>2014-09-03T13:35:24.000Z</time>
      </trkpt>
      <trkpt lat="47.42459" lon="-0.52772">
        <ele>19</ele>
        <time>2014-09-03T13:35:27.000Z</time>
      </trkpt>
      <trkpt lat="47.42457" lon="-0.52789">
        <ele>19.898438</ele>
        <time>2014-09-03T13:35:30.000Z</time>
      </trkpt>
      <trkpt lat="47.42459" lon="-0.52805">
        <ele>20.699219</ele>
        <time>2014-09-03T13:35:33.000Z</time>
      </trkpt>
      <trkpt lat="47.42462" lon="-0.52823">
        <ele>20.699219</ele>
        <time>2014-09-03T13:35:36.000Z</time>
      </trkpt>
      <trkpt lat="47.42458" lon="-0.5284">
        <ele>20.296875</ele>
        <time>2014-09-03T13:35:39.000Z</time>
      </trkpt>
      <trkpt lat="47.42451" lon="-0.52851">
        <ele>20.296875</ele>
        <time>2014-09-03T13:35:42.000Z</time>
      </trkpt>
      <trkpt lat="47.42448" lon="-0.52864">
        <ele>20</ele>
        <time>2014-09-03T13:35:45.000Z</time>
      </trkpt>
      <trkpt lat="47.42442" lon="-0.52895">
        <ele>17.699219</ele>
        <time>2014-09-03T13:35:53.000Z</time>
      </trkpt>
      <trkpt lat="47.42449" lon="-0.52904">
        <ele>16.199219</ele>
        <time>2014-09-03T13:35:57.000Z</time>
      </trkpt>
      <trkpt lat="47.4246" lon="-0.52908">
        <ele>16.199219</ele>
        <time>2014-09-03T13:36:01.000Z</time>
      </trkpt>
      <trkpt lat="47.4247" lon="-0.52911">
        <ele>16.199219</ele>
        <time>2014-09-03T13:36:05.000Z</time>
      </trkpt>
      <trkpt lat="47.42479" lon="-0.52912">
        <ele>16.199219</ele>
        <time>2014-09-03T13:36:08.000Z</time>
      </trkpt>
      <trkpt lat="47.42502" lon="-0.52916">
        <ele>16.296875</ele>
        <time>2014-09-03T13:36:14.000Z</time>
      </trkpt>
      <trkpt lat="47.42514" lon="-0.52914">
        <ele>16.5</ele>
        <time>2014-09-03T13:36:17.000Z</time>
      </trkpt>
      <trkpt lat="47.42524" lon="-0.52909">
        <ele>16.5</ele>
        <time>2014-09-03T13:36:20.000Z</time>
      </trkpt>
      <trkpt lat="47.42533" lon="-0.52904">
        <ele>16.097656</ele>
        <time>2014-09-03T13:36:23.000Z</time>
      </trkpt>
      <trkpt lat="47.42542" lon="-0.52914">
        <ele>16.097656</ele>
        <time>2014-09-03T13:36:27.000Z</time>
      </trkpt>
      <trkpt lat="47.42541" lon="-0.52928">
        <ele>15.5</ele>
        <time>2014-09-03T13:36:30.000Z</time>
      </trkpt>
      <trkpt lat="47.42552" lon="-0.5294">
        <ele>15.199219</ele>
        <time>2014-09-03T13:37:09.000Z</time>
      </trkpt>
    </trkseg>
  </trk>
</gpx>